Provisional Data: Tuscarora Creek near Woodhull, NY


Please select a monitoring station.
Please select start date.
Please select start date.

Toggle Unit: C/F Toggle Unit: C/F
Sample Time Temperature (C) Temperature (F) Specific Conductivity (mS/cm) pH   Turbidity (NTU+) DO (mg/L)
12/23/2022 12:00:00 AM 0.03 32.054 0.463 8 2.48 14.09
12/23/2022 12:15:00 AM 0.03 32.054 0.462 7.98 2.5 14.07
12/23/2022 12:30:00 AM 0.03 32.054 0.46 7.99 2.57 14.06
12/23/2022 12:45:00 AM 0.03 32.054 0.459 7.99 2.85 14.04
12/23/2022 1:00:00 AM 0.03 32.054 0.459 7.98 2.8 14.03
12/23/2022 1:15:00 AM 0.02 32.036 0.46 7.98 2.85 14.01
12/23/2022 1:30:00 AM 0.02 32.036 0.461 7.98 2.84 14
12/23/2022 1:45:00 AM 0.02 32.036 0.461 7.96 2.84 13.99
12/23/2022 2:00:00 AM 0.02 32.036 0.461 7.97 2.56 13.98
12/23/2022 2:15:00 AM 0.01 32.018 0.459 7.97 2.89 13.97
12/23/2022 2:30:00 AM 0.01 32.018 0.457 7.95 2.74 13.96
12/23/2022 2:45:00 AM 0 32 0.458 7.95 3.68 13.95
12/23/2022 3:00:00 AM 0 32 0.461 7.95 3.77 13.94
12/23/2022 3:15:00 AM -0.01 31.982 0.467 7.94 4.01 13.94
12/23/2022 3:30:00 AM -0.01 31.982 0.477 7.93 4.3 13.92
12/23/2022 3:45:00 AM -0.01 31.982 0.492 7.93 4.16 13.91
12/23/2022 4:00:00 AM -0.02 31.964 0.509 7.92 4.39 13.89
12/23/2022 4:15:00 AM -0.02 31.964 0.526 7.92 4.27 13.89
12/23/2022 4:30:00 AM -0.02 31.964 0.536 7.91 4.4 13.88
12/23/2022 4:45:00 AM -0.03 31.946 0.54 7.91 4.44 13.88
12/23/2022 5:00:00 AM -0.03 31.946 0.543 7.91 4.83 13.86
12/23/2022 5:15:00 AM -0.04 31.928 0.546 7.9 5.23 13.86
12/23/2022 5:30:00 AM -0.04 31.928 0.551 7.9 6.3 13.86
12/23/2022 5:45:00 AM -0.04 31.928 0.555 7.89 7.31 13.85
12/23/2022 6:00:00 AM -0.04 31.928 0.558 7.9 7.4 13.85
12/23/2022 6:15:00 AM -0.04 31.928 0.56 7.89 8.09 13.85
12/23/2022 6:30:00 AM -0.04 31.928 0.565 7.88 7.31 13.84
12/23/2022 6:45:00 AM -0.05 31.91 0.577 7.88 7.91 13.84
12/23/2022 7:00:00 AM -0.05 31.91 0.598 7.88 10.48 13.84
12/23/2022 7:15:00 AM -0.06 31.892 0.619 7.86 14.15 13.84
12/23/2022 7:30:00 AM -0.06 31.892 0.627 7.87 16.87 13.86
12/23/2022 7:45:00 AM -0.06 31.892 0.63 7.86 22.92 13.88
12/23/2022 8:00:00 AM -0.06 31.892 0.601 7.85 23.09 13.9
12/23/2022 8:15:00 AM -0.05 31.91 0.536 7.85 26.12 13.92
12/23/2022 8:30:00 AM -0.05 31.91 0.463 7.83 32.4 13.95
12/23/2022 8:45:00 AM -0.04 31.928 0.42 7.81 53.74 13.96
12/23/2022 9:00:00 AM -0.04 31.928 0.398 7.79 52.74 13.95
12/23/2022 9:15:00 AM -0.03 31.946 0.388 7.77 56.09 13.94
12/23/2022 9:30:00 AM -0.04 31.928 0.38 7.77 65.72 13.94
12/23/2022 9:45:00 AM -0.04 31.928 0.376 7.77 77.81 13.95
12/23/2022 10:00:00 AM -0.06 31.892 0.375 7.77 110.66 13.96
12/23/2022 10:15:00 AM -0.06 31.892 0.373 7.76 117.89 13.98
12/23/2022 10:30:00 AM -0.06 31.892 0.38 7.78 148.6 14.01
12/23/2022 10:45:00 AM -0.07 31.874 0.398 7.81 139.83 14.03
12/23/2022 11:00:00 AM -0.07 31.874 0.415 7.84 129.26 14.05
12/23/2022 11:15:00 AM -0.07 31.874 0.428 7.86 113.71 14.07
12/23/2022 11:30:00 AM -0.07 31.874 0.434 7.86 129.87 14.09
12/23/2022 11:45:00 AM -0.07 31.874 0.439 7.86 119.14 14.11
12/23/2022 12:00:00 PM -0.08 31.856 0.445 7.85 120.67 14.12
12/23/2022 12:15:00 PM -0.07 31.874 0.454 7.85 118.98 14.14
12/23/2022 12:30:00 PM -0.07 31.874 0.461 7.87 116.82 14.16
12/23/2022 12:45:00 PM -0.07 31.874 0.465 7.87 97.37 14.17
12/23/2022 1:00:00 PM -0.07 31.874 0.468 7.88 103.21 14.19
12/23/2022 1:15:00 PM -0.07 31.874 0.467 7.88 97.87 14.21
12/23/2022 1:30:00 PM -0.07 31.874 0.463 7.89 88.1 14.23
12/23/2022 1:45:00 PM -0.07 31.874 0.46 7.88 88.34 14.24
12/23/2022 2:00:00 PM -0.07 31.874 0.453 7.87 70.33 14.25
12/23/2022 2:15:00 PM -0.07 31.874 0.445 7.87 76.54 14.27
12/23/2022 2:30:00 PM -0.07 31.874 0.438 7.87 70.13 14.29
12/23/2022 2:45:00 PM -0.07 31.874 0.432 7.87 69.01 14.3
12/23/2022 3:00:00 PM -0.07 31.874 0.428 7.88 70.55 14.31
12/23/2022 3:15:00 PM -0.07 31.874 0.425 7.87 66.4 14.32
12/23/2022 3:30:00 PM -0.07 31.874 0.423 7.88 74.53 14.32
12/23/2022 3:45:00 PM -0.07 31.874 0.422 7.87 61.44 14.33
12/23/2022 4:00:00 PM -0.07 31.874 0.421 7.87 65.83 14.34
12/23/2022 4:15:00 PM -0.07 31.874 0.42 7.87 58.65 14.34
12/23/2022 4:30:00 PM -0.07 31.874 0.419 7.87 57.64 14.33
12/23/2022 4:45:00 PM -0.07 31.874 0.419 7.87 61.04 14.33
12/23/2022 5:00:00 PM -0.07 31.874 0.418 7.86 58.54 14.32
12/23/2022 5:15:00 PM -0.07 31.874 0.418 7.86 56.58 14.3
12/23/2022 5:30:00 PM -0.07 31.874 0.418 7.84 60.65 14.29
12/23/2022 5:45:00 PM -0.07 31.874 0.418 7.84 61.83 14.27
12/23/2022 6:00:00 PM -0.07 31.874 0.418 7.83 55.41 14.26
12/23/2022 6:15:00 PM -0.07 31.874 0.418 7.83 50.66 14.26
12/23/2022 6:30:00 PM -0.07 31.874 0.418 7.82 52.64 14.25
12/23/2022 6:45:00 PM -0.07 31.874 0.418 7.82 48.3 14.24
12/23/2022 7:00:00 PM -0.07 31.874 0.418 7.81 50.01 14.23
12/23/2022 7:15:00 PM -0.07 31.874 0.419 7.81 49.15 14.23
12/23/2022 7:30:00 PM -0.07 31.874 0.419 7.81 42.43 14.23
12/23/2022 7:45:00 PM -0.07 31.874 0.419 7.81 40.83 14.23
12/23/2022 8:00:00 PM -0.07 31.874 0.42 7.81 40.99 14.23
12/23/2022 8:15:00 PM -0.07 31.874 0.421 7.81 36.18 14.23
12/23/2022 8:30:00 PM -0.07 31.874 0.421 7.82 36.35 14.23
12/23/2022 8:45:00 PM -0.07 31.874 0.422 7.82 38.53 14.23
12/23/2022 9:00:00 PM -0.07 31.874 0.422 7.81 41.5 14.23
12/23/2022 9:15:00 PM -0.07 31.874 0.423 7.81 35.44 14.2
12/23/2022 9:30:00 PM -0.07 31.874 0.423 7.82 31.6 14.2
12/23/2022 9:45:00 PM -0.07 31.874 0.423 7.81 31.36 14.2
12/23/2022 10:00:00 PM -0.07 31.874 0.424 7.81 31.11 14.2
12/23/2022 10:15:00 PM -0.07 31.874 0.424 7.82 29.66 14.21
12/23/2022 10:30:00 PM -0.07 31.874 0.424 7.82 27.77 14.2
12/23/2022 10:45:00 PM -0.07 31.874 0.425 7.82 27.64 14.22
12/23/2022 11:00:00 PM -0.07 31.874 0.425 7.82 26.33 14.21
12/23/2022 11:15:00 PM -0.07 31.874 0.426 7.82 25.4 14.22
12/23/2022 11:30:00 PM -0.07 31.874 0.426 7.81 25.08 14.22
12/23/2022 11:45:00 PM -0.07 31.874 0.427 7.82 24.22 14.2
12/24/2022 12:00:00 AM -0.07 31.874 0.427 7.82 24.12 14.21
12/24/2022 12:15:00 AM -0.07 31.874 0.427 7.82 23.73 14.22
12/24/2022 12:30:00 AM -0.07 31.874 0.427 7.83 23.2 14.21
12/24/2022 12:45:00 AM -0.07 31.874 0.427 7.82 22.86 14.21
12/24/2022 1:00:00 AM -0.07 31.874 0.427 7.83 22.83 14.2
12/24/2022 1:15:00 AM -0.07 31.874 0.428 7.81 21.21 14.2
12/24/2022 1:30:00 AM -0.07 31.874 0.429 7.82 22.21 14.2
12/24/2022 1:45:00 AM -0.07 31.874 0.429 7.82 20.87 14.19
12/24/2022 2:00:00 AM -0.07 31.874 0.43 7.82 21.35 14.19
12/24/2022 2:15:00 AM -0.07 31.874 0.431 7.82 19.61 14.17
12/24/2022 2:30:00 AM -0.07 31.874 0.432 7.82 18.91 14.17
12/24/2022 2:45:00 AM -0.07 31.874 0.433 7.82 19.25 14.18
12/24/2022 3:00:00 AM -0.07 31.874 0.433 7.83 18.88 14.19
12/24/2022 3:15:00 AM -0.07 31.874 0.434 7.82 17.99 14.15
12/24/2022 3:30:00 AM -0.07 31.874 0.434 7.82 16.98 14.14
12/24/2022 3:45:00 AM -0.07 31.874 0.435 7.82 17.79 14.14
12/24/2022 4:00:00 AM -0.07 31.874 0.436 7.82 17.23 14.14
12/24/2022 4:15:00 AM -0.07 31.874 0.437 7.82 17.28 14.14
12/24/2022 4:30:00 AM -0.07 31.874 0.437 7.82 17.21 14.14
12/24/2022 4:45:00 AM -0.07 31.874 0.438 7.82 17.07 14.15
12/24/2022 5:00:00 AM -0.07 31.874 0.438 7.83 16.63 14.15
12/24/2022 5:15:00 AM -0.07 31.874 0.439 7.82 15.86 14.16
12/24/2022 5:30:00 AM -0.07 31.874 0.44 7.82 16.1 14.15
12/24/2022 5:45:00 AM -0.07 31.874 0.44 7.81 15.96 14.16
12/24/2022 6:00:00 AM -0.07 31.874 0.441 7.82 16.02 14.16
12/24/2022 6:15:00 AM -0.07 31.874 0.441 7.82 14.95 14.15
12/24/2022 6:30:00 AM -0.07 31.874 0.441 7.82 16.25 14.15
12/24/2022 6:45:00 AM -0.07 31.874 0.442 7.82 14.86 14.14
12/24/2022 7:00:00 AM -0.07 31.874 0.443 7.81 14.67 14.15
12/24/2022 7:15:00 AM -0.07 31.874 0.443 7.81 14.27 14.15
12/24/2022 7:30:00 AM -0.07 31.874 0.444 7.81 14 14.17
12/24/2022 7:45:00 AM -0.07 31.874 0.445 7.81 14.07 14.17
12/24/2022 8:00:00 AM -0.07 31.874 0.446 7.81 13.69 14.18
12/24/2022 8:15:00 AM -0.07 31.874 0.447 7.82 14.05 14.2
12/24/2022 8:30:00 AM -0.07 31.874 0.449 7.81 13.62 14.23
12/24/2022 8:45:00 AM -0.07 31.874 0.45 7.82 13.25 14.25
12/24/2022 9:00:00 AM -0.07 31.874 0.451 7.83 13.35 14.3
12/24/2022 9:15:00 AM -0.07 31.874 0.453 7.83 12.96 14.31
12/24/2022 9:30:00 AM -0.07 31.874 0.454 7.83 12.81 14.37
12/24/2022 9:45:00 AM -0.07 31.874 0.455 7.85 13.03 14.37
12/24/2022 10:00:00 AM -0.07 31.874 0.456 7.86 12.72 14.42
12/24/2022 10:15:00 AM -0.07 31.874 0.458 7.85 13.05 14.45
12/24/2022 10:30:00 AM -0.07 31.874 0.459 7.87 13.02 14.5
12/24/2022 10:45:00 AM -0.07 31.874 0.46 7.87 12.52 14.56
12/24/2022 11:00:00 AM -0.07 31.874 0.462 7.88 12.7 14.58
12/24/2022 11:15:00 AM -0.07 31.874 0.462 7.88 12.59 14.61
12/24/2022 11:30:00 AM -0.07 31.874 0.463 7.89 12.16 14.63
12/24/2022 11:45:00 AM -0.07 31.874 0.464 7.9 12.2 14.66
12/24/2022 12:00:00 PM -0.07 31.874 0.465 7.9 12.12 14.65
12/24/2022 12:15:00 PM -0.07 31.874 0.466 7.9 12.06 14.64
12/24/2022 12:30:00 PM -0.07 31.874 0.466 7.91 12.28 14.66
12/24/2022 12:45:00 PM -0.07 31.874 0.467 7.91 11.98 14.66
12/24/2022 1:00:00 PM -0.07 31.874 0.468 7.91 12.16 14.69
12/24/2022 1:15:00 PM -0.07 31.874 0.469 7.92 12.16 14.69
12/24/2022 1:30:00 PM -0.07 31.874 0.47 7.92 12.24 14.7
12/24/2022 1:45:00 PM -0.07 31.874 0.47 7.92 12.63 14.68
12/24/2022 2:00:00 PM -0.07 31.874 0.471 7.93 12.19 14.7
12/24/2022 2:15:00 PM -0.07 31.874 0.472 7.93 12.19 14.7
12/24/2022 2:30:00 PM -0.07 31.874 0.472 7.93 11.94 14.7
12/24/2022 2:45:00 PM -0.07 31.874 0.471 7.94 12.21 14.71
12/24/2022 3:00:00 PM -0.07 31.874 0.471 7.93 11.86 14.71
12/24/2022 3:15:00 PM -0.07 31.874 0.471 7.94 11.46 14.71
12/24/2022 3:30:00 PM -0.07 31.874 0.47 7.93 11.52 14.7
12/24/2022 3:45:00 PM -0.07 31.874 0.469 7.93 11.23 14.69
12/24/2022 4:00:00 PM -0.07 31.874 0.468 7.93 11.16 14.66
12/24/2022 4:15:00 PM -0.07 31.874 0.466 7.92 10.83 14.64
12/24/2022 4:30:00 PM -0.07 31.874 0.464 7.92 10.65 14.62
12/24/2022 4:45:00 PM -0.07 31.874 0.462 7.89 10.53 14.59
12/24/2022 5:00:00 PM -0.07 31.874 0.46 7.9 10.84 14.55
12/24/2022 5:15:00 PM -0.07 31.874 0.458 7.89 10.78 14.52
12/24/2022 5:30:00 PM -0.07 31.874 0.457 7.88 10.77 14.48
12/24/2022 5:45:00 PM -0.07 31.874 0.455 7.88 10.44 14.46
12/24/2022 6:00:00 PM -0.07 31.874 0.453 7.87 10.46 14.44
12/24/2022 6:15:00 PM -0.07 31.874 0.452 7.86 10.02 14.41
12/24/2022 6:30:00 PM -0.07 31.874 0.45 7.86 10.03 14.4
12/24/2022 6:45:00 PM -0.07 31.874 0.448 7.84 9.99 14.38
12/24/2022 7:00:00 PM -0.07 31.874 0.447 7.85 9.99 14.37
12/24/2022 7:15:00 PM -0.07 31.874 0.446 7.84 9.92 14.35
12/24/2022 7:30:00 PM -0.07 31.874 0.445 7.84 9.76 14.34
12/24/2022 7:45:00 PM -0.07 31.874 0.445 7.83 9.59 14.33
12/24/2022 8:00:00 PM -0.07 31.874 0.444 7.83 9.57 14.32
12/24/2022 8:15:00 PM -0.07 31.874 0.444 7.83 9.38 14.32
12/24/2022 8:30:00 PM -0.07 31.874 0.444 7.83 9.58 14.31
12/24/2022 8:45:00 PM -0.07 31.874 0.444 7.82 9.56 14.29
12/24/2022 9:00:00 PM -0.07 31.874 0.445 7.82 9.36 14.29
12/24/2022 9:15:00 PM -0.07 31.874 0.446 7.82 9.35 14.29
12/24/2022 9:30:00 PM -0.07 31.874 0.446 7.8 9.06 14.27
12/24/2022 9:45:00 PM -0.07 31.874 0.448 7.81 9.18 14.27
12/24/2022 10:00:00 PM -0.07 31.874 0.449 7.81 9.56 14.26
12/24/2022 10:15:00 PM -0.07 31.874 0.45 7.8 9.08 14.25
12/24/2022 10:30:00 PM -0.07 31.874 0.452 7.81 9.05 14.25
12/24/2022 10:45:00 PM -0.07 31.874 0.453 7.8 8.71 14.23
12/24/2022 11:00:00 PM -0.07 31.874 0.455 7.8 8.87 14.23
12/24/2022 11:15:00 PM -0.07 31.874 0.456 7.8 8.58 14.22
12/24/2022 11:30:00 PM -0.07 31.874 0.457 7.79 8.97 14.21
12/24/2022 11:45:00 PM -0.07 31.874 0.458 7.8 8.45 14.21
12/25/2022 12:00:00 AM -0.07 31.874 0.459 7.79 8.54 14.2
12/25/2022 12:15:00 AM -0.07 31.874 0.46 7.8 8.49 14.19
12/25/2022 12:30:00 AM -0.07 31.874 0.461 7.79 8.46 14.18
12/25/2022 12:45:00 AM -0.07 31.874 0.462 7.79 8.26 14.18
12/25/2022 1:00:00 AM -0.07 31.874 0.463 7.79 8.47 14.17
12/25/2022 1:15:00 AM -0.07 31.874 0.463 7.78 8.33 14.17
12/25/2022 1:30:00 AM -0.07 31.874 0.464 7.79 8.53 14.16
12/25/2022 1:45:00 AM -0.07 31.874 0.464 7.79 8.2 14.15
12/25/2022 2:00:00 AM -0.07 31.874 0.465 7.78 8.41 14.14
12/25/2022 2:15:00 AM -0.07 31.874 0.465 7.79 8.27 14.14
12/25/2022 2:30:00 AM -0.07 31.874 0.466 7.78 8.47 14.13
12/25/2022 2:45:00 AM -0.07 31.874 0.466 7.78 8.22 14.12
12/25/2022 3:00:00 AM -0.07 31.874 0.467 7.78 8.32 14.12
12/25/2022 3:15:00 AM -0.07 31.874 0.467 7.77 8.29 14.12
12/25/2022 3:30:00 AM -0.07 31.874 0.468 7.78 8.22 14.11
12/25/2022 3:45:00 AM -0.07 31.874 0.468 7.78 8.26 14.11
12/25/2022 4:00:00 AM -0.07 31.874 0.469 7.78 8.3 14.11
12/25/2022 4:15:00 AM -0.07 31.874 0.469 7.78 8.42 14.1
12/25/2022 4:30:00 AM -0.07 31.874 0.47 7.78 8.31 14.1
12/25/2022 4:45:00 AM -0.07 31.874 0.47 7.78 8.06 14.09
12/25/2022 5:00:00 AM -0.07 31.874 0.471 7.78 8.28 14.09
12/25/2022 5:15:00 AM -0.07 31.874 0.471 7.78 7.96 14.08
12/25/2022 5:30:00 AM -0.07 31.874 0.472 7.78 8.36 14.07
12/25/2022 5:45:00 AM -0.07 31.874 0.472 7.76 8.57 14.07
12/25/2022 6:00:00 AM -0.07 31.874 0.473 7.77 8.17 14.07
12/25/2022 6:15:00 AM -0.07 31.874 0.473 7.77 8.19 14.06
12/25/2022 6:30:00 AM -0.07 31.874 0.474 7.77 8.24 14.05
12/25/2022 6:45:00 AM -0.07 31.874 0.474 7.76 8.05 14.05
12/25/2022 7:00:00 AM -0.07 31.874 0.475 7.77 8.04 14.05
12/25/2022 7:15:00 AM -0.07 31.874 0.476 7.77 8.48 14.05
12/25/2022 7:30:00 AM -0.07 31.874 0.476 7.77 8.4 14.04
12/25/2022 7:45:00 AM -0.07 31.874 0.477 7.77 8.18 14.04
12/25/2022 8:00:00 AM -0.07 31.874 0.477 7.77 7.97 14.05
12/25/2022 8:15:00 AM -0.07 31.874 0.478 7.76 7.95 14.06
12/25/2022 8:30:00 AM -0.07 31.874 0.478 7.78 8.02 14.09
12/25/2022 8:45:00 AM -0.07 31.874 0.479 7.78 8.03 14.12
12/25/2022 9:00:00 AM -0.07 31.874 0.479 7.79 8.19 14.15
12/25/2022 9:15:00 AM -0.07 31.874 0.479 7.78 8.41 14.21
12/25/2022 9:30:00 AM -0.07 31.874 0.479 7.8 8.27 14.26
12/25/2022 9:45:00 AM -0.07 31.874 0.479 7.81 7.84 14.31
12/25/2022 10:00:00 AM -0.07 31.874 0.479 7.8 8.17 14.37
12/25/2022 10:15:00 AM -0.07 31.874 0.479 7.82 8.44 14.44
12/25/2022 10:30:00 AM -0.07 31.874 0.479 7.83 8.36 14.49
12/25/2022 10:45:00 AM -0.07 31.874 0.478 7.84 8.22 14.52
12/25/2022 11:00:00 AM -0.07 31.874 0.478 7.85 7.99 14.55
12/25/2022 11:15:00 AM -0.07 31.874 0.478 7.85 8.06 14.57
12/25/2022 11:30:00 AM -0.07 31.874 0.477 7.86 8.26 14.59
12/25/2022 11:45:00 AM -0.07 31.874 0.477 7.86 8.28 14.62
12/25/2022 12:00:00 PM -0.07 31.874 0.477 7.87 8.42 14.62
12/25/2022 12:15:00 PM -0.07 31.874 0.477 7.87 8.97 14.63
12/25/2022 12:30:00 PM -0.07 31.874 0.477 7.86 8.31 14.62
12/25/2022 12:45:00 PM -0.07 31.874 0.476 7.87 8.32 14.62
12/25/2022 1:00:00 PM -0.07 31.874 0.476 7.87 10.2 14.65
12/25/2022 1:15:00 PM -0.07 31.874 0.476 7.87 8.45 14.67
12/25/2022 1:30:00 PM -0.07 31.874 0.475 7.87 9.35 14.69
12/25/2022 1:45:00 PM -0.07 31.874 0.475 7.88 8.35 14.7
12/25/2022 2:00:00 PM -0.07 31.874 0.474 7.89 8.5 14.71
12/25/2022 2:15:00 PM -0.07 31.874 0.473 7.89 8.69 14.72
12/25/2022 2:30:00 PM -0.07 31.874 0.473 7.89 8.55 14.73
12/25/2022 2:45:00 PM -0.07 31.874 0.473 7.9 8.89 14.74
12/25/2022 3:00:00 PM -0.07 31.874 0.472 7.9 8.54 14.75
12/25/2022 3:15:00 PM -0.07 31.874 0.472 7.9 8.01 14.75
12/25/2022 3:30:00 PM -0.07 31.874 0.472 7.9 8.37 14.74
12/25/2022 3:45:00 PM -0.07 31.874 0.471 7.9 7.98 14.74
12/25/2022 4:00:00 PM -0.07 31.874 0.471 7.89 8.69 14.73
12/25/2022 4:15:00 PM -0.07 31.874 0.471 7.9 7.7 14.71
12/25/2022 4:30:00 PM -0.07 31.874 0.471 7.89 7.98 14.68
12/25/2022 4:45:00 PM -0.07 31.874 0.471 7.88 7.17 14.63
12/25/2022 5:00:00 PM -0.07 31.874 0.471 7.88 7.4 14.58
12/25/2022 5:15:00 PM -0.07 31.874 0.471 7.87 7.26 14.54
12/25/2022 5:30:00 PM -0.07 31.874 0.471 7.86 6.82 14.5
12/25/2022 5:45:00 PM -0.07 31.874 0.471 7.84 6.99 14.47
12/25/2022 6:00:00 PM -0.07 31.874 0.471 7.85 7.07 14.45
12/25/2022 6:15:00 PM -0.07 31.874 0.471 7.83 6.71 14.44
12/25/2022 6:30:00 PM -0.07 31.874 0.471 7.84 6.75 14.42
12/25/2022 6:45:00 PM -0.07 31.874 0.471 7.83 6.64 14.41
12/25/2022 7:00:00 PM -0.07 31.874 0.471 7.84 6.91 14.4
12/25/2022 7:15:00 PM -0.07 31.874 0.472 7.82 6.81 14.39
12/25/2022 7:30:00 PM -0.07 31.874 0.472 7.83 6.81 14.37
12/25/2022 7:45:00 PM -0.07 31.874 0.472 7.82 6.63 14.37
12/25/2022 8:00:00 PM -0.07 31.874 0.472 7.82 6.52 14.35
12/25/2022 8:15:00 PM -0.07 31.874 0.472 7.82 6.49 14.35
12/25/2022 8:30:00 PM -0.07 31.874 0.472 7.81 6.21 14.33
12/25/2022 8:45:00 PM -0.07 31.874 0.472 7.82 6.33 14.32
12/25/2022 9:00:00 PM -0.07 31.874 0.472 7.81 6.15 14.31
12/25/2022 9:15:00 PM -0.07 31.874 0.472 7.81 6.44 14.3
12/25/2022 9:30:00 PM -0.07 31.874 0.472 7.8 6.28 14.28
12/25/2022 9:45:00 PM -0.07 31.874 0.472 7.79 6.17 14.28
12/25/2022 10:00:00 PM -0.07 31.874 0.472 7.8 6.25 14.26
12/25/2022 10:15:00 PM -0.07 31.874 0.473 7.8 6.56 14.25
12/25/2022 10:30:00 PM -0.07 31.874 0.473 7.78 6.45 14.24
12/25/2022 10:45:00 PM -0.07 31.874 0.473 7.79 6.46 14.23
12/25/2022 11:00:00 PM -0.07 31.874 0.473 7.79 6.34 14.21
12/25/2022 11:15:00 PM -0.07 31.874 0.473 7.78 6.18 14.2
12/25/2022 11:30:00 PM -0.07 31.874 0.473 7.78 6.2 14.18
12/25/2022 11:45:00 PM -0.07 31.874 0.473 7.78 6.36 14.17
12/26/2022 12:00:00 AM -0.07 31.874 0.473 7.78 6.09 14.17
12/26/2022 12:15:00 AM -0.07 31.874 0.474 7.78 5.77 14.16
12/26/2022 12:30:00 AM -0.07 31.874 0.474 7.77 6.15 14.16
12/26/2022 12:45:00 AM -0.07 31.874 0.474 7.76 6.07 14.16
12/26/2022 1:00:00 AM -0.07 31.874 0.474 7.77 6.14 14.16
12/26/2022 1:15:00 AM -0.07 31.874 0.475 7.77 5.9 14.15
12/26/2022 1:30:00 AM -0.07 31.874 0.475 7.76 6.16 14.15
12/26/2022 1:45:00 AM -0.07 31.874 0.475 7.77 6.13 14.15
12/26/2022 2:00:00 AM -0.07 31.874 0.475 7.76 5.87 14.14
12/26/2022 2:15:00 AM -0.07 31.874 0.475 7.76 5.98 14.14
12/26/2022 2:30:00 AM -0.07 31.874 0.475 7.76 5.9 14.14
12/26/2022 2:45:00 AM -0.07 31.874 0.475 7.76 6.05 14.13
12/26/2022 3:00:00 AM -0.07 31.874 0.475 7.76 5.91 14.13
12/26/2022 3:15:00 AM -0.07 31.874 0.474 7.75 5.48 14.13
12/26/2022 3:30:00 AM -0.07 31.874 0.474 7.76 6.11 14.12
12/26/2022 3:45:00 AM -0.07 31.874 0.474 7.75 5.65 14.12
12/26/2022 4:00:00 AM -0.07 31.874 0.475 7.75 5.92 14.12
12/26/2022 4:15:00 AM -0.07 31.874 0.475 7.75 5.44 14.12
12/26/2022 4:30:00 AM -0.07 31.874 0.475 7.75 5.76 14.12
12/26/2022 4:45:00 AM -0.07 31.874 0.475 7.75 6.08 14.12
12/26/2022 5:00:00 AM -0.07 31.874 0.475 7.74 5.97 14.12
12/26/2022 5:15:00 AM -0.07 31.874 0.476 7.75 5.62 14.12
12/26/2022 5:30:00 AM -0.07 31.874 0.476 7.75 5.81 14.12
12/26/2022 5:45:00 AM -0.07 31.874 0.476 7.75 5.65 14.12
12/26/2022 6:00:00 AM -0.07 31.874 0.476 7.74 5.52 14.11
12/26/2022 6:15:00 AM -0.07 31.874 0.477 7.75 5.76 14.11
12/26/2022 6:30:00 AM -0.07 31.874 0.477 7.75 5.72 14.11
12/26/2022 6:45:00 AM -0.07 31.874 0.477 7.75 5.48 14.11
12/26/2022 7:00:00 AM -0.07 31.874 0.477 7.74 5.47 14.11
12/26/2022 7:15:00 AM -0.07 31.874 0.478 7.74 5.67 14.11
12/26/2022 7:30:00 AM -0.07 31.874 0.478 7.75 5.57 14.11
12/26/2022 7:45:00 AM -0.07 31.874 0.478 7.75 5.6 14.11
12/26/2022 8:00:00 AM -0.07 31.874 0.478 7.75 5.48 14.12
12/26/2022 8:15:00 AM -0.07 31.874 0.478 7.75 5.64 14.15
12/26/2022 8:30:00 AM -0.07 31.874 0.478 7.74 5.47 14.19
12/26/2022 8:45:00 AM -0.07 31.874 0.478 7.76 5.48 14.25
12/26/2022 9:00:00 AM -0.07 31.874 0.478 7.77 5.42 14.33
12/26/2022 9:15:00 AM -0.07 31.874 0.478 7.77 5.38 14.4
12/26/2022 9:30:00 AM -0.07 31.874 0.478 7.79 5.56 14.47
12/26/2022 9:45:00 AM -0.07 31.874 0.478 7.8 5.57 14.55
12/26/2022 10:00:00 AM -0.06 31.892 0.477 7.81 5.65 14.62
12/26/2022 10:15:00 AM -0.06 31.892 0.477 7.82 5.79 14.68
12/26/2022 10:30:00 AM -0.06 31.892 0.476 7.83 5.68 14.73
12/26/2022 10:45:00 AM -0.06 31.892 0.476 7.84 5.76 14.78
12/26/2022 11:00:00 AM -0.06 31.892 0.475 7.85 5.75 14.81
12/26/2022 11:15:00 AM -0.06 31.892 0.475 7.85 6.21 14.84
12/26/2022 11:30:00 AM -0.06 31.892 0.475 7.86 5.54 14.87
12/26/2022 11:45:00 AM -0.06 31.892 0.474 7.87 6 14.89
12/26/2022 12:00:00 PM -0.06 31.892 0.474 7.87 5.65 14.91
12/26/2022 12:15:00 PM -0.06 31.892 0.473 7.87 5.91 14.93
12/26/2022 12:30:00 PM -0.06 31.892 0.473 7.89 6 14.95
12/26/2022 12:45:00 PM -0.06 31.892 0.472 7.89 6.55 14.97
12/26/2022 1:00:00 PM -0.06 31.892 0.471 7.89 6.38 14.99
12/26/2022 1:15:00 PM -0.06 31.892 0.471 7.91 5.91 15.01
12/26/2022 1:30:00 PM -0.06 31.892 0.47 7.91 6.03 15.02
12/26/2022 1:45:00 PM -0.07 31.874 0.47 7.91 6.03 15.04
12/26/2022 2:00:00 PM -0.07 31.874 0.469 7.92 6.2 15.05
12/26/2022 2:15:00 PM -0.07 31.874 0.469 7.93 6.02 15.06
12/26/2022 2:30:00 PM -0.07 31.874 0.468 7.93 6.1 15.06
12/26/2022 2:45:00 PM -0.07 31.874 0.468 7.94 6.37 15.06
12/26/2022 3:00:00 PM -0.07 31.874 0.468 7.94 6.54 15.06
12/26/2022 3:15:00 PM -0.07 31.874 0.467 7.94 5.96 15.06
12/26/2022 3:30:00 PM -0.07 31.874 0.467 7.94 5.69 15.05
12/26/2022 3:45:00 PM -0.07 31.874 0.467 7.94 5.85 15.02
12/26/2022 4:00:00 PM -0.07 31.874 0.467 7.94 5.69 14.99
12/26/2022 4:15:00 PM -0.07 31.874 0.467 7.93 5.58 14.95
12/26/2022 4:30:00 PM -0.07 31.874 0.466 7.92 5.9 14.89
12/26/2022 4:45:00 PM -0.07 31.874 0.466 7.91 5.49 14.83
12/26/2022 5:00:00 PM -0.07 31.874 0.466 7.9 5.62 14.77
12/26/2022 5:15:00 PM -0.07 31.874 0.466 7.88 5.43 14.72
12/26/2022 5:30:00 PM -0.07 31.874 0.466 7.88 5.68 14.67
12/26/2022 5:45:00 PM -0.07 31.874 0.466 7.87 5.38 14.63
12/26/2022 6:00:00 PM -0.07 31.874 0.466 7.87 6.31 14.6
12/26/2022 6:15:00 PM -0.07 31.874 0.466 7.86 5.37 14.58
12/26/2022 6:30:00 PM -0.07 31.874 0.466 7.86 5.31 14.55
12/26/2022 6:45:00 PM -0.07 31.874 0.466 7.86 5.57 14.54
12/26/2022 7:00:00 PM -0.07 31.874 0.466 7.83 5.35 14.52
12/26/2022 7:15:00 PM -0.07 31.874 0.466 7.85 5.17 14.51
12/26/2022 7:30:00 PM -0.07 31.874 0.466 7.85 5.35 14.49
12/26/2022 7:45:00 PM -0.07 31.874 0.466 7.84 5.44 14.48
12/26/2022 8:00:00 PM -0.07 31.874 0.466 7.84 4.98 14.47
12/26/2022 8:15:00 PM -0.07 31.874 0.466 7.84 5.32 14.45
12/26/2022 8:30:00 PM -0.07 31.874 0.466 7.83 5.37 14.44
12/26/2022 8:45:00 PM -0.07 31.874 0.466 7.83 5.34 14.42
12/26/2022 9:00:00 PM -0.07 31.874 0.466 7.82 5.2 14.41
12/26/2022 9:15:00 PM -0.07 31.874 0.466 7.83 5.27 14.4
12/26/2022 9:30:00 PM -0.07 31.874 0.467 7.82 5.22 14.38
12/26/2022 9:45:00 PM -0.07 31.874 0.467 7.81 5.08 14.37
12/26/2022 10:00:00 PM -0.07 31.874 0.467 7.81 5.23 14.35
12/26/2022 10:15:00 PM -0.07 31.874 0.467 7.81 5.38 14.34
12/26/2022 10:30:00 PM -0.07 31.874 0.467 7.81 5.3 14.32
12/26/2022 10:45:00 PM -0.07 31.874 0.468 7.8 5.24 14.31
12/26/2022 11:00:00 PM -0.07 31.874 0.468 7.8 5.16 14.3
12/26/2022 11:15:00 PM -0.07 31.874 0.468 7.8 5.12 14.28
12/26/2022 11:30:00 PM -0.07 31.874 0.468 7.8 5.25 14.28
12/26/2022 11:45:00 PM -0.07 31.874 0.469 7.78 5.31 14.27
12/27/2022 12:00:00 AM -0.07 31.874 0.469 7.79 5.43 14.26
12/27/2022 12:15:00 AM -0.07 31.874 0.469 7.78 5.25 14.25
12/27/2022 12:30:00 AM -0.07 31.874 0.469 7.79 5.51 14.24
12/27/2022 12:45:00 AM -0.07 31.874 0.469 7.78 5.54 14.24
12/27/2022 1:00:00 AM -0.07 31.874 0.47 7.78 5.59 14.23
12/27/2022 1:15:00 AM -0.07 31.874 0.47 7.78 5.48 14.22
12/27/2022 1:30:00 AM -0.07 31.874 0.47 7.78 5.16 14.22
12/27/2022 1:45:00 AM -0.07 31.874 0.47 7.78 5.36 14.21
12/27/2022 2:00:00 AM -0.07 31.874 0.47 7.77 5.37 14.21
12/27/2022 2:15:00 AM -0.07 31.874 0.471 7.78 5.24 14.2
12/27/2022 2:30:00 AM -0.07 31.874 0.471 7.77 5.21 14.2
12/27/2022 2:45:00 AM -0.07 31.874 0.471 7.78 5.23 14.2
12/27/2022 3:00:00 AM -0.07 31.874 0.471 7.77 5.26 14.19
12/27/2022 3:15:00 AM -0.07 31.874 0.471 7.78 5.35 14.19
12/27/2022 3:30:00 AM -0.07 31.874 0.471 7.78 5.17 14.19
12/27/2022 3:45:00 AM -0.07 31.874 0.471 7.77 5.12 14.19
12/27/2022 4:00:00 AM -0.07 31.874 0.471 7.77 5.21 14.19
12/27/2022 4:15:00 AM -0.07 31.874 0.471 7.77 5.23 14.18
12/27/2022 4:30:00 AM -0.07 31.874 0.471 7.77 4.93 14.18
12/27/2022 4:45:00 AM -0.07 31.874 0.471 7.77 5.05 14.18
12/27/2022 5:00:00 AM -0.07 31.874 0.471 7.77 4.97 14.18
12/27/2022 5:15:00 AM -0.07 31.874 0.471 7.77 5.13 14.18
12/27/2022 5:30:00 AM -0.07 31.874 0.471 7.77 4.99 14.18
12/27/2022 5:45:00 AM -0.07 31.874 0.471 7.77 4.86 14.18
12/27/2022 6:00:00 AM -0.07 31.874 0.471 7.77 4.93 14.18
12/27/2022 6:15:00 AM -0.07 31.874 0.471 7.77 5.06 14.18
12/27/2022 6:30:00 AM -0.07 31.874 0.471 7.77 5.01 14.18
12/27/2022 6:45:00 AM -0.07 31.874 0.471 7.77 6.07 14.18
12/27/2022 7:00:00 AM -0.07 31.874 0.471 7.77 4.92 14.18
12/27/2022 7:15:00 AM -0.07 31.874 0.471 7.77 5 14.18
12/27/2022 7:30:00 AM -0.07 31.874 0.471 7.77 5 14.18
12/27/2022 7:45:00 AM -0.07 31.874 0.471 7.77 5.13 14.19
12/27/2022 8:00:00 AM -0.07 31.874 0.471 7.78 4.89 14.19
12/27/2022 8:15:00 AM -0.07 31.874 0.471 7.78 4.99 14.21
12/27/2022 8:30:00 AM -0.07 31.874 0.471 7.78 4.87 14.24
12/27/2022 8:45:00 AM -0.07 31.874 0.471 7.79 4.87 14.28
12/27/2022 9:00:00 AM -0.07 31.874 0.471 7.79 4.85 14.33
12/27/2022 9:15:00 AM -0.07 31.874 0.471 7.8 4.78 14.39
12/27/2022 9:30:00 AM -0.07 31.874 0.471 7.81 4.7 14.45
12/27/2022 9:45:00 AM -0.07 31.874 0.47 7.82 4.64 14.52
12/27/2022 10:00:00 AM -0.07 31.874 0.47 7.83 4.87 14.58
12/27/2022 10:15:00 AM -0.07 31.874 0.47 7.84 4.84 14.64
12/27/2022 10:30:00 AM -0.07 31.874 0.47 7.85 6.9 14.69
12/27/2022 10:45:00 AM -0.07 31.874 0.47 7.86 6.01 14.74
12/27/2022 11:00:00 AM -0.07 31.874 0.47 7.88 4.97 14.79
12/27/2022 11:15:00 AM -0.07 31.874 0.47 7.88 5.13 14.84
12/27/2022 11:30:00 AM -0.07 31.874 0.47 7.89 4.84 14.88
12/27/2022 11:45:00 AM -0.07 31.874 0.47 7.9 4.97 14.91
12/27/2022 12:00:00 PM -0.07 31.874 0.47 7.91 4.89 14.93
12/27/2022 12:15:00 PM -0.07 31.874 0.469 7.92 4.72 14.94
12/27/2022 12:30:00 PM -0.06 31.892 0.469 7.92 4.75 14.95
12/27/2022 12:45:00 PM -0.06 31.892 0.469 7.93 4.96 14.97
12/27/2022 1:00:00 PM -0.06 31.892 0.469 7.94 5.14 14.99
12/27/2022 1:15:00 PM -0.06 31.892 0.468 7.93 4.92 15.01
12/27/2022 1:30:00 PM -0.06 31.892 0.468 7.95 5.16 15.04
12/27/2022 1:45:00 PM -0.06 31.892 0.467 7.95 5.32 15.06
12/27/2022 2:00:00 PM -0.06 31.892 0.467 7.96 5.4 15.09
12/27/2022 2:15:00 PM -0.06 31.892 0.467 7.97 5.17 15.11
12/27/2022 2:30:00 PM -0.06 31.892 0.467 7.96 5.5 15.12
12/27/2022 2:45:00 PM -0.06 31.892 0.466 7.96 9.87 15.12
12/27/2022 3:00:00 PM -0.06 31.892 0.466 7.96 5.85 15.14
12/27/2022 3:15:00 PM -0.06 31.892 0.465 7.97 5.11 15.16
12/27/2022 3:30:00 PM -0.06 31.892 0.465 7.98 4.76 15.16
12/27/2022 3:45:00 PM -0.06 31.892 0.465 7.98 4.93 15.14
12/27/2022 4:00:00 PM -0.07 31.874 0.464 7.98 4.84 15.11
12/27/2022 4:15:00 PM -0.07 31.874 0.464 7.97 4.75 15.06
12/27/2022 4:30:00 PM -0.07 31.874 0.464 7.97 5 15
12/27/2022 4:45:00 PM -0.07 31.874 0.464 7.96 4.67 14.92
12/27/2022 5:00:00 PM -0.07 31.874 0.464 7.95 4.89 14.84
12/27/2022 5:15:00 PM -0.07 31.874 0.464 7.93 4.65 14.76
12/27/2022 5:30:00 PM -0.07 31.874 0.464 7.92 4.74 14.69
12/27/2022 5:45:00 PM -0.07 31.874 0.464 7.91 4.9 14.64
12/27/2022 6:00:00 PM -0.07 31.874 0.463 7.9 4.33 14.6
12/27/2022 6:15:00 PM -0.07 31.874 0.463 7.89 4.66 14.57
12/27/2022 6:30:00 PM -0.07 31.874 0.463 7.89 4.72 14.55
12/27/2022 6:45:00 PM -0.07 31.874 0.463 7.89 4.43 14.53
12/27/2022 7:00:00 PM -0.07 31.874 0.463 7.88 4.49 14.51
12/27/2022 7:15:00 PM -0.07 31.874 0.463 7.87 4.54 14.5
12/27/2022 7:30:00 PM -0.07 31.874 0.464 7.88 4.62 14.49
12/27/2022 7:45:00 PM -0.07 31.874 0.464 7.87 4.9 14.48
12/27/2022 8:00:00 PM -0.07 31.874 0.464 7.88 4.79 14.47
12/27/2022 8:15:00 PM -0.07 31.874 0.464 7.87 4.46 14.46
12/27/2022 8:30:00 PM -0.07 31.874 0.464 7.87 4.44 14.45
12/27/2022 8:45:00 PM -0.07 31.874 0.464 7.87 4.56 14.44
12/27/2022 9:00:00 PM -0.07 31.874 0.464 7.87 4.39 14.43
12/27/2022 9:15:00 PM -0.07 31.874 0.464 7.87 4.44 14.42
12/27/2022 9:30:00 PM -0.07 31.874 0.464 7.86 4.41 14.41
12/27/2022 9:45:00 PM -0.07 31.874 0.464 7.86 4.3 14.39
12/27/2022 10:00:00 PM -0.07 31.874 0.465 7.86 4.37 14.38
12/27/2022 10:15:00 PM -0.07 31.874 0.465 7.86 4.33 14.37
12/27/2022 10:30:00 PM -0.07 31.874 0.465 7.86 4.32 14.36
12/27/2022 10:45:00 PM -0.07 31.874 0.465 7.85 4.48 14.35
12/27/2022 11:00:00 PM -0.07 31.874 0.465 7.84 4.15 14.34
12/27/2022 11:15:00 PM -0.07 31.874 0.465 7.85 4.59 14.33
12/27/2022 11:30:00 PM -0.07 31.874 0.465 7.84 4.37 14.32
12/27/2022 11:45:00 PM -0.07 31.874 0.466 7.84 4.07 14.31
12/28/2022 12:00:00 AM -0.07 31.874 0.466 7.84 4.35 14.3
12/28/2022 12:15:00 AM -0.07 31.874 0.466 7.84 4.62 14.29
12/28/2022 12:30:00 AM -0.07 31.874 0.466 7.83 4.2 14.28
12/28/2022 12:45:00 AM -0.07 31.874 0.466 7.83 4.34 14.28
12/28/2022 1:00:00 AM -0.07 31.874 0.466 7.83 4.07 14.27
12/28/2022 1:15:00 AM -0.07 31.874 0.466 7.83 4.2 14.26
12/28/2022 1:30:00 AM -0.07 31.874 0.466 7.81 4.17 14.25
12/28/2022 1:45:00 AM -0.07 31.874 0.467 7.82 4.28 14.25
12/28/2022 2:00:00 AM -0.07 31.874 0.467 7.82 4.39 14.24
12/28/2022 2:15:00 AM -0.07 31.874 0.467 7.81 4.29 14.24
12/28/2022 2:30:00 AM -0.07 31.874 0.467 7.82 4.11 14.24
12/28/2022 2:45:00 AM -0.07 31.874 0.467 7.8 4.07 14.24
12/28/2022 3:00:00 AM -0.07 31.874 0.467 7.81 4.2 14.23
12/28/2022 3:15:00 AM -0.07 31.874 0.467 7.81 4.15 14.23
12/28/2022 3:30:00 AM -0.07 31.874 0.467 7.81 4.32 14.23
12/28/2022 3:45:00 AM -0.07 31.874 0.467 7.81 4.33 14.23
12/28/2022 4:00:00 AM -0.07 31.874 0.467 7.81 3.97 14.23
12/28/2022 4:15:00 AM -0.07 31.874 0.467 7.8 4.04 14.22
12/28/2022 4:30:00 AM -0.07 31.874 0.467 7.8 3.98 14.22
12/28/2022 4:45:00 AM -0.07 31.874 0.467 7.8 3.99 14.22
12/28/2022 5:00:00 AM -0.07 31.874 0.467 7.8 4.18 14.22
12/28/2022 5:15:00 AM -0.07 31.874 0.467 7.8 4.04 14.22
12/28/2022 5:30:00 AM -0.06 31.892 0.468 7.8 3.89 14.21
12/28/2022 5:45:00 AM -0.07 31.874 0.467 7.8 3.91 14.21
12/28/2022 6:00:00 AM -0.07 31.874 0.467 7.8 3.89 14.21
12/28/2022 6:15:00 AM -0.07 31.874 0.467 7.8 4.12 14.21
12/28/2022 6:30:00 AM -0.07 31.874 0.467 7.8 3.99 14.21
12/28/2022 6:45:00 AM -0.07 31.874 0.467 7.8 4.03 14.21
12/28/2022 7:00:00 AM -0.07 31.874 0.467 7.8 3.81 14.22
12/28/2022 7:15:00 AM -0.07 31.874 0.467 7.8 4 14.22
12/28/2022 7:30:00 AM -0.07 31.874 0.467 7.8 3.84 14.21
12/28/2022 7:45:00 AM -0.07 31.874 0.467 7.8 3.87 14.23
12/28/2022 8:00:00 AM -0.06 31.892 0.467 7.81 3.79 14.25
12/28/2022 8:15:00 AM -0.06 31.892 0.466 7.81 3.83 14.3
12/28/2022 8:30:00 AM -0.06 31.892 0.466 7.82 3.8 14.37
12/28/2022 8:45:00 AM -0.06 31.892 0.466 7.84 4.3 14.46
12/28/2022 9:00:00 AM -0.05 31.91 0.465 7.85 326.09 14.57
12/28/2022 9:15:00 AM -0.05 31.91 0.465 7.86 3.77 14.67
12/28/2022 9:30:00 AM -0.05 31.91 0.464 7.89 3.77 14.77
12/28/2022 9:45:00 AM -0.05 31.91 0.464 7.9 3.92 14.86
12/28/2022 10:00:00 AM -0.05 31.91 0.464 7.92 3.62 14.92
12/28/2022 10:15:00 AM -0.04 31.928 0.463 7.94 3.71 14.98
12/28/2022 10:30:00 AM -0.04 31.928 0.462 7.96 3.59 15.05
12/28/2022 10:45:00 AM -0.04 31.928 0.462 7.96 4.63 15.1
12/28/2022 11:00:00 AM -0.04 31.928 0.461 7.98 4.05 15.14
12/28/2022 11:15:00 AM -0.02 31.964 0.461 7.99 4.08 15.19
12/28/2022 11:30:00 AM -0.03 31.946 0.461 8 4.24 15.23
12/28/2022 11:45:00 AM -0.03 31.946 0.46 8.02 4.21 15.26
12/28/2022 12:00:00 PM -0.03 31.946 0.46 8.02 4.3 15.27
12/28/2022 12:15:00 PM -0.03 31.946 0.46 8.02 4.79 15.29
12/28/2022 12:30:00 PM -0.04 31.928 0.459 8.04 4.34 15.29
12/28/2022 12:45:00 PM -0.04 31.928 0.459 8.04 4.39 15.3
12/28/2022 1:00:00 PM -0.03 31.946 0.459 8.06 3.95 15.3
12/28/2022 1:15:00 PM -0.03 31.946 0.458 8.05 4.11 15.31
12/28/2022 1:30:00 PM -0.03 31.946 0.458 8.07 4.55 15.33
12/28/2022 1:45:00 PM -0.03 31.946 0.457 8.08 4.07 15.34
12/28/2022 2:00:00 PM -0.04 31.928 0.457 8.07 4.09 15.34
12/28/2022 2:15:00 PM -0.03 31.946 0.457 8.08 3.93 15.33
12/28/2022 2:30:00 PM -0.04 31.928 0.456 8.08 3.9 15.33
12/28/2022 2:45:00 PM -0.04 31.928 0.456 8.09 3.9 15.32
12/28/2022 3:00:00 PM -0.04 31.928 0.455 8.08 3.78 15.31
12/28/2022 3:15:00 PM -0.04 31.928 0.455 8.09 3.69 15.28
12/28/2022 3:30:00 PM -0.05 31.91 0.454 8.09 3.68 15.28
12/28/2022 3:45:00 PM -0.05 31.91 0.454 8.09 3.87 15.26
12/28/2022 4:00:00 PM -0.05 31.91 0.454 8.09 3.79 15.22
12/28/2022 4:15:00 PM -0.05 31.91 0.454 8.07 3.85 15.16
12/28/2022 4:30:00 PM -0.06 31.892 0.453 8.06 3.91 15.08
12/28/2022 4:45:00 PM -0.06 31.892 0.453 8.03 3.48 14.99
12/28/2022 5:00:00 PM -0.06 31.892 0.453 8.02 3.68 14.89
12/28/2022 5:15:00 PM -0.06 31.892 0.453 8 3.65 14.8
12/28/2022 5:30:00 PM -0.06 31.892 0.453 7.97 3.7 14.72
12/28/2022 5:45:00 PM -0.06 31.892 0.453 7.96 3.73 14.66
12/28/2022 6:00:00 PM -0.06 31.892 0.453 7.95 3.61 14.62
12/28/2022 6:15:00 PM -0.06 31.892 0.454 7.93 3.57 14.58
12/28/2022 6:30:00 PM -0.06 31.892 0.455 7.93 3.35 14.56
12/28/2022 6:45:00 PM -0.06 31.892 0.456 7.91 3.68 14.53
12/28/2022 7:00:00 PM -0.06 31.892 0.458 7.91 3.68 14.52
12/28/2022 7:15:00 PM -0.06 31.892 0.458 7.91 3.48 14.5
12/28/2022 7:30:00 PM -0.06 31.892 0.458 7.9 3.7 14.49
12/28/2022 7:45:00 PM -0.06 31.892 0.458 7.9 3.74 14.48
12/28/2022 8:00:00 PM -0.06 31.892 0.457 7.89 3.7 14.46
12/28/2022 8:15:00 PM -0.06 31.892 0.457 7.88 3.46 14.45
12/28/2022 8:30:00 PM -0.06 31.892 0.456 7.88 3.51 14.44
12/28/2022 8:45:00 PM -0.06 31.892 0.455 7.87 3.54 14.43
12/28/2022 9:00:00 PM -0.06 31.892 0.455 7.87 3.57 14.42
12/28/2022 9:15:00 PM -0.06 31.892 0.455 7.87 3.56 14.41
12/28/2022 9:30:00 PM -0.06 31.892 0.454 7.87 3.37 14.4
12/28/2022 9:45:00 PM -0.07 31.874 0.454 7.86 3.37 14.39
12/28/2022 10:00:00 PM -0.06 31.892 0.454 7.85 3.31 14.38
12/28/2022 10:15:00 PM -0.06 31.892 0.454 7.85 3.39 14.37
12/28/2022 10:30:00 PM -0.07 31.874 0.454 7.84 3.48 14.37
12/28/2022 10:45:00 PM -0.07 31.874 0.454 7.85 3.38 14.36
12/28/2022 11:00:00 PM -0.07 31.874 0.454 7.84 3.2 14.35
12/28/2022 11:15:00 PM -0.07 31.874 0.454 7.84 3.21 14.35
12/28/2022 11:30:00 PM -0.07 31.874 0.454 7.83 3.29 14.34
12/28/2022 11:45:00 PM -0.07 31.874 0.454 7.83 3.35 14.33
12/29/2022 12:00:00 AM -0.07 31.874 0.454 7.82 3.47 14.33
12/29/2022 12:15:00 AM -0.07 31.874 0.454 7.82 3.34 14.33
12/29/2022 12:30:00 AM -0.07 31.874 0.455 7.82 3.22 14.32
12/29/2022 12:45:00 AM -0.07 31.874 0.455 7.81 3.42 14.32
12/29/2022 1:00:00 AM -0.07 31.874 0.455 7.81 3.1 14.31
12/29/2022 1:15:00 AM -0.07 31.874 0.455 7.81 3.24 14.31
12/29/2022 1:30:00 AM -0.07 31.874 0.455 7.81 3.27 14.31
12/29/2022 1:45:00 AM -0.07 31.874 0.455 7.81 3.3 14.31
12/29/2022 2:00:00 AM -0.07 31.874 0.455 7.81 3.18 14.31
12/29/2022 2:15:00 AM -0.07 31.874 0.456 7.8 3.22 14.31
12/29/2022 2:30:00 AM -0.07 31.874 0.456 7.8 3.4 14.3
12/29/2022 2:45:00 AM -0.07 31.874 0.456 7.81 3.2 14.31
12/29/2022 3:00:00 AM -0.07 31.874 0.456 7.8 3.15 14.31
12/29/2022 3:15:00 AM -0.07 31.874 0.456 7.8 3.21 14.31
12/29/2022 3:30:00 AM -0.07 31.874 0.456 7.81 3.14 14.31
12/29/2022 3:45:00 AM -0.07 31.874 0.456 7.8 3.27 14.31
12/29/2022 4:00:00 AM -0.07 31.874 0.457 7.8 3.08 14.31
12/29/2022 4:15:00 AM -0.07 31.874 0.457 7.8 3.08 14.31
12/29/2022 4:30:00 AM -0.07 31.874 0.457 7.81 3.07 14.31
12/29/2022 4:45:00 AM -0.07 31.874 0.457 7.79 3.02 14.31
12/29/2022 5:00:00 AM -0.07 31.874 0.457 7.8 3.23 14.32
12/29/2022 5:15:00 AM -0.07 31.874 0.457 7.8 3.08 14.32
12/29/2022 5:30:00 AM -0.07 31.874 0.458 7.8 3.04 14.32
12/29/2022 5:45:00 AM -0.07 31.874 0.458 7.8 3.21 14.32
12/29/2022 6:00:00 AM -0.07 31.874 0.458 7.79 2.99 14.32
12/29/2022 6:15:00 AM -0.07 31.874 0.458 7.8 2.99 14.32
12/29/2022 6:30:00 AM -0.08 31.856 0.458 7.8 2.99 14.33
12/29/2022 6:45:00 AM -0.07 31.874 0.458 7.8 2.9 14.32
12/29/2022 7:00:00 AM -0.07 31.874 0.459 7.81 3.15 14.33
12/29/2022 7:15:00 AM -0.07 31.874 0.459 7.81 3.11 14.33
12/29/2022 7:30:00 AM -0.07 31.874 0.459 7.81 2.98 14.33
12/29/2022 7:45:00 AM -0.07 31.874 0.459 7.81 2.93 14.34
12/29/2022 8:00:00 AM -0.07 31.874 0.46 7.82 2.94 14.36
12/29/2022 8:15:00 AM -0.07 31.874 0.46 7.82 2.95 14.4
12/29/2022 8:30:00 AM -0.07 31.874 0.46 7.84 2.9 14.46
12/29/2022 8:45:00 AM -0.07 31.874 0.46 7.85 2.9 14.54
12/29/2022 9:00:00 AM -0.06 31.892 0.46 7.86 2.89 14.63
12/29/2022 9:15:00 AM -0.06 31.892 0.46 7.88 2.93 14.74
12/29/2022 9:30:00 AM -0.06 31.892 0.46 7.88 2.95 14.85
12/29/2022 9:45:00 AM -0.05 31.91 0.459 7.92 2.95 14.97
12/29/2022 10:00:00 AM -0.03 31.946 0.458 7.94 3.01 15.08
12/29/2022 10:15:00 AM -0.01 31.982 0.457 7.97 3.05 15.18
12/29/2022 10:30:00 AM 0 32 0.457 7.98 3.15 15.26
12/29/2022 10:45:00 AM 0 32 0.456 7.99 2.99 15.32
12/29/2022 11:00:00 AM 0 32 0.455 8.01 3.06 15.36
12/29/2022 11:15:00 AM 0 32 0.454 8.03 3.27 15.39
12/29/2022 11:30:00 AM 0.02 32.036 0.454 8.04 3.21 15.42
12/29/2022 11:45:00 AM 0 32 0.453 8.06 3.36 15.42
12/29/2022 12:00:00 PM 0.01 32.018 0.453 8.07 3.14 15.42
12/29/2022 12:15:00 PM 0.01 32.018 0.453 8.07 3.26 15.42
12/29/2022 12:30:00 PM 0.01 32.018 0.453 8.09 3.57 15.42
12/29/2022 12:45:00 PM 0 32 0.453 8.1 3.75 15.42
12/29/2022 1:00:00 PM -0.01 31.982 0.453 8.09 3.6 15.41
12/29/2022 1:15:00 PM 0 32 0.453 8.11 3.66 15.4
12/29/2022 1:30:00 PM 0 32 0.453 8.11 4.32 15.42
12/29/2022 1:45:00 PM 0 32 0.453 8.12 4.37 15.44
12/29/2022 2:00:00 PM 0 32 0.452 8.13 4.83 15.44
12/29/2022 2:15:00 PM -0.01 31.982 0.452 8.13 4.34 15.42
12/29/2022 2:30:00 PM -0.01 31.982 0.452 8.14 4.6 15.42
12/29/2022 2:45:00 PM -0.01 31.982 0.451 8.14 4.81 15.41
12/29/2022 3:00:00 PM -0.02 31.964 0.451 8.15 4.71 15.41
12/29/2022 3:15:00 PM -0.02 31.964 0.45 8.16 4.41 15.42
12/29/2022 3:30:00 PM -0.02 31.964 0.449 8.16 4.54 15.41
12/29/2022 3:45:00 PM -0.03 31.946 0.449 8.15 4.34 15.38
12/29/2022 4:00:00 PM -0.03 31.946 0.449 8.15 4.5 15.33
12/29/2022 4:15:00 PM -0.04 31.928 0.448 8.14 4.3 15.27
12/29/2022 4:30:00 PM -0.05 31.91 0.448 8.12 4.19 15.18
12/29/2022 4:45:00 PM -0.05 31.91 0.449 8.1 4.09 15.05
12/29/2022 5:00:00 PM -0.05 31.91 0.449 8.06 3.97 14.94
12/29/2022 5:15:00 PM -0.05 31.91 0.448 8.04 3.81 14.83
12/29/2022 5:30:00 PM -0.05 31.91 0.448 8.01 4.45 14.75
12/29/2022 5:45:00 PM -0.05 31.91 0.447 8 4.07 14.68
12/29/2022 6:00:00 PM -0.05 31.91 0.447 7.98 4.65 14.63
12/29/2022 6:15:00 PM -0.05 31.91 0.446 7.96 5.47 14.59
12/29/2022 6:30:00 PM -0.05 31.91 0.446 7.96 5.83 14.55
12/29/2022 6:45:00 PM -0.05 31.91 0.446 7.94 5.83 14.53
12/29/2022 7:00:00 PM -0.05 31.91 0.446 7.94 5.88 14.51
12/29/2022 7:15:00 PM -0.04 31.928 0.446 7.93 5.21 14.49
12/29/2022 7:30:00 PM -0.05 31.91 0.445 7.93 4.8 14.48
12/29/2022 7:45:00 PM -0.05 31.91 0.445 7.92 4.38 14.46
12/29/2022 8:00:00 PM -0.05 31.91 0.445 7.92 4.23 14.45
12/29/2022 8:15:00 PM -0.05 31.91 0.445 7.92 4 14.44
12/29/2022 8:30:00 PM -0.05 31.91 0.445 7.91 3.88 14.43
12/29/2022 8:45:00 PM -0.05 31.91 0.445 7.9 3.95 14.42
12/29/2022 9:00:00 PM -0.05 31.91 0.445 7.91 3.78 14.41
12/29/2022 9:15:00 PM -0.05 31.91 0.445 7.9 3.65 14.4
12/29/2022 9:30:00 PM -0.05 31.91 0.445 7.89 3.68 14.39
12/29/2022 9:45:00 PM -0.05 31.91 0.445 7.89 3.49 14.38
12/29/2022 10:00:00 PM -0.05 31.91 0.445 7.89 3.81 14.37
12/29/2022 10:15:00 PM -0.05 31.91 0.445 7.88 3.64 14.36
12/29/2022 10:30:00 PM -0.05 31.91 0.445 7.87 3.66 14.35
12/29/2022 10:45:00 PM -0.05 31.91 0.446 7.87 3.77 14.35
12/29/2022 11:00:00 PM -0.05 31.91 0.446 7.86 3.61 14.35
12/29/2022 11:15:00 PM -0.05 31.91 0.446 7.87 3.5 14.34
12/29/2022 11:30:00 PM -0.05 31.91 0.446 7.87 3.32 14.33
12/29/2022 11:45:00 PM -0.05 31.91 0.446 7.85 3.44 14.32
12/30/2022 12:00:00 AM -0.05 31.91 0.446 7.86 3.48 14.32
12/30/2022 12:15:00 AM -0.05 31.91 0.445 7.86 3.59 14.32
12/30/2022 12:30:00 AM -0.05 31.91 0.445 7.86 3.65 14.31
12/30/2022 12:45:00 AM -0.05 31.91 0.445 7.85 3.5 14.31
12/30/2022 1:00:00 AM -0.05 31.91 0.446 7.85 3.53 14.31
12/30/2022 1:15:00 AM -0.05 31.91 0.446 7.85 3.38 14.31
12/30/2022 1:30:00 AM -0.05 31.91 0.446 7.85 3.55 14.31
12/30/2022 1:45:00 AM -0.06 31.892 0.446 7.84 3.44 14.3
12/30/2022 2:00:00 AM -0.06 31.892 0.446 7.84 3.35 14.31
12/30/2022 2:15:00 AM -0.06 31.892 0.446 7.84 3.51 14.3
12/30/2022 2:30:00 AM -0.06 31.892 0.445 7.83 3.59 14.3
12/30/2022 2:45:00 AM -0.06 31.892 0.445 7.83 3.55 14.31
12/30/2022 3:00:00 AM -0.06 31.892 0.445 7.83 3.62 14.3
12/30/2022 3:15:00 AM -0.06 31.892 0.445 7.83 3.58 14.3
12/30/2022 3:30:00 AM -0.06 31.892 0.445 7.83 3.48 14.31
12/30/2022 3:45:00 AM -0.06 31.892 0.445 7.82 3.64 14.31
12/30/2022 4:00:00 AM -0.06 31.892 0.444 7.82 3.49 14.3
12/30/2022 4:15:00 AM -0.06 31.892 0.444 7.82 3.68 14.31
12/30/2022 4:30:00 AM -0.06 31.892 0.444 7.82 3.37 14.31
12/30/2022 4:45:00 AM -0.06 31.892 0.443 7.81 3.6 14.3
12/30/2022 5:00:00 AM -0.06 31.892 0.442 7.81 3.58 14.3
12/30/2022 5:15:00 AM -0.06 31.892 0.441 7.81 3.78 14.3
12/30/2022 5:30:00 AM -0.06 31.892 0.44 7.81 3.58 14.3
12/30/2022 5:45:00 AM -0.06 31.892 0.439 7.81 3.7 14.3
12/30/2022 6:00:00 AM -0.06 31.892 0.438 7.81 3.7 14.3
12/30/2022 6:15:00 AM -0.06 31.892 0.437 7.8 3.63 14.3
12/30/2022 6:30:00 AM -0.06 31.892 0.436 7.81 3.87 14.3
12/30/2022 6:45:00 AM -0.06 31.892 0.435 7.8 3.92 14.3
12/30/2022 7:00:00 AM -0.06 31.892 0.433 7.81 4.1 14.3
12/30/2022 7:15:00 AM -0.06 31.892 0.432 7.8 3.95 14.3
12/30/2022 7:30:00 AM -0.06 31.892 0.431 7.81 4.09 14.3
12/30/2022 7:45:00 AM -0.06 31.892 0.43 7.81 4.31 14.31
12/30/2022 8:00:00 AM -0.06 31.892 0.429 7.81 4.07 14.34
12/30/2022 8:15:00 AM -0.06 31.892 0.427 7.82 4.37 14.4
12/30/2022 8:30:00 AM -0.05 31.91 0.426 7.83 4.48 14.46
12/30/2022 8:45:00 AM -0.05 31.91 0.424 7.82 5.13 14.52
12/30/2022 9:00:00 AM -0.05 31.91 0.422 7.84 4.84 14.6
12/30/2022 9:15:00 AM -0.04 31.928 0.42 7.86 5.01 14.7
12/30/2022 9:30:00 AM -0.04 31.928 0.418 7.88 5.19 14.8
12/30/2022 9:45:00 AM -0.04 31.928 0.417 7.86 5.23 14.87
12/30/2022 10:00:00 AM -0.02 31.964 0.414 7.9 5.6 14.94
12/30/2022 10:15:00 AM -0.03 31.946 0.412 7.9 5.82 15
12/30/2022 10:30:00 AM -0.03 31.946 0.409 7.92 5.97 15.05
12/30/2022 10:45:00 AM -0.02 31.964 0.406 7.93 6.1 15.08
12/30/2022 11:00:00 AM 0 32 0.402 7.96 6.1 15.13
12/30/2022 11:15:00 AM 0.02 32.036 0.399 7.97 6.56 15.17
12/30/2022 11:30:00 AM 0.03 32.054 0.395 7.98 7.13 15.18
12/30/2022 11:45:00 AM 0.04 32.072 0.392 8 7.64 15.2
12/30/2022 12:00:00 PM 0.03 32.054 0.389 8.01 8.27 15.2
12/30/2022 12:15:00 PM 0.02 32.036 0.386 8.02 8.84 15.2
12/30/2022 12:30:00 PM 0 32 0.385 8.04 9.4 15.19
12/30/2022 12:45:00 PM -0.01 31.982 0.383 8.04 9.55 15.18
12/30/2022 1:00:00 PM 0 32 0.381 8.04 10.77 15.18
12/30/2022 1:15:00 PM -0.01 31.982 0.378 8.04 14.32 15.19
12/30/2022 1:30:00 PM -0.01 31.982 0.375 8.05 19.13 15.19
12/30/2022 1:45:00 PM -0.01 31.982 0.373 8.06 21.24 15.19
12/30/2022 2:00:00 PM -0.01 31.982 0.372 8.06 22.34 15.2
12/30/2022 2:15:00 PM -0.01 31.982 0.373 8.08 18.92 15.19
12/30/2022 2:30:00 PM -0.02 31.964 0.374 8.08 29.79 15.17
12/30/2022 2:45:00 PM -0.03 31.946 0.379 8.1 26.93 15.13
12/30/2022 3:00:00 PM -0.03 31.946 0.387 8.09 34.08 15.07
12/30/2022 3:15:00 PM -0.03 31.946 0.398 8.08 35 15.01
12/30/2022 3:30:00 PM -0.04 31.928 0.409 8.05 32.31 14.94
12/30/2022 3:45:00 PM -0.05 31.91 0.416 8.05 34.02 14.89
12/30/2022 4:00:00 PM -0.05 31.91 0.419 8.03 36.31 14.83
12/30/2022 4:15:00 PM -0.05 31.91 0.418 8.02 32.24 14.78
12/30/2022 4:30:00 PM -0.06 31.892 0.415 7.99 32.17 14.73
12/30/2022 4:45:00 PM -0.06 31.892 0.413 7.97 35.99 14.69
12/30/2022 5:00:00 PM -0.06 31.892 0.41 7.94 42.11 14.65
12/30/2022 5:15:00 PM -0.06 31.892 0.405 7.93 41.91 14.62
12/30/2022 5:30:00 PM -0.06 31.892 0.399 7.91 53.02 14.59
12/30/2022 5:45:00 PM -0.06 31.892 0.389 7.86 75.55 14.56
12/30/2022 6:00:00 PM -0.06 31.892 0.38 7.87 90.44 14.53
12/30/2022 6:15:00 PM -0.06 31.892 0.373 7.86 105.71 14.51
12/30/2022 6:30:00 PM -0.06 31.892 0.372 7.82 105.16 14.48
12/30/2022 6:45:00 PM -0.06 31.892 0.373 7.82 184.94 14.48
12/30/2022 7:00:00 PM -0.06 31.892 0.375 7.78 192.57 14.48
12/30/2022 7:15:00 PM -0.07 31.874 0.371 7.79 480.77 14.45
12/30/2022 7:30:00 PM -0.06 31.892 0.366 7.81 249.16 14.46
12/30/2022 7:45:00 PM -0.06 31.892 0.364 7.78 280.58 14.47
12/30/2022 8:00:00 PM -0.06 31.892 0.362 7.79 348.37 14.47
12/30/2022 8:15:00 PM -0.06 31.892 0.357 7.74 351.15 14.48
12/30/2022 8:30:00 PM -0.06 31.892 0.351 7.75 373.92 14.48
12/30/2022 8:45:00 PM -0.06 31.892 0.344 7.74 356.48 14.48
12/30/2022 9:00:00 PM -0.06 31.892 0.338 7.74 317.87 14.49
12/30/2022 9:15:00 PM -0.06 31.892 0.331 7.7 268.42 14.5
12/30/2022 9:30:00 PM -0.06 31.892 0.325 7.72 245 14.5
12/30/2022 9:45:00 PM -0.06 31.892 0.32 7.71 216.54 14.5
12/30/2022 10:00:00 PM -0.06 31.892 0.316 7.71 203.74 14.5
12/30/2022 10:15:00 PM -0.06 31.892 0.312 7.7 187.93 14.51
12/30/2022 10:30:00 PM -0.06 31.892 0.309 7.69 176.96 14.5
12/30/2022 10:45:00 PM -0.06 31.892 0.307 7.69 163.56 14.51
12/30/2022 11:00:00 PM -0.06 31.892 0.304 7.69 166.61 14.5
12/30/2022 11:15:00 PM -0.06 31.892 0.302 7.66 152.26 14.5
12/30/2022 11:30:00 PM -0.06 31.892 0.3 7.69 149.66 14.51
12/30/2022 11:45:00 PM -0.06 31.892 0.298 7.69 143.65 14.5
12/31/2022 12:00:00 AM -0.06 31.892 0.296 7.66 137.43 14.5
12/31/2022 12:15:00 AM -0.06 31.892 0.294 7.67 129.84 14.49
12/31/2022 12:30:00 AM -0.06 31.892 0.293 7.67 122 14.49
12/31/2022 12:45:00 AM -0.06 31.892 0.292 7.66 120.6 14.49
12/31/2022 1:00:00 AM -0.06 31.892 0.291 7.67 118.84 14.49
12/31/2022 1:15:00 AM -0.06 31.892 0.29 7.68 111.55 14.48
12/31/2022 1:30:00 AM -0.06 31.892 0.289 7.66 111.6 14.48
12/31/2022 1:45:00 AM -0.06 31.892 0.288 7.67 103.52 14.48
12/31/2022 2:00:00 AM -0.06 31.892 0.288 7.64 99.53 14.47
12/31/2022 2:15:00 AM -0.06 31.892 0.288 7.66 96.64 14.47
12/31/2022 2:30:00 AM -0.06 31.892 0.287 7.66 95.25 14.46
12/31/2022 2:45:00 AM -0.06 31.892 0.287 7.63 90.06 14.46
12/31/2022 3:00:00 AM -0.06 31.892 0.287 7.65 84.17 14.46
12/31/2022 3:15:00 AM -0.06 31.892 0.286 7.66 84.1 14.46
12/31/2022 3:30:00 AM -0.06 31.892 0.286 7.65 81.58 14.45
12/31/2022 3:45:00 AM -0.06 31.892 0.286 7.66 79.71 14.45
12/31/2022 4:00:00 AM -0.06 31.892 0.286 7.65 76.27 14.44
12/31/2022 4:15:00 AM -0.06 31.892 0.286 7.65 78 14.44
12/31/2022 4:30:00 AM -0.06 31.892 0.286 7.66 71.45 14.44
12/31/2022 4:45:00 AM -0.06 31.892 0.286 7.66 71.82 14.44
12/31/2022 5:00:00 AM -0.06 31.892 0.287 7.66 67.8 14.43
12/31/2022 5:15:00 AM -0.06 31.892 0.287 7.64 67.7 14.43
12/31/2022 5:30:00 AM -0.06 31.892 0.287 7.64 65.4 14.43
12/31/2022 5:45:00 AM -0.06 31.892 0.287 7.63 64.13 14.43
12/31/2022 6:00:00 AM -0.06 31.892 0.287 7.64 62.64 14.43
12/31/2022 6:15:00 AM -0.06 31.892 0.287 7.67 62.73 14.43
12/31/2022 6:30:00 AM -0.06 31.892 0.287 7.65 60.14 14.42
12/31/2022 6:45:00 AM -0.06 31.892 0.288 7.67 59.18 14.42
12/31/2022 7:00:00 AM -0.06 31.892 0.288 7.66 59.29 14.42
12/31/2022 7:15:00 AM -0.06 31.892 0.288 7.68 57.53 14.42
12/31/2022 7:30:00 AM -0.06 31.892 0.288 7.67 57.32 14.41
12/31/2022 7:45:00 AM -0.06 31.892 0.289 7.61 54.01 14.41
12/31/2022 8:00:00 AM -0.06 31.892 0.289 7.66 56.18 14.41
12/31/2022 8:15:00 AM -0.06 31.892 0.289 7.67 56.83 14.41
12/31/2022 8:30:00 AM -0.05 31.91 0.289 7.67 56.5 14.41
12/31/2022 8:45:00 AM -0.05 31.91 0.289 7.68 55.42 14.41
12/31/2022 9:00:00 AM -0.05 31.91 0.289 7.67 54.42 14.41
12/31/2022 9:15:00 AM -0.05 31.91 0.289 7.68 52.83 14.41
12/31/2022 9:30:00 AM -0.05 31.91 0.289 7.69 53.33 14.42
12/31/2022 9:45:00 AM -0.05 31.91 0.289 7.7 53.41 14.43
12/31/2022 10:00:00 AM -0.05 31.91 0.289 7.71 53.31 14.43
12/31/2022 10:15:00 AM -0.05 31.91 0.289 7.67 52.26 14.43
12/31/2022 10:30:00 AM -0.05 31.91 0.289 7.71 53.63 14.43
12/31/2022 10:45:00 AM -0.04 31.928 0.289 7.72 53.05 14.43
12/31/2022 11:00:00 AM -0.04 31.928 0.289 7.71 52.4 14.44
12/31/2022 11:15:00 AM -0.03 31.946 0.289 7.73 52.6 14.46
12/31/2022 11:30:00 AM -0.03 31.946 0.288 7.73 53.88 14.47
12/31/2022 11:45:00 AM -0.03 31.946 0.288 7.7 54.27 14.47
12/31/2022 12:00:00 PM -0.03 31.946 0.288 7.74 54.63 14.47
12/31/2022 12:15:00 PM -0.03 31.946 0.288 7.75 56.56 14.47
12/31/2022 12:30:00 PM -0.03 31.946 0.288 7.75 57.4 14.47
12/31/2022 12:45:00 PM -0.03 31.946 0.287 7.76 56.18 14.47
12/31/2022 1:00:00 PM -0.02 31.964 0.287 7.75 59.22 14.46
12/31/2022 1:15:00 PM -0.02 31.964 0.287 7.76 58.84 14.45
12/31/2022 1:30:00 PM -0.02 31.964 0.287 7.77 57.05 14.45
12/31/2022 1:45:00 PM -0.03 31.946 0.286 7.77 57.62 14.44
12/31/2022 2:00:00 PM -0.03 31.946 0.286 7.77 58.75 14.42
12/31/2022 2:15:00 PM -0.03 31.946 0.286 7.77 57.28 14.41
12/31/2022 2:30:00 PM -0.03 31.946 0.285 7.78 59.53 14.41
12/31/2022 2:45:00 PM -0.03 31.946 0.285 7.77 59.68 14.4
12/31/2022 3:00:00 PM -0.04 31.928 0.284 7.77 59.5 14.39
12/31/2022 3:15:00 PM -0.03 31.946 0.284 7.77 59.2 14.39
12/31/2022 3:30:00 PM -0.04 31.928 0.284 7.76 57.1 14.39
12/31/2022 3:45:00 PM -0.04 31.928 0.283 7.75 67.08 14.37
12/31/2022 4:00:00 PM -0.04 31.928 0.282 7.75 63.79 14.36
12/31/2022 4:15:00 PM -0.04 31.928 0.281 7.76 77.93 14.35
12/31/2022 4:30:00 PM -0.04 31.928 0.28 7.76 68.68 14.34
12/31/2022 4:45:00 PM -0.04 31.928 0.278 7.76 68.32 14.33
12/31/2022 5:00:00 PM -0.04 31.928 0.277 7.74 68.57 14.32
12/31/2022 5:15:00 PM -0.04 31.928 0.275 7.75 74.22 14.31
12/31/2022 5:30:00 PM -0.04 31.928 0.274 7.72 76.8 14.31
12/31/2022 5:45:00 PM -0.04 31.928 0.273 7.7 78.48 14.3
12/31/2022 6:00:00 PM -0.04 31.928 0.272 7.71 84.33 14.3
12/31/2022 6:15:00 PM -0.04 31.928 0.27 7.7 97.52 14.29
12/31/2022 6:30:00 PM -0.04 31.928 0.268 7.71 97.28 14.29
12/31/2022 6:45:00 PM -0.04 31.928 0.267 7.7 100.63 14.29
12/31/2022 7:00:00 PM -0.04 31.928 0.266 7.69 95.29 14.29
12/31/2022 7:15:00 PM -0.04 31.928 0.265 7.69 97.71 14.29
12/31/2022 7:30:00 PM -0.04 31.928 0.264 7.69 103.41 14.29
12/31/2022 7:45:00 PM -0.04 31.928 0.264 7.7 103.9 14.29
12/31/2022 8:00:00 PM -0.04 31.928 0.265 7.69 108.53 14.29
12/31/2022 8:15:00 PM -0.04 31.928 0.266 7.69 118.37 14.29
12/31/2022 8:30:00 PM -0.04 31.928 0.265 7.68 112.31 14.29
12/31/2022 8:45:00 PM -0.04 31.928 0.264 7.69 111.05 14.29
12/31/2022 9:00:00 PM -0.04 31.928 0.264 7.7 118.64 14.3
12/31/2022 9:15:00 PM -0.04 31.928 0.265 7.69 117.46 14.3
12/31/2022 9:30:00 PM -0.04 31.928 0.265 7.68 113.48 14.3
12/31/2022 9:45:00 PM -0.04 31.928 0.265 7.67 111.23 14.3
12/31/2022 10:00:00 PM -0.04 31.928 0.264 7.68 110.48 14.3
12/31/2022 10:15:00 PM -0.04 31.928 0.264 7.67 103.55 14.3
12/31/2022 10:30:00 PM -0.04 31.928 0.263 7.67 104.38 14.3
12/31/2022 10:45:00 PM -0.04 31.928 0.263 7.67 102.74 14.3
12/31/2022 11:00:00 PM -0.04 31.928 0.262 7.65 82.24 14.3
12/31/2022 11:15:00 PM -0.04 31.928 0.262 7.67 89.83 14.3
12/31/2022 11:30:00 PM -0.04 31.928 0.262 7.65 89.5 14.31
12/31/2022 11:45:00 PM -0.03 31.946 0.262 7.66 83.65 14.3
1/1/2023 12:00:00 AM -0.03 31.946 0.261 7.66 81.18 14.3
1/1/2023 12:15:00 AM -0.03 31.946 0.261 7.66 82.21 14.3
1/1/2023 12:30:00 AM -0.03 31.946 0.261 7.64 79.09 14.3
1/1/2023 12:45:00 AM -0.03 31.946 0.26 7.63 75.59 14.3
1/1/2023 1:00:00 AM -0.03 31.946 0.261 7.65 73.92 14.3
1/1/2023 1:15:00 AM -0.04 31.928 0.261 7.65 73.57 14.3
1/1/2023 1:30:00 AM -0.04 31.928 0.26 7.67 71.48 14.31
1/1/2023 1:45:00 AM -0.05 31.91 0.26 7.66 69.62 14.31
1/1/2023 2:00:00 AM -0.05 31.91 0.26 7.64 70.41 14.31
1/1/2023 2:15:00 AM -0.05 31.91 0.261 7.66 69.42 14.32
1/1/2023 2:30:00 AM -0.05 31.91 0.261 7.66 67.74 14.32
1/1/2023 2:45:00 AM -0.04 31.928 0.261 7.64 65.8 14.32
1/1/2023 3:00:00 AM -0.04 31.928 0.261 7.66 65.56 14.33
1/1/2023 3:15:00 AM -0.04 31.928 0.261 7.65 66.4 14.33
1/1/2023 3:30:00 AM -0.04 31.928 0.261 7.66 66.85 14.33
1/1/2023 3:45:00 AM -0.05 31.91 0.261 7.65 63.09 14.34
1/1/2023 4:00:00 AM -0.05 31.91 0.262 7.66 62.01 14.34
1/1/2023 4:15:00 AM -0.05 31.91 0.263 7.66 63.27 14.35
1/1/2023 4:30:00 AM -0.05 31.91 0.264 7.66 63.24 14.35
1/1/2023 4:45:00 AM -0.05 31.91 0.264 7.65 81.85 14.35
1/1/2023 5:00:00 AM -0.06 31.892 0.264 7.66 71.81 14.35
1/1/2023 5:15:00 AM -0.05 31.91 0.264 7.64 68.19 14.36
1/1/2023 5:30:00 AM -0.05 31.91 0.264 7.63 63.99 14.36
1/1/2023 5:45:00 AM -0.05 31.91 0.265 7.66 60.9 14.36
1/1/2023 6:00:00 AM -0.05 31.91 0.266 7.64 59.86 14.36
1/1/2023 6:15:00 AM -0.05 31.91 0.266 7.63 58.08 14.36
1/1/2023 6:30:00 AM -0.05 31.91 0.266 7.64 59.34 14.36
1/1/2023 6:45:00 AM -0.05 31.91 0.266 7.63 56.66 14.37
1/1/2023 7:00:00 AM -0.05 31.91 0.267 7.64 56.44 14.37
1/1/2023 7:15:00 AM -0.05 31.91 0.268 7.61 53.84 14.37
1/1/2023 7:30:00 AM -0.05 31.91 0.268 7.63 53.72 14.37
1/1/2023 7:45:00 AM -0.05 31.91 0.268 7.63 53.92 14.37
1/1/2023 8:00:00 AM -0.05 31.91 0.268 7.63 52.98 14.38
1/1/2023 8:15:00 AM -0.04 31.928 0.268 7.64 53.31 14.38
1/1/2023 8:30:00 AM -0.04 31.928 0.268 7.63 53.37 14.38
1/1/2023 8:45:00 AM -0.04 31.928 0.269 7.64 51.46 14.39
1/1/2023 9:00:00 AM -0.04 31.928 0.269 7.66 45.23 14.4
1/1/2023 9:15:00 AM -0.04 31.928 0.27 7.67 50.4 14.41
1/1/2023 9:30:00 AM -0.04 31.928 0.27 7.66 48.73 14.41
1/1/2023 9:45:00 AM -0.03 31.946 0.271 7.67 46.5 14.42
1/1/2023 10:00:00 AM -0.01 31.982 0.271 7.68 48.22 14.43
1/1/2023 10:15:00 AM 0 32 0.271 7.69 47.78 14.45
1/1/2023 10:30:00 AM 0.01 32.018 0.271 7.7 47.71 14.46
1/1/2023 10:45:00 AM 0.01 32.018 0.271 7.69 36.3 14.46
1/1/2023 11:00:00 AM 0.01 32.018 0.273 7.71 47.77 14.47
1/1/2023 11:15:00 AM 0.02 32.036 0.273 7.71 47.93 14.48
1/1/2023 11:30:00 AM 0.02 32.036 0.273 7.72 47.36 14.48
1/1/2023 11:45:00 AM 0.02 32.036 0.273 7.73 46.27 14.48
1/1/2023 12:00:00 PM 0.01 32.018 0.274 7.73 49.01 14.48
1/1/2023 12:15:00 PM 0.01 32.018 0.274 7.74 51.09 14.48
1/1/2023 12:30:00 PM 0.01 32.018 0.274 7.75 57.44 14.48
1/1/2023 12:45:00 PM 0.02 32.036 0.274 7.72 49.21 14.48
1/1/2023 1:00:00 PM 0.02 32.036 0.274 7.73 51.31 14.48
1/1/2023 1:15:00 PM 0.02 32.036 0.274 7.76 52.37 14.48
1/1/2023 1:30:00 PM 0.01 32.018 0.275 7.73 49.08 14.47
1/1/2023 1:45:00 PM 0.01 32.018 0.275 7.74 49.13 14.47
1/1/2023 2:00:00 PM 0.02 32.036 0.275 7.78 54.71 14.47
1/1/2023 2:15:00 PM 0.01 32.018 0.275 7.75 86.01 14.46
1/1/2023 2:30:00 PM 0.02 32.036 0.275 7.77 53.24 14.45
1/1/2023 2:45:00 PM 0.03 32.054 0.276 7.78 53.31 14.44
1/1/2023 3:00:00 PM 0.03 32.054 0.276 7.78 53.37 14.44
1/1/2023 3:15:00 PM 0.01 32.018 0.276 7.77 50.19 14.42
1/1/2023 3:30:00 PM 0 32 0.276 7.75 51.43 14.4
1/1/2023 3:45:00 PM 0 32 0.277 7.74 53.52 14.39
1/1/2023 4:00:00 PM 0 32 0.277 7.74 70.66 14.39
1/1/2023 4:15:00 PM -0.01 31.982 0.278 7.76 51.07 14.39
1/1/2023 4:30:00 PM -0.01 31.982 0.278 7.75 53.31 14.37
1/1/2023 4:45:00 PM -0.02 31.964 0.278 7.73 53.66 14.36
1/1/2023 5:00:00 PM -0.02 31.964 0.279 7.75 50.39 14.35
1/1/2023 5:15:00 PM -0.02 31.964 0.279 7.73 49.15 14.33
1/1/2023 5:30:00 PM -0.02 31.964 0.279 7.73 48.96 14.33
1/1/2023 5:45:00 PM -0.02 31.964 0.28 7.74 47 14.32
1/1/2023 6:00:00 PM -0.02 31.964 0.28 7.74 50.65 14.31
1/1/2023 6:15:00 PM -0.01 31.982 0.28 7.73 47.92 14.31
1/1/2023 6:30:00 PM -0.01 31.982 0.28 7.73 48.61 14.3
1/1/2023 6:45:00 PM -0.01 31.982 0.281 7.71 46.26 14.3
1/1/2023 7:00:00 PM -0.01 31.982 0.279 7.71 47.56 14.29
1/1/2023 7:15:00 PM -0.01 31.982 0.279 7.71 44.66 14.29
1/1/2023 7:30:00 PM -0.01 31.982 0.242 7.71 44.41 14.29
1/1/2023 7:45:00 PM -0.01 31.982 0.282 7.7 43.95 14.29
1/1/2023 8:00:00 PM -0.01 31.982 0.282 7.71 42.85 14.29
1/1/2023 8:15:00 PM -0.01 31.982 0.282 7.71 42.14 14.29
1/1/2023 8:30:00 PM -0.01 31.982 0.282 7.71 43.49 14.29
1/1/2023 8:45:00 PM -0.01 31.982 0.283 7.71 45.02 14.29
1/1/2023 9:00:00 PM -0.01 31.982 0.283 7.71 43.29 14.29
1/1/2023 9:15:00 PM -0.01 31.982 0.284 7.71 43.11 14.28
1/1/2023 9:30:00 PM 0 32 0.284 7.7 41.69 14.28
1/1/2023 9:45:00 PM 0 32 0.285 7.71 40.76 14.28
1/1/2023 10:00:00 PM 0 32 0.285 7.71 40.37 14.28
1/1/2023 10:15:00 PM 0 32 0.285 7.71 41.3 14.28
1/1/2023 10:30:00 PM 0 32 0.286 7.72 40.87 14.27
1/1/2023 10:45:00 PM 0.01 32.018 0.286 7.72 42.48 14.27
1/1/2023 11:00:00 PM 0.02 32.036 0.287 7.72 41.17 14.27
1/1/2023 11:15:00 PM 0.03 32.054 0.287 7.71 39.18 14.27
1/1/2023 11:30:00 PM 0.03 32.054 0.288 7.72 36.85 14.27
1/1/2023 11:45:00 PM 0.03 32.054 0.288 7.72 38.92 14.26
1/2/2023 12:00:00 AM 0.03 32.054 0.289 7.72 38.39 14.26
1/2/2023 12:15:00 AM 0.04 32.072 0.29 7.72 39.8 14.26
1/2/2023 12:30:00 AM 0.03 32.054 0.29 7.73 36.85 14.26
1/2/2023 12:45:00 AM 0.03 32.054 0.29 7.73 36.57 14.26
1/2/2023 1:00:00 AM 0.03 32.054 0.29 7.73 36.34 14.26
1/2/2023 1:15:00 AM 0.03 32.054 0.29 7.73 36.58 14.27
1/2/2023 1:30:00 AM 0.03 32.054 0.291 7.72 35.76 14.27
1/2/2023 1:45:00 AM 0.04 32.072 0.292 7.73 37.4 14.27
1/2/2023 2:00:00 AM 0.04 32.072 0.292 7.72 36.28 14.27
1/2/2023 2:15:00 AM 0.04 32.072 0.292 7.73 38.03 14.27
1/2/2023 2:30:00 AM 0.04 32.072 0.292 7.72 36.53 14.27
1/2/2023 2:45:00 AM 0.05 32.09 0.292 7.72 38.7 14.28
1/2/2023 3:00:00 AM 0.06 32.108 0.292 7.74 36.79 14.28
1/2/2023 3:15:00 AM 0.07 32.126 0.293 7.72 38.42 14.28
1/2/2023 3:30:00 AM 0.07 32.126 0.293 7.72 42.86 14.28
1/2/2023 3:45:00 AM 0.07 32.126 0.294 7.72 41.14 14.28
1/2/2023 4:00:00 AM 0.07 32.126 0.294 7.73 43.31 14.28
1/2/2023 4:15:00 AM 0.09 32.162 0.294 7.73 42.73 14.28
1/2/2023 4:30:00 AM 0.09 32.162 0.294 7.72 42.74 14.28
1/2/2023 4:45:00 AM 0.11 32.198 0.295 7.73 41.98 14.28
1/2/2023 5:00:00 AM 0.12 32.216 0.295 7.72 46.23 14.27
1/2/2023 5:15:00 AM 0.13 32.234 0.296 7.71 41.24 14.27
1/2/2023 5:30:00 AM 0.14 32.252 0.296 7.73 39.81 14.27
1/2/2023 5:45:00 AM 0.14 32.252 0.296 7.72 37.83 14.27
1/2/2023 6:00:00 AM 0.14 32.252 0.297 7.72 39.26 14.28
1/2/2023 6:15:00 AM 0.14 32.252 0.297 7.71 37.81 14.28
1/2/2023 6:30:00 AM 0.15 32.27 0.297 7.72 35.26 14.28
1/2/2023 6:45:00 AM 0.16 32.288 0.298 7.72 33.12 14.28
1/2/2023 7:00:00 AM 0.16 32.288 0.298 7.72 31.44 14.29
1/2/2023 7:15:00 AM 0.15 32.27 0.298 7.71 32.48 14.29
1/2/2023 7:30:00 AM 0.16 32.288 0.299 7.71 32.07 14.29
1/2/2023 7:45:00 AM 0.14 32.252 0.299 7.72 30.74 14.29
1/2/2023 8:00:00 AM 0.16 32.288 0.299 7.73 30.99 14.3
1/2/2023 8:15:00 AM 0.17 32.306 0.3 7.73 30.24 14.31
1/2/2023 8:30:00 AM 0.18 32.324 0.3 7.74 29.68 14.33
1/2/2023 8:45:00 AM 0.2 32.36 0.3 7.73 23.59 14.35
1/2/2023 9:00:00 AM 0.22 32.396 0.3 7.73 26.35 14.39
1/2/2023 9:15:00 AM 0.25 32.45 0.3 7.75 25.34 14.42
1/2/2023 9:30:00 AM 0.29 32.522 0.3 7.76 24.73 14.45
1/2/2023 9:45:00 AM 0.35 32.63 0.3 7.76 26.29 14.47
1/2/2023 10:00:00 AM 0.42 32.756 0.3 7.78 25.05 14.49
1/2/2023 10:15:00 AM 0.47 32.846 0.3 7.79 23.77 14.5
1/2/2023 10:30:00 AM 0.54 32.972 0.3 7.8 23.9 14.5
1/2/2023 10:45:00 AM 0.58 33.044 0.3 7.8 23.23 14.5
1/2/2023 11:00:00 AM 0.67 33.206 0.3 7.82 23.48 14.48
1/2/2023 11:15:00 AM 0.82 33.476 0.3 7.82 23.61 14.48
1/2/2023 11:30:00 AM 0.94 33.692 0.3 7.84 22.84 14.46
1/2/2023 11:45:00 AM 0.98 33.764 0.3 7.85 23.43 14.45
1/2/2023 12:00:00 PM 0.99 33.782 0.3 7.86 24.33 14.44
1/2/2023 12:15:00 PM 1.04 33.872 0.3 7.87 23.09 14.42
1/2/2023 12:30:00 PM 1.09 33.962 0.3 7.88 24.05 14.4
1/2/2023 12:45:00 PM 1.13 34.034 0.3 7.88 23.55 14.37
1/2/2023 1:00:00 PM 1.17 34.106 0.3 7.89 24.48 14.35
1/2/2023 1:15:00 PM 1.18 34.124 0.3 7.9 23.93 14.32
1/2/2023 1:30:00 PM 1.27 34.286 0.3 7.9 24.44 14.3
1/2/2023 1:45:00 PM 1.28 34.304 0.3 7.9 22.29 14.28
1/2/2023 2:00:00 PM 1.32 34.376 0.3 7.91 22.72 14.26
1/2/2023 2:15:00 PM 1.34 34.412 0.299 7.91 21.92 14.23
1/2/2023 2:30:00 PM 1.37 34.466 0.299 7.9 22.32 14.2
1/2/2023 2:45:00 PM 1.38 34.484 0.299 7.92 23.49 14.19
1/2/2023 3:00:00 PM 1.34 34.412 0.299 7.91 21.69 14.16
1/2/2023 3:15:00 PM 1.31 34.358 0.299 7.9 21.45 14.13
1/2/2023 3:30:00 PM 1.31 34.358 0.299 7.9 20.79 14.11
1/2/2023 3:45:00 PM 1.3 34.34 0.299 7.9 19.35 14.08
1/2/2023 4:00:00 PM 1.29 34.322 0.299 7.89 19.63 14.04
1/2/2023 4:15:00 PM 1.28 34.304 0.3 7.88 19.42 13.99
1/2/2023 4:30:00 PM 1.27 34.286 0.3 7.86 16.93 13.94
1/2/2023 4:45:00 PM 1.29 34.322 0.3 7.85 20.47 13.91
1/2/2023 5:00:00 PM 1.3 34.34 0.3 7.84 19.45 13.86
1/2/2023 5:15:00 PM 1.33 34.394 0.3 7.83 20.24 13.82
1/2/2023 5:30:00 PM 1.36 34.448 0.301 7.83 20.05 13.79
1/2/2023 5:45:00 PM 1.37 34.466 0.301 7.83 18.77 13.77
1/2/2023 6:00:00 PM 1.34 34.412 0.302 7.82 20.81 13.74
1/2/2023 6:15:00 PM 1.41 34.538 0.302 7.82 20.65 13.74
1/2/2023 6:30:00 PM 1.43 34.574 0.303 7.81 19.44 13.73
1/2/2023 6:45:00 PM 1.43 34.574 0.303 7.8 20.01 13.73
1/2/2023 7:00:00 PM 1.41 34.538 0.304 7.8 18.19 13.73
1/2/2023 7:15:00 PM 1.43 34.574 0.304 7.79 18.43 13.72
1/2/2023 7:30:00 PM 1.44 34.592 0.305 7.78 17.8 13.71
1/2/2023 7:45:00 PM 1.45 34.61 0.305 7.78 18.25 13.71
1/2/2023 8:00:00 PM 1.45 34.61 0.306 7.78 16.83 13.71
1/2/2023 8:15:00 PM 1.45 34.61 0.306 7.78 17.22 13.72
1/2/2023 8:30:00 PM 1.44 34.592 0.307 7.77 17.2 13.72
1/2/2023 8:45:00 PM 1.43 34.574 0.307 7.77 17.15 13.73
1/2/2023 9:00:00 PM 1.34 34.412 0.306 7.77 19.44 13.76
1/2/2023 9:15:00 PM 1.25 34.25 0.306 7.76 18.54 13.8
1/2/2023 9:30:00 PM 1.23 34.214 0.307 7.77 18.76 13.81
1/2/2023 9:45:00 PM 1.3 34.34 0.308 7.77 16.41 13.79
1/2/2023 10:00:00 PM 1.36 34.448 0.308 7.77 15.3 13.78
1/2/2023 10:15:00 PM 1.4 34.52 0.309 7.77 15.3 13.77
1/2/2023 10:30:00 PM 1.42 34.556 0.309 7.77 16.2 13.77
1/2/2023 10:45:00 PM 1.45 34.61 0.309 7.76 15.31 13.77
1/2/2023 11:00:00 PM 1.47 34.646 0.31 7.77 15.24 13.77
1/2/2023 11:15:00 PM 1.47 34.646 0.31 7.77 14.04 13.78
1/2/2023 11:30:00 PM 1.46 34.628 0.31 7.77 15.28 13.78
1/2/2023 11:45:00 PM 1.46 34.628 0.311 7.77 14.62 13.79
1/3/2023 12:00:00 AM 1.47 34.646 0.312 7.77 13.91 13.79
1/3/2023 12:15:00 AM 1.47 34.646 0.312 7.77 14.09 13.79
1/3/2023 12:30:00 AM 1.47 34.646 0.313 7.77 13.38 13.8
1/3/2023 12:45:00 AM 1.48 34.664 0.313 7.77 13.69 13.79
1/3/2023 1:00:00 AM 1.49 34.682 0.314 7.76 13.44 13.79
1/3/2023 1:15:00 AM 1.49 34.682 0.314 7.77 13.72 13.79
1/3/2023 1:30:00 AM 1.5 34.7 0.314 7.77 13.85 13.79
1/3/2023 1:45:00 AM 1.51 34.718 0.314 7.78 13.57 13.79
1/3/2023 2:00:00 AM 1.52 34.736 0.315 7.77 12.99 13.78
1/3/2023 2:15:00 AM 1.52 34.736 0.315 7.77 13.81 13.78
1/3/2023 2:30:00 AM 1.53 34.754 0.315 7.78 12.94 13.78
1/3/2023 2:45:00 AM 1.54 34.772 0.316 7.78 12.75 13.78
1/3/2023 3:00:00 AM 1.56 34.808 0.316 7.78 13.44 13.77
1/3/2023 3:15:00 AM 1.57 34.826 0.316 7.78 12.68 13.77
1/3/2023 3:30:00 AM 1.58 34.844 0.316 7.78 12.72 13.77
1/3/2023 3:45:00 AM 1.6 34.88 0.316 7.78 13.66 13.76
1/3/2023 4:00:00 AM 1.61 34.898 0.317 7.78 11.67 13.75
1/3/2023 4:15:00 AM 1.61 34.898 0.317 7.78 13.55 13.75
1/3/2023 4:30:00 AM 1.62 34.916 0.317 7.78 12.02 13.74
1/3/2023 4:45:00 AM 1.63 34.934 0.318 7.78 12.04 13.74
1/3/2023 5:00:00 AM 1.64 34.952 0.318 7.78 11.58 13.73
1/3/2023 5:15:00 AM 1.65 34.97 0.318 7.78 11.98 13.73
1/3/2023 5:30:00 AM 1.66 34.988 0.318 7.78 12.51 13.72
1/3/2023 5:45:00 AM 1.67 35.006 0.318 7.78 11.17 13.72
1/3/2023 6:00:00 AM 1.67 35.006 0.319 7.79 12.43 13.71
1/3/2023 6:15:00 AM 1.69 35.042 0.319 7.78 11.58 13.7
1/3/2023 6:30:00 AM 1.71 35.078 0.32 7.78 10.92 13.7
1/3/2023 6:45:00 AM 1.72 35.096 0.32 7.79 11.77 13.69
1/3/2023 7:00:00 AM 1.73 35.114 0.32 7.79 11.34 13.68
1/3/2023 7:15:00 AM 1.74 35.132 0.321 7.79 10.79 13.68
1/3/2023 7:30:00 AM 1.75 35.15 0.321 7.79 11.12 13.67
1/3/2023 7:45:00 AM 1.77 35.186 0.321 7.79 12.14 13.67
1/3/2023 8:00:00 AM 1.78 35.204 0.321 7.79 11.42 13.66
1/3/2023 8:15:00 AM 1.8 35.24 0.321 7.79 10.97 13.66
1/3/2023 8:30:00 AM 1.82 35.276 0.322 7.79 10.82 13.67
1/3/2023 8:45:00 AM 1.84 35.312 0.322 7.8 11.24 13.67
1/3/2023 9:00:00 AM 1.86 35.348 0.32 7.8 10.95 13.69
1/3/2023 9:15:00 AM 1.89 35.402 0.32 7.81 11.33 13.71
1/3/2023 9:30:00 AM 1.91 35.438 0.319 7.82 11.21 13.73
1/3/2023 9:45:00 AM 1.95 35.51 0.319 7.83 10.98 13.76
1/3/2023 10:00:00 AM 1.99 35.582 0.319 7.84 11.2 13.79
1/3/2023 10:15:00 AM 2.01 35.618 0.319 7.84 12.13 13.8
1/3/2023 10:30:00 AM 2.04 35.672 0.319 7.86 11.99 13.81
1/3/2023 10:45:00 AM 2.09 35.762 0.319 7.86 12.2 13.82
1/3/2023 11:00:00 AM 2.12 35.816 0.318 7.87 11.94 13.83
1/3/2023 11:15:00 AM 2.14 35.852 0.318 7.87 11.89 13.8
1/3/2023 11:30:00 AM 2.17 35.906 0.318 7.87 13.06 13.77
1/3/2023 11:45:00 AM 2.24 36.032 0.32 7.88 12.35 13.77
1/3/2023 12:00:00 PM 2.31 36.158 0.324 7.88 13.65 13.81
1/3/2023 12:15:00 PM 2.34 36.212 0.326 7.9 13.99 13.81
1/3/2023 12:30:00 PM 2.38 36.284 0.325 7.9 13.14 13.78
1/3/2023 12:45:00 PM 2.42 36.356 0.323 7.9 14.74 13.78
1/3/2023 1:00:00 PM 2.47 36.446 0.322 7.9 15.37 13.77
1/3/2023 1:15:00 PM 2.53 36.554 0.322 7.9 15.16 13.74
1/3/2023 1:30:00 PM 2.57 36.626 0.321 7.91 15.98 13.72
1/3/2023 1:45:00 PM 2.62 36.716 0.322 7.9 17.31 13.69
1/3/2023 2:00:00 PM 2.67 36.806 0.323 7.91 17.98 13.68
1/3/2023 2:15:00 PM 2.7 36.86 0.324 7.89 19.14 13.63
1/3/2023 2:30:00 PM 2.71 36.878 0.324 7.88 21.11 13.59
1/3/2023 2:45:00 PM 2.73 36.914 0.324 7.88 26.85 13.55
1/3/2023 3:00:00 PM 2.73 36.914 0.322 7.86 30.65 13.51
1/3/2023 3:15:00 PM 2.71 36.878 0.318 7.85 33.89 13.47
1/3/2023 3:30:00 PM 2.69 36.842 0.312 7.83 38.96 13.45
1/3/2023 3:45:00 PM 2.65 36.77 0.307 7.79 51.61 13.42
1/3/2023 4:00:00 PM 2.61 36.698 0.302 7.78 60.35 13.4
1/3/2023 4:15:00 PM 2.57 36.626 0.297 7.78 64.41 13.39
1/3/2023 4:30:00 PM 2.55 36.59 0.295 7.74 75.56 13.37
1/3/2023 4:45:00 PM 2.54 36.572 0.294 7.74 81.99 13.36
1/3/2023 5:00:00 PM 2.49 36.482 0.293 7.73 90.19 13.34
1/3/2023 5:15:00 PM 2.53 36.554 0.294 7.71 93.17 13.33
1/3/2023 5:30:00 PM 2.37 36.266 0.295 7.74 123.17 13.32
1/3/2023 5:45:00 PM 2.5 36.5 0.296 7.74 113.42 13.31
1/3/2023 6:00:00 PM 2.55 36.59 0.298 7.71 117.58 13.3
1/3/2023 6:15:00 PM 2.56 36.608 0.3 7.72 126.69 13.3
1/3/2023 6:30:00 PM 2.56 36.608 0.301 7.7 131.76 13.3
1/3/2023 6:45:00 PM 2.56 36.608 0.301 7.71 145.41 13.3
1/3/2023 7:00:00 PM 2.57 36.626 0.301 7.71 158.34 13.29
1/3/2023 7:15:00 PM 2.58 36.644 0.3 7.7 161.19 13.28
1/3/2023 7:30:00 PM 2.6 36.68 0.3 7.7 160.59 13.27
1/3/2023 7:45:00 PM 2.63 36.734 0.299 7.69 169.01 13.26
1/3/2023 8:00:00 PM 2.65 36.77 0.298 7.67 175.26 13.26
1/3/2023 8:15:00 PM 2.67 36.806 0.297 7.68 177.64 13.25
1/3/2023 8:30:00 PM 2.72 36.896 0.296 7.67 181.52 13.23
1/3/2023 8:45:00 PM 2.76 36.968 0.295 7.66 171.33 13.22
1/3/2023 9:00:00 PM 2.8 37.04 0.294 7.67 172.51 13.21
1/3/2023 9:15:00 PM 2.85 37.13 0.293 7.68 167.83 13.19
1/3/2023 9:30:00 PM 2.91 37.238 0.293 7.65 167.35 13.17
1/3/2023 9:45:00 PM 2.96 37.328 0.293 7.66 164.91 13.15
1/3/2023 10:00:00 PM 3.01 37.418 0.293 7.65 155.38 13.14
1/3/2023 10:15:00 PM 3.06 37.508 0.292 7.65 150.8 13.12
1/3/2023 10:30:00 PM 3.11 37.598 0.292 7.65 151.32 13.1
1/3/2023 10:45:00 PM 3.15 37.67 0.292 7.66 145.73 13.09
1/3/2023 11:00:00 PM 3.2 37.76 0.293 7.65 134.75 13.08
1/3/2023 11:15:00 PM 3.24 37.832 0.293 7.67 128.63 13.06
1/3/2023 11:30:00 PM 3.29 37.922 0.293 7.65 124.28 13.05
1/3/2023 11:45:00 PM 3.33 37.994 0.293 7.66 114.29 13.03
1/4/2023 12:00:00 AM 3.37 38.066 0.293 7.66 110.48 13.02
1/4/2023 12:15:00 AM 3.4 38.12 0.293 7.66 104.36 13.01
1/4/2023 12:30:00 AM 3.44 38.192 0.293 7.66 103.6 13
1/4/2023 12:45:00 AM 3.48 38.264 0.293 7.65 94.92 12.98
1/4/2023 1:00:00 AM 3.53 38.354 0.293 7.65 81.36 12.97
1/4/2023 1:15:00 AM 3.56 38.408 0.292 7.65 89.33 12.95
1/4/2023 1:30:00 AM 3.6 38.48 0.292 7.65 84.45 12.95
1/4/2023 1:45:00 AM 3.63 38.534 0.292 7.65 80.12 12.94
1/4/2023 2:00:00 AM 3.67 38.606 0.291 7.65 76.89 12.93
1/4/2023 2:15:00 AM 3.69 38.642 0.291 7.66 74.14 12.92
1/4/2023 2:30:00 AM 3.71 38.678 0.291 7.66 72.07 12.91
1/4/2023 2:45:00 AM 3.74 38.732 0.291 7.64 69.5 12.91
1/4/2023 3:00:00 AM 3.77 38.786 0.291 7.62 65.27 12.9
1/4/2023 3:15:00 AM 3.79 38.822 0.291 7.62 62.04 12.9
1/4/2023 3:30:00 AM 3.82 38.876 0.29 7.63 61.47 12.89
1/4/2023 3:45:00 AM 3.85 38.93 0.29 7.64 56.35 12.89
1/4/2023 4:00:00 AM 3.87 38.966 0.29 7.64 55.59 12.88
1/4/2023 4:15:00 AM 3.89 39.002 0.29 7.64 55.06 12.87
1/4/2023 4:30:00 AM 3.92 39.056 0.29 7.65 52.99 12.86
1/4/2023 4:45:00 AM 3.95 39.11 0.29 7.64 53.06 12.85
1/4/2023 5:00:00 AM 3.98 39.164 0.29 7.65 52.28 12.84
1/4/2023 5:15:00 AM 4.01 39.218 0.29 7.65 50.74 12.83
1/4/2023 5:30:00 AM 4.04 39.272 0.29 7.65 46.87 12.82
1/4/2023 5:45:00 AM 4.07 39.326 0.29 7.66 46.14 12.82
1/4/2023 6:00:00 AM 4.11 39.398 0.291 7.66 46.55 12.81
1/4/2023 6:15:00 AM 4.14 39.452 0.29 7.66 43.14 12.8
1/4/2023 6:30:00 AM 4.17 39.506 0.29 7.66 42.57 12.79
1/4/2023 6:45:00 AM 4.19 39.542 0.29 7.67 46.01 12.79
1/4/2023 7:00:00 AM 4.22 39.596 0.291 7.68 39 12.78
1/4/2023 7:15:00 AM 4.25 39.65 0.291 7.67 39.4 12.77
1/4/2023 7:30:00 AM 4.26 39.668 0.291 7.67 39.72 12.76
1/4/2023 7:45:00 AM 4.28 39.704 0.291 7.67 39.63 12.75
1/4/2023 8:00:00 AM 4.3 39.74 0.291 7.67 38.66 12.75
1/4/2023 8:15:00 AM 4.32 39.776 0.292 7.67 38.89 12.75
1/4/2023 8:30:00 AM 4.35 39.83 0.292 7.68 36.08 12.75
1/4/2023 8:45:00 AM 4.38 39.884 0.292 7.67 35.05 12.76
1/4/2023 9:00:00 AM 4.42 39.956 0.292 7.68 34.08 12.76
1/4/2023 9:15:00 AM 4.46 40.028 0.292 7.69 34.68 12.77
1/4/2023 9:30:00 AM 4.51 40.118 0.292 7.69 40.05 12.78
1/4/2023 9:45:00 AM 4.56 40.208 0.292 7.7 35.99 12.79
1/4/2023 10:00:00 AM 4.6 40.28 0.293 7.71 35.16 12.79
1/4/2023 10:15:00 AM 4.63 40.334 0.293 7.7 31.79 12.78
1/4/2023 10:30:00 AM 4.68 40.424 0.293 7.71 33.14 12.78
1/4/2023 10:45:00 AM 4.75 40.55 0.293 7.72 31.27 12.8
1/4/2023 11:00:00 AM 4.81 40.658 0.293 7.74 30.02 12.81
1/4/2023 11:15:00 AM 4.87 40.766 0.293 7.74 30.88 12.82
1/4/2023 11:30:00 AM 4.93 40.874 0.293 7.76 30.93 12.83
1/4/2023 11:45:00 AM 4.99 40.982 0.293 7.76 29.54 12.82
1/4/2023 12:00:00 PM 5.05 41.09 0.293 7.77 31.59 12.81
1/4/2023 12:15:00 PM 5.1 41.18 0.293 7.77 30.09 12.79
1/4/2023 12:30:00 PM 5.16 41.288 0.293 7.78 27.96 12.77
1/4/2023 12:45:00 PM 5.21 41.378 0.293 7.79 29.98 12.76
1/4/2023 1:00:00 PM 5.24 41.432 0.294 7.79 29.09 12.72
1/4/2023 1:15:00 PM 5.26 41.468 0.295 7.78 29.75 12.68
1/4/2023 1:30:00 PM 5.29 41.522 0.297 7.79 26.37 12.64
1/4/2023 1:45:00 PM 5.33 41.594 0.296 7.78 29.29 12.62
1/4/2023 2:00:00 PM 5.37 41.666 0.296 7.79 28.07 12.61
1/4/2023 2:15:00 PM 5.41 41.738 0.295 7.78 27.16 12.59
1/4/2023 2:30:00 PM 5.44 41.792 0.295 7.78 25.85 12.56
1/4/2023 2:45:00 PM 5.46 41.828 0.295 7.77 26.86 12.53
1/4/2023 3:00:00 PM 5.48 41.864 0.295 7.76 25.86 12.51
1/4/2023 3:15:00 PM 5.5 41.9 0.295 7.76 25.23 12.48
1/4/2023 3:30:00 PM 5.51 41.918 0.295 7.75 24.8 12.45
1/4/2023 3:45:00 PM 5.52 41.936 0.296 7.75 25.32 12.45
1/4/2023 4:00:00 PM 5.52 41.936 0.296 7.75 25.85 12.43
1/4/2023 4:15:00 PM 5.52 41.936 0.296 7.74 24.73 12.4
1/4/2023 4:30:00 PM 5.52 41.936 0.296 7.73 24.07 12.38
1/4/2023 4:45:00 PM 5.52 41.936 0.297 7.72 27.1 12.36
1/4/2023 5:00:00 PM 5.52 41.936 0.297 7.72 27.36 12.35
1/4/2023 5:15:00 PM 5.52 41.936 0.296 7.71 27.11 12.33
1/4/2023 5:30:00 PM 5.51 41.918 0.296 7.71 25.52 12.33
1/4/2023 5:45:00 PM 5.51 41.918 0.296 7.7 23.85 12.32
1/4/2023 6:00:00 PM 5.52 41.936 0.297 7.7 26.09 12.31
1/4/2023 6:15:00 PM 5.52 41.936 0.297 7.7 25.19 12.3
1/4/2023 6:30:00 PM 5.55 41.99 0.297 7.7 24.91 12.29
1/4/2023 6:45:00 PM 5.57 42.026 0.297 7.7 24.82 12.28
1/4/2023 7:00:00 PM 5.56 42.008 0.298 7.7 22 12.28
1/4/2023 7:15:00 PM 5.54 41.972 0.298 7.7 23.57 12.28
1/4/2023 7:30:00 PM 5.56 42.008 0.298 7.7 24.71 12.28
1/4/2023 7:45:00 PM 5.58 42.044 0.298 7.7 24.07 12.27
1/4/2023 8:00:00 PM 5.59 42.062 0.298 7.7 24.53 12.27
1/4/2023 8:15:00 PM 5.59 42.062 0.298 7.71 23.69 12.26
1/4/2023 8:30:00 PM 5.57 42.026 0.298 7.7 23.48 12.26
1/4/2023 8:45:00 PM 5.58 42.044 0.298 7.71 22.59 12.26
1/4/2023 9:00:00 PM 5.58 42.044 0.298 7.7 23.41 12.25
1/4/2023 9:15:00 PM 5.59 42.062 0.299 7.71 22.65 12.25
1/4/2023 9:30:00 PM 5.59 42.062 0.299 7.71 22.12 12.25
1/4/2023 9:45:00 PM 5.57 42.026 0.299 7.7 21.96 12.25
1/4/2023 10:00:00 PM 5.55 41.99 0.299 7.71 23.32 12.25
1/4/2023 10:15:00 PM 5.55 41.99 0.298 7.7 22.23 12.26
1/4/2023 10:30:00 PM 5.54 41.972 0.299 7.71 21.49 12.26
1/4/2023 10:45:00 PM 5.53 41.954 0.299 7.7 23.32 12.26
1/4/2023 11:00:00 PM 5.52 41.936 0.299 7.71 24.31 12.27
1/4/2023 11:15:00 PM 5.52 41.936 0.299 7.71 22.64 12.27
1/4/2023 11:30:00 PM 5.56 42.008 0.299 7.71 22.37 12.27
1/4/2023 11:45:00 PM 5.55 41.99 0.3 7.72 22.33 12.27
1/5/2023 12:00:00 AM 5.53 41.954 0.3 7.72 22.13 12.29
1/5/2023 12:15:00 AM 5.49 41.882 0.3 7.72 22.34 12.3
1/5/2023 12:30:00 AM 5.46 41.828 0.301 7.72 23.46 12.31
1/5/2023 12:45:00 AM 5.42 41.756 0.301 7.72 22.72 12.32
1/5/2023 1:00:00 AM 5.37 41.666 0.301 7.72 22.25 12.34
1/5/2023 1:15:00 AM 5.33 41.594 0.301 7.72 21.61 12.35
1/5/2023 1:30:00 AM 5.29 41.522 0.301 7.72 21.14 12.36
1/5/2023 1:45:00 AM 5.25 41.45 0.302 7.73 21.52 12.37
1/5/2023 2:00:00 AM 5.2 41.36 0.302 7.73 20.89 12.39
1/5/2023 2:15:00 AM 5.16 41.288 0.302 7.72 20.2 12.4
1/5/2023 2:30:00 AM 5.11 41.198 0.302 7.72 20.32 12.42
1/5/2023 2:45:00 AM 5.06 41.108 0.302 7.73 20.49 12.43
1/5/2023 3:00:00 AM 5 41 0.302 7.73 20.38 12.46
1/5/2023 3:15:00 AM 4.94 40.892 0.302 7.72 19.9 12.47
1/5/2023 3:30:00 AM 4.87 40.766 0.302 7.72 20.16 12.5
1/5/2023 3:45:00 AM 4.81 40.658 0.302 7.72 21.16 12.52
1/5/2023 4:00:00 AM 4.75 40.55 0.302 7.71 19.97 12.54
1/5/2023 4:15:00 AM 4.68 40.424 0.303 7.72 18.74 12.56
1/5/2023 4:30:00 AM 4.62 40.316 0.303 7.72 19.44 12.58
1/5/2023 4:45:00 AM 4.56 40.208 0.303 7.73 19.03 12.6
1/5/2023 5:00:00 AM 4.51 40.118 0.303 7.72 19.25 12.62
1/5/2023 5:15:00 AM 4.45 40.01 0.304 7.72 19.08 12.65
1/5/2023 5:30:00 AM 4.39 39.902 0.304 7.73 17.7 12.67
1/5/2023 5:45:00 AM 4.32 39.776 0.304 7.72 17.57 12.7
1/5/2023 6:00:00 AM 4.27 39.686 0.304 7.72 18.21 12.72
1/5/2023 6:15:00 AM 4.22 39.596 0.304 7.72 18.04 12.75
1/5/2023 6:30:00 AM 4.18 39.524 0.305 7.72 17.78 12.77
1/5/2023 6:45:00 AM 4.15 39.47 0.305 7.73 17.93 12.78
1/5/2023 7:00:00 AM 4.09 39.362 0.305 7.73 17.07 12.8
1/5/2023 7:15:00 AM 4.04 39.272 0.305 7.73 16.94 12.82
1/5/2023 7:30:00 AM 3.99 39.182 0.306 7.73 17.48 12.83
1/5/2023 7:45:00 AM 3.95 39.11 0.306 7.74 16.95 12.85
1/5/2023 8:00:00 AM 3.91 39.038 0.306 7.74 16.81 12.88
1/5/2023 8:15:00 AM 3.88 38.984 0.306 7.75 16.01 12.93
1/5/2023 8:30:00 AM 3.87 38.966 0.306 7.76 16.32 13
1/5/2023 8:45:00 AM 3.85 38.93 0.306 7.76 16.24 13.05
1/5/2023 9:00:00 AM 3.84 38.912 0.306 7.78 15.65 13.11
1/5/2023 9:15:00 AM 3.83 38.894 0.306 7.79 17.27 13.16
1/5/2023 9:30:00 AM 3.85 38.93 0.306 7.81 16.35 13.2
1/5/2023 9:45:00 AM 3.9 39.02 0.306 7.82 15.17 13.25
1/5/2023 10:00:00 AM 3.97 39.146 0.306 7.84 15.48 13.29
1/5/2023 10:15:00 AM 3.98 39.164 0.306 7.85 15.57 13.31
1/5/2023 10:30:00 AM 4.04 39.272 0.306 7.87 14.68 13.34
1/5/2023 10:45:00 AM 4.09 39.362 0.306 7.89 13.17 13.36
1/5/2023 11:00:00 AM 4.18 39.524 0.307 7.9 14.7 13.38
1/5/2023 11:15:00 AM 4.26 39.668 0.306 7.92 13.77 13.39
1/5/2023 11:30:00 AM 4.38 39.884 0.307 7.93 13.87 13.38
1/5/2023 11:45:00 AM 4.48 40.064 0.306 7.94 13.51 13.37
1/5/2023 12:00:00 PM 4.57 40.226 0.307 7.96 13.25 13.36
1/5/2023 12:15:00 PM 4.63 40.334 0.307 7.97 14.46 13.33
1/5/2023 12:30:00 PM 4.64 40.352 0.307 7.97 14.12 13.3
1/5/2023 12:45:00 PM 4.66 40.388 0.307 7.97 12.74 13.25
1/5/2023 1:00:00 PM 4.65 40.37 0.307 7.98 14.06 13.23
1/5/2023 1:15:00 PM 4.75 40.55 0.307 7.99 12.49 13.21
1/5/2023 1:30:00 PM 4.89 40.802 0.306 7.99 12.34 13.2
1/5/2023 1:45:00 PM 4.95 40.91 0.306 8.01 12.03 13.18
1/5/2023 2:00:00 PM 4.95 40.91 0.307 8.01 12.13 13.16
1/5/2023 2:15:00 PM 5.06 41.108 0.307 8.02 12.88 13.14
1/5/2023 2:30:00 PM 5.19 41.342 0.307 8.03 12.78 13.11
1/5/2023 2:45:00 PM 5.32 41.576 0.307 8.03 12.25 13.09
1/5/2023 3:00:00 PM 5.36 41.648 0.307 8.04 12.56 13.07
1/5/2023 3:15:00 PM 5.34 41.612 0.307 8.02 12.84 13.02
1/5/2023 3:30:00 PM 5.31 41.558 0.308 8.01 11.92 12.93
1/5/2023 3:45:00 PM 5.35 41.63 0.308 7.99 11.87 12.9
1/5/2023 4:00:00 PM 5.37 41.666 0.308 7.99 11.91 12.88
1/5/2023 4:15:00 PM 5.35 41.63 0.308 7.98 11.93 12.84
1/5/2023 4:30:00 PM 5.3 41.54 0.308 7.96 12.6 12.78
1/5/2023 4:45:00 PM 5.25 41.45 0.309 7.93 12.01 12.74
1/5/2023 5:00:00 PM 5.21 41.378 0.309 7.91 11.82 12.69
1/5/2023 5:15:00 PM 5.16 41.288 0.309 7.89 11.54 12.65
1/5/2023 5:30:00 PM 5.11 41.198 0.309 7.87 11 12.62
1/5/2023 5:45:00 PM 5.06 41.108 0.309 7.85 11.59 12.61
1/5/2023 6:00:00 PM 5.01 41.018 0.309 7.83 11.45 12.6
1/5/2023 6:15:00 PM 4.95 40.91 0.309 7.83 12.03 12.6
1/5/2023 6:30:00 PM 4.88 40.784 0.309 7.82 11.43 12.6
1/5/2023 6:45:00 PM 4.81 40.658 0.309 7.81 12.12 12.6
1/5/2023 7:00:00 PM 4.78 40.604 0.309 7.8 11.57 12.6
1/5/2023 7:15:00 PM 4.75 40.55 0.309 7.78 11.47 12.6
1/5/2023 7:30:00 PM 4.72 40.496 0.309 7.79 11.08 12.6
1/5/2023 7:45:00 PM 4.68 40.424 0.31 7.78 10.3 12.61
1/5/2023 8:00:00 PM 4.64 40.352 0.31 7.77 12.02 12.62
1/5/2023 8:15:00 PM 4.6 40.28 0.31 7.77 11.37 12.63
1/5/2023 8:30:00 PM 4.55 40.19 0.31 7.77 12.52 12.64
1/5/2023 8:45:00 PM 4.49 40.082 0.311 7.76 11.06 12.65
1/5/2023 9:00:00 PM 4.42 39.956 0.311 7.76 10.65 12.67
1/5/2023 9:15:00 PM 4.35 39.83 0.311 7.76 11.76 12.69
1/5/2023 9:30:00 PM 4.28 39.704 0.311 7.76 11.12 12.72
1/5/2023 9:45:00 PM 4.21 39.578 0.311 7.76 11.24 12.74
1/5/2023 10:00:00 PM 4.14 39.452 0.312 7.76 10.58 12.76
1/5/2023 10:15:00 PM 4.08 39.344 0.312 7.75 11.21 12.78
1/5/2023 10:30:00 PM 4.01 39.218 0.312 7.75 12.18 12.8
1/5/2023 10:45:00 PM 3.96 39.128 0.312 7.76 11.27 12.82
1/5/2023 11:00:00 PM 3.9 39.02 0.312 7.75 10.87 12.84
1/5/2023 11:15:00 PM 3.85 38.93 0.312 7.75 11.12 12.86
1/5/2023 11:30:00 PM 3.8 38.84 0.312 7.75 11.5 12.88
1/5/2023 11:45:00 PM 3.74 38.732 0.312 7.74 10.36 12.89
1/6/2023 12:00:00 AM 3.67 38.606 0.312 7.74 11.31 12.91
1/6/2023 12:15:00 AM 3.61 38.498 0.313 7.74 10.95 12.93
1/6/2023 12:30:00 AM 3.54 38.372 0.313 7.75 11.11 12.95
1/6/2023 12:45:00 AM 3.49 38.282 0.313 7.75 11.45 12.97
1/6/2023 1:00:00 AM 3.43 38.174 0.313 7.74 11.09 13
1/6/2023 1:15:00 AM 3.38 38.084 0.314 7.75 10.05 13.01
1/6/2023 1:30:00 AM 3.33 37.994 0.314 7.75 10.4 13.03
1/6/2023 1:45:00 AM 3.3 37.94 0.315 7.74 11.14 13.05
1/6/2023 2:00:00 AM 3.26 37.868 0.315 7.75 10.44 13.07
1/6/2023 2:15:00 AM 3.23 37.814 0.315 7.74 11.51 13.08
1/6/2023 2:30:00 AM 3.2 37.76 0.315 7.74 10.61 13.09
1/6/2023 2:45:00 AM 3.16 37.688 0.316 7.74 11 13.11
1/6/2023 3:00:00 AM 3.13 37.634 0.316 7.74 9.81 13.12
1/6/2023 3:15:00 AM 3.11 37.598 0.316 7.74 9.23 13.13
1/6/2023 3:30:00 AM 3.08 37.544 0.316 7.74 9.84 13.15
1/6/2023 3:45:00 AM 3.05 37.49 0.316 7.75 10.83 13.16
1/6/2023 4:00:00 AM 3.03 37.454 0.316 7.74 9.74 13.17
1/6/2023 4:15:00 AM 3.02 37.436 0.316 7.74 9.58 13.18
1/6/2023 4:30:00 AM 3 37.4 0.316 7.74 10.57 13.19
1/6/2023 4:45:00 AM 2.98 37.364 0.316 7.75 9.06 13.2
1/6/2023 5:00:00 AM 2.97 37.346 0.316 7.74 10.16 13.2
1/6/2023 5:15:00 AM 2.95 37.31 0.316 7.75 9.53 13.21
1/6/2023 5:30:00 AM 2.94 37.292 0.316 7.74 9.61 13.21
1/6/2023 5:45:00 AM 2.92 37.256 0.316 7.75 9.34 13.22
1/6/2023 6:00:00 AM 2.91 37.238 0.317 7.74 9.98 13.22
1/6/2023 6:15:00 AM 2.89 37.202 0.317 7.75 10.38 13.23
1/6/2023 6:30:00 AM 2.88 37.184 0.317 7.74 8.96 13.23
1/6/2023 6:45:00 AM 2.86 37.148 0.318 7.75 9.65 13.24
1/6/2023 7:00:00 AM 2.82 37.076 0.318 7.75 8.98 13.24
1/6/2023 7:15:00 AM 2.78 37.004 0.318 7.75 8.96 13.25
1/6/2023 7:30:00 AM 2.74 36.932 0.318 7.75 10.1 13.25
1/6/2023 7:45:00 AM 2.69 36.842 0.318 7.75 9.89 13.27
1/6/2023 8:00:00 AM 2.66 36.788 0.318 7.75 9.01 13.29
1/6/2023 8:15:00 AM 2.65 36.77 0.318 7.76 8.92 13.32
1/6/2023 8:30:00 AM 2.64 36.752 0.319 7.76 9.81 13.36
1/6/2023 8:45:00 AM 2.64 36.752 0.319 7.77 9.78 13.4
1/6/2023 9:00:00 AM 2.65 36.77 0.319 7.78 8.7 13.46
1/6/2023 9:15:00 AM 2.68 36.824 0.319 7.79 9.48 13.54
1/6/2023 9:30:00 AM 2.71 36.878 0.319 7.81 8.92 13.62
1/6/2023 9:45:00 AM 2.72 36.896 0.318 7.83 8.62 13.66
1/6/2023 10:00:00 AM 2.71 36.878 0.318 7.83 8.78 13.65
1/6/2023 10:15:00 AM 2.71 36.878 0.318 7.83 8.81 13.67
1/6/2023 10:30:00 AM 2.67 36.806 0.317 7.84 8.18 13.67
1/6/2023 10:45:00 AM 2.7 36.86 0.318 7.85 8.29 13.71
1/6/2023 11:00:00 AM 2.74 36.932 0.318 7.87 8.89 13.77
1/6/2023 11:15:00 AM 2.81 37.058 0.318 7.88 7.54 13.82
1/6/2023 11:30:00 AM 2.88 37.184 0.319 7.9 7.8 13.85
1/6/2023 11:45:00 AM 2.93 37.274 0.319 7.92 8.4 13.86
1/6/2023 12:00:00 PM 3.03 37.454 0.32 7.94 7.46 13.88
1/6/2023 12:15:00 PM 3.12 37.616 0.32 7.96 8.71 13.88
1/6/2023 12:30:00 PM 3.19 37.742 0.32 7.97 8.37 13.88
1/6/2023 12:45:00 PM 3.25 37.85 0.319 7.98 8.07 13.86
1/6/2023 1:00:00 PM 3.38 38.084 0.319 8 7.64 13.86
1/6/2023 1:15:00 PM 3.39 38.102 0.319 8 7.79 13.85
1/6/2023 1:30:00 PM 3.44 38.192 0.319 8.01 7.76 13.83
1/6/2023 1:45:00 PM 3.42 38.156 0.319 8.02 8.69 13.81
1/6/2023 2:00:00 PM 3.41 38.138 0.319 8.02 8 13.79
1/6/2023 2:15:00 PM 3.47 38.246 0.319 8.03 8.08 13.79
1/6/2023 2:30:00 PM 3.47 38.246 0.318 8.02 8.16 13.72
1/6/2023 2:45:00 PM 3.45 38.21 0.318 8 8.55 13.64
1/6/2023 3:00:00 PM 3.44 38.192 0.318 7.99 7.41 13.6
1/6/2023 3:15:00 PM 3.45 38.21 0.318 7.98 8.53 13.57
1/6/2023 3:30:00 PM 3.46 38.228 0.317 7.97 8.15 13.52
1/6/2023 3:45:00 PM 3.47 38.246 0.317 7.95 7.82 13.47
1/6/2023 4:00:00 PM 3.47 38.246 0.317 7.94 7.53 13.42
1/6/2023 4:15:00 PM 3.46 38.228 0.317 7.93 8.17 13.38
1/6/2023 4:30:00 PM 3.44 38.192 0.317 7.91 8.87 13.35
1/6/2023 4:45:00 PM 3.42 38.156 0.317 7.9 8.23 13.32
1/6/2023 5:00:00 PM 3.4 38.12 0.317 7.88 7.65 13.29
1/6/2023 5:15:00 PM 3.38 38.084 0.317 7.88 8.17 13.26
1/6/2023 5:30:00 PM 3.35 38.03 0.317 7.87 8.35 13.24
1/6/2023 5:45:00 PM 3.32 37.976 0.317 7.85 7.75 13.23
1/6/2023 6:00:00 PM 3.31 37.958 0.317 7.84 8.31 13.22
1/6/2023 6:15:00 PM 3.28 37.904 0.317 7.83 8.82 13.22
1/6/2023 6:30:00 PM 3.25 37.85 0.317 7.83 7.8 13.22
1/6/2023 6:45:00 PM 3.23 37.814 0.317 7.82 7.91 13.22
1/6/2023 7:00:00 PM 3.2 37.76 0.316 7.81 7.69 13.22
1/6/2023 7:15:00 PM 3.17 37.706 0.316 7.81 8.05 13.23
1/6/2023 7:30:00 PM 3.14 37.652 0.316 7.81 7.86 13.23
1/6/2023 7:45:00 PM 3.11 37.598 0.316 7.8 8.01 13.24
1/6/2023 8:00:00 PM 3.08 37.544 0.316 7.8 8.14 13.25
1/6/2023 8:15:00 PM 3.06 37.508 0.316 7.79 7.85 13.26
1/6/2023 8:30:00 PM 3.03 37.454 0.315 7.79 7.72 13.27
1/6/2023 8:45:00 PM 3 37.4 0.315 7.79 6.99 13.28
1/6/2023 9:00:00 PM 2.98 37.364 0.315 7.79 7.94 13.28
1/6/2023 9:15:00 PM 2.95 37.31 0.315 7.79 7.83 13.29
1/6/2023 9:30:00 PM 2.94 37.292 0.316 7.79 7.82 13.3
1/6/2023 9:45:00 PM 2.92 37.256 0.316 7.78 7.86 13.31
1/6/2023 10:00:00 PM 2.9 37.22 0.316 7.78 7.73 13.32
1/6/2023 10:15:00 PM 2.88 37.184 0.316 7.78 8.04 13.32
1/6/2023 10:30:00 PM 2.86 37.148 0.317 7.78 7.66 13.33
1/6/2023 10:45:00 PM 2.84 37.112 0.317 7.78 7.23 13.34
1/6/2023 11:00:00 PM 2.82 37.076 0.317 7.78 8.03 13.35
1/6/2023 11:15:00 PM 2.79 37.022 0.317 7.78 7.71 13.36
1/6/2023 11:30:00 PM 2.77 36.986 0.317 7.78 7.47 13.36
1/6/2023 11:45:00 PM 2.76 36.968 0.317 7.78 7.47 13.37
1/7/2023 12:00:00 AM 2.74 36.932 0.317 7.78 7.15 13.38
1/7/2023 12:15:00 AM 2.72 36.896 0.317 7.78 7.73 13.39
1/7/2023 12:30:00 AM 2.7 36.86 0.317 7.78 7.66 13.39
1/7/2023 12:45:00 AM 2.69 36.842 0.317 7.78 7.59 13.4
1/7/2023 1:00:00 AM 2.67 36.806 0.317 7.78 7.74 13.4
1/7/2023 1:15:00 AM 2.66 36.788 0.317 7.78 8.36 13.41
1/7/2023 1:30:00 AM 2.65 36.77 0.317 7.78 8.07 13.41
1/7/2023 1:45:00 AM 2.64 36.752 0.317 7.78 7.22 13.42
1/7/2023 2:00:00 AM 2.63 36.734 0.317 7.77 7.97 13.42
1/7/2023 2:15:00 AM 2.61 36.698 0.317 7.78 7.47 13.43
1/7/2023 2:30:00 AM 2.6 36.68 0.318 7.78 7.59 13.43
1/7/2023 2:45:00 AM 2.59 36.662 0.318 7.78 7.41 13.44
1/7/2023 3:00:00 AM 2.58 36.644 0.318 7.77 7.8 13.44
1/7/2023 3:15:00 AM 2.57 36.626 0.318 7.78 7.77 13.45
1/7/2023 3:30:00 AM 2.56 36.608 0.318 7.78 7.6 13.45
1/7/2023 3:45:00 AM 2.55 36.59 0.318 7.78 7.41 13.45
1/7/2023 4:00:00 AM 2.54 36.572 0.318 7.78 7.29 13.46
1/7/2023 4:15:00 AM 2.53 36.554 0.318 7.77 7.24 13.46
1/7/2023 4:30:00 AM 2.52 36.536 0.318 7.78 7.1 13.44
1/7/2023 4:45:00 AM 2.51 36.518 0.318 7.78 7.7 13.46
1/7/2023 5:00:00 AM 2.5 36.5 0.318 7.77 7.59 13.47
1/7/2023 5:15:00 AM 2.49 36.482 0.318 7.77 7.97 13.47
1/7/2023 5:30:00 AM 2.48 36.464 0.319 7.78 7.51 13.47
1/7/2023 5:45:00 AM 2.47 36.446 0.319 7.77 7.95 13.48
1/7/2023 6:00:00 AM 2.46 36.428 0.319 7.78 7.54 13.48
1/7/2023 6:15:00 AM 2.46 36.428 0.318 7.77 7.39 13.48
1/7/2023 6:30:00 AM 2.45 36.41 0.318 7.78 7.58 13.49
1/7/2023 6:45:00 AM 2.44 36.392 0.318 7.77 7.86 13.49
1/7/2023 7:00:00 AM 2.43 36.374 0.318 7.77 7.65 13.49
1/7/2023 7:15:00 AM 2.42 36.356 0.318 7.77 6.66 13.5
1/7/2023 7:30:00 AM 2.41 36.338 0.318 7.77 6.46 13.5
1/7/2023 7:45:00 AM 2.4 36.32 0.319 7.78 7.39 13.51
1/7/2023 8:00:00 AM 2.39 36.302 0.319 7.77 7.15 13.52
1/7/2023 8:15:00 AM 2.39 36.302 0.32 7.78 7.29 13.55
1/7/2023 8:30:00 AM 2.4 36.32 0.32 7.79 7.25 13.6
1/7/2023 8:45:00 AM 2.41 36.338 0.32 7.8 7.06 13.64
1/7/2023 9:00:00 AM 2.42 36.356 0.32 7.81 6.78 13.69
1/7/2023 9:15:00 AM 2.45 36.41 0.32 7.83 6.84 13.76
1/7/2023 9:30:00 AM 2.48 36.464 0.32 7.84 6.08 13.82
1/7/2023 9:45:00 AM 2.5 36.5 0.32 7.87 7.22 13.88
1/7/2023 10:00:00 AM 2.52 36.536 0.32 7.88 7.14 13.9
1/7/2023 10:15:00 AM 2.55 36.59 0.32 7.89 6.79 13.92
1/7/2023 10:30:00 AM 2.58 36.644 0.32 7.9 6.56 13.96
1/7/2023 10:45:00 AM 2.63 36.734 0.319 7.91 6.48 14
1/7/2023 11:00:00 AM 2.68 36.824 0.319 7.94 7.55 14.03
1/7/2023 11:15:00 AM 2.73 36.914 0.319 7.95 6.99 14.05
1/7/2023 11:30:00 AM 2.76 36.968 0.319 7.96 7.25 14.06
1/7/2023 11:45:00 AM 2.8 37.04 0.318 7.97 6.35 14.07
1/7/2023 12:00:00 PM 2.82 37.076 0.318 7.99 6.67 14.07
1/7/2023 12:15:00 PM 2.86 37.148 0.318 7.99 6.87 14.07
1/7/2023 12:30:00 PM 2.92 37.256 0.318 8.01 7.28 14.08
1/7/2023 12:45:00 PM 3.01 37.418 0.318 8.03 7.11 14.09
1/7/2023 1:00:00 PM 3.09 37.562 0.318 8.05 7.08 14.1
1/7/2023 1:15:00 PM 3.15 37.67 0.318 8.06 6.48 14.08
1/7/2023 1:30:00 PM 3.17 37.706 0.319 8.07 6.84 14.06
1/7/2023 1:45:00 PM 3.17 37.706 0.319 8.06 6.96 14.01
1/7/2023 2:00:00 PM 3.21 37.778 0.319 8.07 6.6 14
1/7/2023 2:15:00 PM 3.25 37.85 0.319 8.08 6.76 13.99
1/7/2023 2:30:00 PM 3.29 37.922 0.319 8.09 6.11 13.98
1/7/2023 2:45:00 PM 3.33 37.994 0.319 8.09 6.69 13.95
1/7/2023 3:00:00 PM 3.35 38.03 0.319 8.08 6.29 13.91
1/7/2023 3:15:00 PM 3.34 38.012 0.319 8.07 5.82 13.84
1/7/2023 3:30:00 PM 3.36 38.048 0.319 8.06 6.89 13.81
1/7/2023 3:45:00 PM 3.36 38.048 0.319 8.05 5.95 13.77
1/7/2023 4:00:00 PM 3.36 38.048 0.318 8.03 7.12 13.71
1/7/2023 4:15:00 PM 3.36 38.048 0.318 8.02 6.75 13.67
1/7/2023 4:30:00 PM 3.35 38.03 0.318 8 5.73 13.61
1/7/2023 4:45:00 PM 3.33 37.994 0.318 7.98 6.18 13.54
1/7/2023 5:00:00 PM 3.32 37.976 0.318 7.95 6.54 13.48
1/7/2023 5:15:00 PM 3.3 37.94 0.318 7.93 6.43 13.43
1/7/2023 5:30:00 PM 3.28 37.904 0.319 7.92 6.55 13.4
1/7/2023 5:45:00 PM 3.26 37.868 0.319 7.91 6.41 13.38
1/7/2023 6:00:00 PM 3.24 37.832 0.319 7.89 6.54 13.36
1/7/2023 6:15:00 PM 3.2 37.76 0.319 7.88 6.58 13.35
1/7/2023 6:30:00 PM 3.17 37.706 0.319 7.87 6.01 13.34
1/7/2023 6:45:00 PM 3.15 37.67 0.319 7.86 7.05 13.34
1/7/2023 7:00:00 PM 3.12 37.616 0.319 7.85 6 13.34
1/7/2023 7:15:00 PM 3.09 37.562 0.32 7.85 6.29 13.34
1/7/2023 7:30:00 PM 3.06 37.508 0.32 7.84 6.06 13.34
1/7/2023 7:45:00 PM 3.03 37.454 0.32 7.83 6.49 13.35
1/7/2023 8:00:00 PM 3 37.4 0.32 7.83 6.67 13.36
1/7/2023 8:15:00 PM 2.97 37.346 0.32 7.83 5.63 13.36
1/7/2023 8:30:00 PM 2.94 37.292 0.32 7.81 6.3 13.37
1/7/2023 8:45:00 PM 2.91 37.238 0.32 7.81 6.65 13.37
1/7/2023 9:00:00 PM 2.88 37.184 0.32 7.81 7.26 13.38
1/7/2023 9:15:00 PM 2.85 37.13 0.32 7.81 6.49 13.39
1/7/2023 9:30:00 PM 2.82 37.076 0.32 7.8 6.39 13.4
1/7/2023 9:45:00 PM 2.78 37.004 0.32 7.81 6.45 13.41
1/7/2023 10:00:00 PM 2.75 36.95 0.32 7.8 5.7 13.42
1/7/2023 10:15:00 PM 2.73 36.914 0.32 7.8 6.66 13.43
1/7/2023 10:30:00 PM 2.7 36.86 0.319 7.8 6.21 13.44
1/7/2023 10:45:00 PM 2.67 36.806 0.319 7.8 6.68 13.45
1/7/2023 11:00:00 PM 2.65 36.77 0.319 7.8 6.63 13.46
1/7/2023 11:15:00 PM 2.63 36.734 0.32 7.79 5.9 13.47
1/7/2023 11:30:00 PM 2.6 36.68 0.32 7.8 5.83 13.48
1/7/2023 11:45:00 PM 2.56 36.608 0.32 7.79 5.97 13.5
1/8/2023 12:00:00 AM 2.54 36.572 0.32 7.79 6.77 13.51
1/8/2023 12:15:00 AM 2.52 36.536 0.32 7.8 6.67 13.51
1/8/2023 12:30:00 AM 2.5 36.5 0.32 7.79 6.42 13.52
1/8/2023 12:45:00 AM 2.47 36.446 0.32 7.79 6.6 13.53
1/8/2023 1:00:00 AM 2.45 36.41 0.321 7.79 6.97 13.53
1/8/2023 1:15:00 AM 2.42 36.356 0.321 7.79 6.18 13.55
1/8/2023 1:30:00 AM 2.39 36.302 0.322 7.8 6.16 13.55
1/8/2023 1:45:00 AM 2.37 36.266 0.322 7.79 6.59 13.56
1/8/2023 2:00:00 AM 2.35 36.23 0.322 7.79 5.73 13.57
1/8/2023 2:15:00 AM 2.33 36.194 0.322 7.8 6.03 13.58
1/8/2023 2:30:00 AM 2.31 36.158 0.323 7.79 6.35 13.59
1/8/2023 2:45:00 AM 2.28 36.104 0.323 7.79 5.83 13.6
1/8/2023 3:00:00 AM 2.26 36.068 0.323 7.79 6.24 13.61
1/8/2023 3:15:00 AM 2.24 36.032 0.323 7.8 6.54 13.62
1/8/2023 3:30:00 AM 2.22 35.996 0.323 7.79 5.69 13.63
1/8/2023 3:45:00 AM 2.2 35.96 0.323 7.79 6.67 13.63
1/8/2023 4:00:00 AM 2.18 35.924 0.323 7.79 6.1 13.64
1/8/2023 4:15:00 AM 2.16 35.888 0.323 7.79 5.9 13.65
1/8/2023 4:30:00 AM 2.15 35.87 0.323 7.79 6.32 13.66
1/8/2023 4:45:00 AM 2.13 35.834 0.323 7.79 6.02 13.66
1/8/2023 5:00:00 AM 2.11 35.798 0.323 7.79 5.79 13.67
1/8/2023 5:15:00 AM 2.09 35.762 0.323 7.79 6.08 13.68
1/8/2023 5:30:00 AM 2.06 35.708 0.323 7.79 6.13 13.68
1/8/2023 5:45:00 AM 2.04 35.672 0.323 7.79 6.53 13.69
1/8/2023 6:00:00 AM 2.02 35.636 0.323 7.79 5.96 13.7
1/8/2023 6:15:00 AM 2.01 35.618 0.323 7.79 6.34 13.71
1/8/2023 6:30:00 AM 1.99 35.582 0.324 7.79 5.84 13.71
1/8/2023 6:45:00 AM 1.98 35.564 0.324 7.79 6.1 13.72
1/8/2023 7:00:00 AM 1.96 35.528 0.324 7.79 5.6 13.72
1/8/2023 7:15:00 AM 1.94 35.492 0.324 7.79 5.34 13.73
1/8/2023 7:30:00 AM 1.93 35.474 0.324 7.8 6.36 13.74
1/8/2023 7:45:00 AM 1.91 35.438 0.325 7.8 6.62 13.75
1/8/2023 8:00:00 AM 1.89 35.402 0.325 7.8 6.21 13.78
1/8/2023 8:15:00 AM 1.89 35.402 0.325 7.81 5.75 13.82
1/8/2023 8:30:00 AM 1.89 35.402 0.326 7.82 6.02 13.87
1/8/2023 8:45:00 AM 1.89 35.402 0.326 7.83 5.92 13.95
1/8/2023 9:00:00 AM 1.91 35.438 0.326 7.85 6 14.03
1/8/2023 9:15:00 AM 1.93 35.474 0.326 7.87 5.65 14.11
1/8/2023 9:30:00 AM 1.96 35.528 0.326 7.89 5.66 14.18
1/8/2023 9:45:00 AM 1.98 35.564 0.326 7.91 6.33 14.22
1/8/2023 10:00:00 AM 2.01 35.618 0.326 7.93 5.43 14.27
1/8/2023 10:15:00 AM 2.05 35.69 0.326 7.94 5.56 14.31
1/8/2023 10:30:00 AM 2.1 35.78 0.325 7.96 5.94 14.35
1/8/2023 10:45:00 AM 2.17 35.906 0.325 7.98 5.41 14.38
1/8/2023 11:00:00 AM 2.24 36.032 0.324 8 5.36 14.41
1/8/2023 11:15:00 AM 2.34 36.212 0.324 8.02 5.23 14.43
1/8/2023 11:30:00 AM 2.43 36.374 0.324 8.04 5.69 14.43
1/8/2023 11:45:00 AM 2.55 36.59 0.324 8.05 5.48 14.43
1/8/2023 12:00:00 PM 2.72 36.896 0.324 8.06 6.01 14.42
1/8/2023 12:15:00 PM 2.83 37.094 0.323 8.08 5.06 14.41
1/8/2023 12:30:00 PM 2.86 37.148 0.323 8.09 5.39 14.39
1/8/2023 12:45:00 PM 2.93 37.274 0.323 8.09 5.71 14.37
1/8/2023 1:00:00 PM 3.01 37.418 0.323 8.11 5.62 14.33
1/8/2023 1:15:00 PM 3.04 37.472 0.323 8.12 5.57 14.31
1/8/2023 1:30:00 PM 3.08 37.544 0.323 8.12 5.72 14.29
1/8/2023 1:45:00 PM 3.14 37.652 0.324 8.13 4.52 14.27
1/8/2023 2:00:00 PM 3.2 37.76 0.324 8.14 5.35 14.23
1/8/2023 2:15:00 PM 3.25 37.85 0.324 8.15 5.31 14.19
1/8/2023 2:30:00 PM 3.28 37.904 0.324 8.15 5.09 14.17
1/8/2023 2:45:00 PM 3.29 37.922 0.324 8.15 5.11 14.14
1/8/2023 3:00:00 PM 3.25 37.85 0.324 8.16 5.52 14.11
1/8/2023 3:15:00 PM 3.22 37.796 0.324 8.16 5.56 14.09
1/8/2023 3:30:00 PM 3.19 37.742 0.324 8.16 6.32 14.06
1/8/2023 3:45:00 PM 3.14 37.652 0.324 8.15 5.37 14.02
1/8/2023 4:00:00 PM 3.1 37.58 0.324 8.13 5.84 13.97
1/8/2023 4:15:00 PM 3.07 37.526 0.324 8.11 5.75 13.9
1/8/2023 4:30:00 PM 3.05 37.49 0.324 8.09 6.2 13.84
1/8/2023 4:45:00 PM 3.01 37.418 0.324 8.06 5.21 13.76
1/8/2023 5:00:00 PM 2.97 37.346 0.324 8.04 5.21 13.69
1/8/2023 5:15:00 PM 2.93 37.274 0.324 8.01 5.43 13.62
1/8/2023 5:30:00 PM 2.88 37.184 0.324 7.99 5.28 13.56
1/8/2023 5:45:00 PM 2.82 37.076 0.324 7.96 5.11 13.52
1/8/2023 6:00:00 PM 2.76 36.968 0.324 7.94 5.27 13.49
1/8/2023 6:15:00 PM 2.7 36.86 0.324 7.92 6.09 13.48
1/8/2023 6:30:00 PM 2.64 36.752 0.324 7.91 4.78 13.48
1/8/2023 6:45:00 PM 2.59 36.662 0.324 7.9 5.32 13.47
1/8/2023 7:00:00 PM 2.54 36.572 0.324 7.89 5.49 13.47
1/8/2023 7:15:00 PM 2.47 36.446 0.325 7.88 5.29 13.48
1/8/2023 7:30:00 PM 2.41 36.338 0.325 7.87 5.21 13.48
1/8/2023 7:45:00 PM 2.35 36.23 0.325 7.87 5.15 13.49
1/8/2023 8:00:00 PM 2.28 36.104 0.326 7.86 5.38 13.5
1/8/2023 8:15:00 PM 2.22 35.996 0.326 7.85 5.46 13.52
1/8/2023 8:30:00 PM 2.17 35.906 0.327 7.84 5.52 13.53
1/8/2023 8:45:00 PM 2.13 35.834 0.327 7.84 5.39 13.54
1/8/2023 9:00:00 PM 2.09 35.762 0.328 7.84 5.24 13.55
1/8/2023 9:15:00 PM 2.06 35.708 0.328 7.83 5.17 13.57
1/8/2023 9:30:00 PM 2.02 35.636 0.328 7.82 4.86 13.57
1/8/2023 9:45:00 PM 1.98 35.564 0.328 7.82 5.64 13.58
1/8/2023 10:00:00 PM 1.94 35.492 0.328 7.82 5.94 13.6
1/8/2023 10:15:00 PM 1.87 35.366 0.328 7.81 6.01 13.62
1/8/2023 10:30:00 PM 1.81 35.258 0.328 7.81 5.83 13.64
1/8/2023 10:45:00 PM 1.78 35.204 0.328 7.8 5.12 13.66
1/8/2023 11:00:00 PM 1.75 35.15 0.329 7.81 5.05 13.68
1/8/2023 11:15:00 PM 1.72 35.096 0.329 7.8 4.53 13.69
1/8/2023 11:30:00 PM 1.68 35.024 0.328 7.8 5.73 13.71
1/8/2023 11:45:00 PM 1.65 34.97 0.328 7.8 4.93 13.72
1/9/2023 12:00:00 AM 1.61 34.898 0.328 7.8 4.76 13.74
1/9/2023 12:15:00 AM 1.58 34.844 0.328 7.8 5.13 13.75
1/9/2023 12:30:00 AM 1.55 34.79 0.327 7.8 5.41 13.76
1/9/2023 12:45:00 AM 1.52 34.736 0.327 7.8 5.73 13.77
1/9/2023 1:00:00 AM 1.5 34.7 0.328 7.8 5.56 13.78
1/9/2023 1:15:00 AM 1.46 34.628 0.328 7.8 5.19 13.79
1/9/2023 1:30:00 AM 1.43 34.574 0.328 7.79 4.75 13.8
1/9/2023 1:45:00 AM 1.41 34.538 0.328 7.79 5.84 13.81
1/9/2023 2:00:00 AM 1.39 34.502 0.329 7.79 5.18 13.82
1/9/2023 2:15:00 AM 1.38 34.484 0.329 7.79 4.98 13.82
1/9/2023 2:30:00 AM 1.37 34.466 0.33 7.8 4.98 13.82
1/9/2023 2:45:00 AM 1.36 34.448 0.33 7.79 5.2 13.83
1/9/2023 3:00:00 AM 1.35 34.43 0.33 7.8 4.88 13.84
1/9/2023 3:15:00 AM 1.34 34.412 0.33 7.79 5.34 13.84
1/9/2023 3:30:00 AM 1.33 34.394 0.331 7.79 4.72 13.85
1/9/2023 3:45:00 AM 1.33 34.394 0.331 7.8 5.41 13.85
1/9/2023 4:00:00 AM 1.32 34.376 0.331 7.79 5.4 13.85
1/9/2023 4:15:00 AM 1.31 34.358 0.331 7.79 5.44 13.86
1/9/2023 4:30:00 AM 1.3 34.34 0.331 7.8 5.17 13.86
1/9/2023 4:45:00 AM 1.3 34.34 0.331 7.8 5.03 13.86
1/9/2023 5:00:00 AM 1.29 34.322 0.331 7.79 5.12 13.87
1/9/2023 5:15:00 AM 1.28 34.304 0.331 7.8 5.01 13.87
1/9/2023 5:30:00 AM 1.26 34.268 0.33 7.8 5.16 13.87
1/9/2023 5:45:00 AM 1.25 34.25 0.33 7.81 5.04 13.88
1/9/2023 6:00:00 AM 1.23 34.214 0.33 7.8 5.09 13.88
1/9/2023 6:15:00 AM 1.22 34.196 0.331 7.8 5.33 13.88
1/9/2023 6:30:00 AM 1.21 34.178 0.331 7.8 5.09 13.88
1/9/2023 6:45:00 AM 1.19 34.142 0.331 7.8 4.86 13.89
1/9/2023 7:00:00 AM 1.17 34.106 0.331 7.81 4.82 13.89
1/9/2023 7:15:00 AM 1.16 34.088 0.331 7.81 4.43 13.9
1/9/2023 7:30:00 AM 1.15 34.07 0.331 7.81 5.25 13.9
1/9/2023 7:45:00 AM 1.14 34.052 0.331 7.81 5.26 13.91
1/9/2023 8:00:00 AM 1.11 33.998 0.332 7.81 4.95 13.94
1/9/2023 8:15:00 AM 1.1 33.98 0.332 7.83 5.04 13.98
1/9/2023 8:30:00 AM 1.1 33.98 0.333 7.83 4.68 14.03
1/9/2023 8:45:00 AM 1.09 33.962 0.333 7.84 4.84 14.09
1/9/2023 9:00:00 AM 1.1 33.98 0.333 7.86 4.45 14.17
1/9/2023 9:15:00 AM 1.11 33.998 0.333 7.88 5.14 14.25
1/9/2023 9:30:00 AM 1.12 34.016 0.333 7.9 4.81 14.35
1/9/2023 9:45:00 AM 1.17 34.106 0.333 7.93 4.93 14.43
1/9/2023 10:00:00 AM 1.21 34.178 0.333 7.95 4.39 14.51
1/9/2023 10:15:00 AM 1.32 34.376 0.333 7.97 5.12 14.56
1/9/2023 10:30:00 AM 1.44 34.592 0.333 7.99 4.73 14.59
1/9/2023 10:45:00 AM 1.59 34.862 0.332 8.01 4.56 14.61
1/9/2023 11:00:00 AM 1.7 35.06 0.332 8.03 4.79 14.62
1/9/2023 11:15:00 AM 1.79 35.222 0.331 8.04 4.06 14.61
1/9/2023 11:30:00 AM 1.87 35.366 0.331 8.05 4.4 14.61
1/9/2023 11:45:00 AM 1.94 35.492 0.331 8.06 4.39 14.61
1/9/2023 12:00:00 PM 1.99 35.582 0.331 8.07 4.06 14.6
1/9/2023 12:15:00 PM 2.06 35.708 0.331 8.08 4.55 14.58
1/9/2023 12:30:00 PM 2.13 35.834 0.33 8.09 4.53 14.57
1/9/2023 12:45:00 PM 2.19 35.942 0.33 8.1 4.74 14.55
1/9/2023 1:00:00 PM 2.25 36.05 0.33 8.11 4.57 14.53
1/9/2023 1:15:00 PM 2.32 36.176 0.33 8.11 4.65 14.51
1/9/2023 1:30:00 PM 2.38 36.284 0.33 8.13 4.4 14.5
1/9/2023 1:45:00 PM 2.43 36.374 0.33 8.14 4.43 14.48
1/9/2023 2:00:00 PM 2.46 36.428 0.33 8.15 4.34 14.47
1/9/2023 2:15:00 PM 2.49 36.482 0.33 8.15 4.53 14.45
1/9/2023 2:30:00 PM 2.51 36.518 0.331 8.16 4.37 14.43
1/9/2023 2:45:00 PM 2.53 36.554 0.331 8.17 4.31 14.4
1/9/2023 3:00:00 PM 2.54 36.572 0.331 8.17 4.16 14.38
1/9/2023 3:15:00 PM 2.52 36.536 0.331 8.18 4.64 14.36
1/9/2023 3:30:00 PM 2.48 36.464 0.331 8.18 4.1 14.33
1/9/2023 3:45:00 PM 2.42 36.356 0.331 8.17 4.03 14.28
1/9/2023 4:00:00 PM 2.36 36.248 0.331 8.16 4.49 14.24
1/9/2023 4:15:00 PM 2.29 36.122 0.331 8.14 4.56 14.18
1/9/2023 4:30:00 PM 2.25 36.05 0.331 8.12 4.64 14.11
1/9/2023 4:45:00 PM 2.21 35.978 0.331 8.1 4.67 14.03
1/9/2023 5:00:00 PM 2.17 35.906 0.331 8.07 4.9 13.93
1/9/2023 5:15:00 PM 2.13 35.834 0.331 8.04 3.84 13.85
1/9/2023 5:30:00 PM 2.11 35.798 0.331 8.01 4.38 13.79
1/9/2023 5:45:00 PM 2.08 35.744 0.331 7.99 4.76 13.73
1/9/2023 6:00:00 PM 2.05 35.69 0.331 7.96 4.21 13.7
1/9/2023 6:15:00 PM 2.02 35.636 0.331 7.96 4.59 13.68
1/9/2023 6:30:00 PM 1.98 35.564 0.331 7.94 4.72 13.67
1/9/2023 6:45:00 PM 1.93 35.474 0.331 7.93 3.78 13.66
1/9/2023 7:00:00 PM 1.89 35.402 0.332 7.91 4.37 13.66
1/9/2023 7:15:00 PM 1.86 35.348 0.332 7.91 4.71 13.66
1/9/2023 7:30:00 PM 1.82 35.276 0.332 7.89 4.58 13.66
1/9/2023 7:45:00 PM 1.77 35.186 0.332 7.89 4.33 13.67
1/9/2023 8:00:00 PM 1.74 35.132 0.332 7.88 4.36 13.67
1/9/2023 8:15:00 PM 1.72 35.096 0.332 7.87 4.8 13.68
1/9/2023 8:30:00 PM 1.71 35.078 0.333 7.87 4.45 13.68
1/9/2023 8:45:00 PM 1.71 35.078 0.333 7.87 4.39 13.69
1/9/2023 9:00:00 PM 1.7 35.06 0.333 7.86 4.49 13.7
1/9/2023 9:15:00 PM 1.68 35.024 0.334 7.85 4.4 13.7
1/9/2023 9:30:00 PM 1.65 34.97 0.334 7.85 4.67 13.71
1/9/2023 9:45:00 PM 1.63 34.934 0.334 7.85 4.43 13.72
1/9/2023 10:00:00 PM 1.6 34.88 0.334 7.85 4.43 13.73
1/9/2023 10:15:00 PM 1.57 34.826 0.334 7.84 4.22 13.74
1/9/2023 10:30:00 PM 1.55 34.79 0.334 7.84 4.9 13.75
1/9/2023 10:45:00 PM 1.52 34.736 0.334 7.84 4.44 13.76
1/9/2023 11:00:00 PM 1.5 34.7 0.334 7.84 4.4 13.77
1/9/2023 11:15:00 PM 1.47 34.646 0.334 7.83 4.74 13.78
1/9/2023 11:30:00 PM 1.45 34.61 0.334 7.83 4.18 13.79
1/9/2023 11:45:00 PM 1.43 34.574 0.334 7.83 4.73 13.8
1/10/2023 12:00:00 AM 1.41 34.538 0.334 7.83 4.91 13.82
1/10/2023 12:15:00 AM 1.39 34.502 0.334 7.83 4.57 13.82
1/10/2023 12:30:00 AM 1.37 34.466 0.334 7.83 4.57 13.83
1/10/2023 12:45:00 AM 1.35 34.43 0.334 7.82 4.01 13.84
1/10/2023 1:00:00 AM 1.33 34.394 0.334 7.83 4 13.85
1/10/2023 1:15:00 AM 1.32 34.376 0.334 7.82 4.01 13.85
1/10/2023 1:30:00 AM 1.32 34.376 0.334 7.83 4.3 13.85
1/10/2023 1:45:00 AM 1.31 34.358 0.334 7.83 4.02 13.85
1/10/2023 2:00:00 AM 1.31 34.358 0.334 7.82 4.49 13.85
1/10/2023 2:15:00 AM 1.31 34.358 0.334 7.83 4.18 13.85
1/10/2023 2:30:00 AM 1.31 34.358 0.335 7.83 4.17 13.86
1/10/2023 2:45:00 AM 1.31 34.358 0.335 7.83 4.24 13.86
1/10/2023 3:00:00 AM 1.31 34.358 0.336 7.82 4.42 13.86
1/10/2023 3:15:00 AM 1.3 34.34 0.336 7.82 4.2 13.86
1/10/2023 3:30:00 AM 1.3 34.34 0.336 7.83 4.06 13.86
1/10/2023 3:45:00 AM 1.3 34.34 0.336 7.83 3.58 13.86
1/10/2023 4:00:00 AM 1.3 34.34 0.336 7.82 4.02 13.86
1/10/2023 4:15:00 AM 1.3 34.34 0.337 7.82 4.27 13.86
1/10/2023 4:30:00 AM 1.29 34.322 0.337 7.82 3.88 13.86
1/10/2023 4:45:00 AM 1.29 34.322 0.337 7.83 4.32 13.86
1/10/2023 5:00:00 AM 1.29 34.322 0.336 7.82 4.22 13.86
1/10/2023 5:15:00 AM 1.29 34.322 0.336 7.82 4.32 13.86
1/10/2023 5:30:00 AM 1.29 34.322 0.336 7.83 4.03 13.87
1/10/2023 5:45:00 AM 1.29 34.322 0.336 7.82 4.14 13.87
1/10/2023 6:00:00 AM 1.29 34.322 0.336 7.83 5.96 13.87
1/10/2023 6:15:00 AM 1.29 34.322 0.335 7.82 4.83 13.87
1/10/2023 6:30:00 AM 1.29 34.322 0.335 7.83 4.08 13.87
1/10/2023 6:45:00 AM 1.29 34.322 0.335 7.83 3.8 13.87
1/10/2023 7:00:00 AM 1.29 34.322 0.336 7.82 3.93 13.87
1/10/2023 7:15:00 AM 1.29 34.322 0.336 7.83 4.39 13.87
1/10/2023 7:30:00 AM 1.29 34.322 0.336 7.82 4.19 13.87
1/10/2023 7:45:00 AM 1.29 34.322 0.336 7.82 4.23 13.87
1/10/2023 8:00:00 AM 1.3 34.34 0.336 7.82 4.08 13.87
1/10/2023 8:15:00 AM 1.3 34.34 0.336 7.83 4.02 13.88
1/10/2023 8:30:00 AM 1.31 34.358 0.337 7.83 4.22 13.9
1/10/2023 8:45:00 AM 1.32 34.376 0.337 7.83 4.05 13.93
1/10/2023 9:00:00 AM 1.33 34.394 0.337 7.85 3.93 13.97
1/10/2023 9:15:00 AM 1.35 34.43 0.337 7.86 3.93 14.04
1/10/2023 9:30:00 AM 1.38 34.484 0.337 7.88 3.95 14.12
1/10/2023 9:45:00 AM 1.4 34.52 0.338 7.9 3.71 14.18
1/10/2023 10:00:00 AM 1.42 34.556 0.338 7.9 3.83 14.23
1/10/2023 10:15:00 AM 1.44 34.592 0.338 7.92 4.27 14.27
1/10/2023 10:30:00 AM 1.45 34.61 0.338 7.94 3.95 14.3
1/10/2023 10:45:00 AM 1.47 34.646 0.338 7.94 3.97 14.32
1/10/2023 11:00:00 AM 1.49 34.682 0.338 7.96 4.09 14.35
1/10/2023 11:15:00 AM 1.53 34.754 0.337 7.97 3.63 14.4
1/10/2023 11:30:00 AM 1.56 34.808 0.337 8 3.98 14.45
1/10/2023 11:45:00 AM 1.59 34.862 0.337 8.01 4.34 14.47
1/10/2023 12:00:00 PM 1.6 34.88 0.336 8.02 4.1 14.47
1/10/2023 12:15:00 PM 1.62 34.916 0.336 8.03 3.99 14.46
1/10/2023 12:30:00 PM 1.63 34.934 0.336 8.03 3.88 14.45
1/10/2023 12:45:00 PM 1.64 34.952 0.336 8.03 3.59 14.45
1/10/2023 1:00:00 PM 1.65 34.97 0.336 8.04 4.31 14.43
1/10/2023 1:15:00 PM 1.67 35.006 0.336 8.04 3.45 14.43
1/10/2023 1:30:00 PM 1.69 35.042 0.336 8.05 3.94 14.43
1/10/2023 1:45:00 PM 1.71 35.078 0.336 8.06 4.06 14.44
1/10/2023 2:00:00 PM 1.73 35.114 0.336 8.06 3.85 14.44
1/10/2023 2:15:00 PM 1.75 35.15 0.336 8.07 3.61 14.44
1/10/2023 2:30:00 PM 1.77 35.186 0.336 8.08 4.33 14.43
1/10/2023 2:45:00 PM 1.79 35.222 0.336 8.09 4.31 14.41
1/10/2023 3:00:00 PM 1.81 35.258 0.336 8.08 4.14 14.38
1/10/2023 3:15:00 PM 1.83 35.294 0.337 8.07 3.71 14.35
1/10/2023 3:30:00 PM 1.85 35.33 0.337 8.08 3.55 14.33
1/10/2023 3:45:00 PM 1.87 35.366 0.337 8.08 4 14.3
1/10/2023 4:00:00 PM 1.88 35.384 0.337 8.06 3.93 14.24
1/10/2023 4:15:00 PM 1.88 35.384 0.337 8.05 4.79 14.17
1/10/2023 4:30:00 PM 1.88 35.384 0.337 8.03 3.95 14.1
1/10/2023 4:45:00 PM 1.88 35.384 0.337 8.01 4.65 14.03
1/10/2023 5:00:00 PM 1.88 35.384 0.337 7.99 4.3 13.96
1/10/2023 5:15:00 PM 1.87 35.366 0.337 7.97 4.31 13.91
1/10/2023 5:30:00 PM 1.87 35.366 0.337 7.96 3.88 13.87
1/10/2023 5:45:00 PM 1.86 35.348 0.337 7.94 4.71 13.83
1/10/2023 6:00:00 PM 1.86 35.348 0.337 7.93 4.56 13.81
1/10/2023 6:15:00 PM 1.86 35.348 0.337 7.92 4.18 13.78
1/10/2023 6:30:00 PM 1.86 35.348 0.337 7.92 4.07 13.77
1/10/2023 6:45:00 PM 1.85 35.33 0.337 7.9 4.08 13.76
1/10/2023 7:00:00 PM 1.85 35.33 0.337 7.9 3.94 13.75
1/10/2023 7:15:00 PM 1.84 35.312 0.337 7.9 4.04 13.74
1/10/2023 7:30:00 PM 1.83 35.294 0.337 7.9 3.94 13.73
1/10/2023 7:45:00 PM 1.83 35.294 0.337 7.88 4.46 13.73
1/10/2023 8:00:00 PM 1.82 35.276 0.337 7.88 4.29 13.73
1/10/2023 8:15:00 PM 1.81 35.258 0.337 7.88 4.58 13.72
1/10/2023 8:30:00 PM 1.8 35.24 0.337 7.87 4.39 13.72
1/10/2023 8:45:00 PM 1.79 35.222 0.337 7.87 4.06 13.72
1/10/2023 9:00:00 PM 1.79 35.222 0.337 7.87 3.99 13.71
1/10/2023 9:15:00 PM 1.78 35.204 0.338 7.87 4.57 13.71
1/10/2023 9:30:00 PM 1.77 35.186 0.338 7.86 5.58 13.71
1/10/2023 9:45:00 PM 1.76 35.168 0.339 7.86 4.72 13.71
1/10/2023 10:00:00 PM 1.75 35.15 0.339 7.85 4.8 13.72
1/10/2023 10:15:00 PM 1.74 35.132 0.339 7.85 4.84 13.72
1/10/2023 10:30:00 PM 1.73 35.114 0.339 7.85 4.6 13.72
1/10/2023 10:45:00 PM 1.72 35.096 0.339 7.85 5.05 13.72
1/10/2023 11:00:00 PM 1.7 35.06 0.339 7.84 4.78 13.73
1/10/2023 11:15:00 PM 1.69 35.042 0.339 7.85 4.05 13.74
1/10/2023 11:30:00 PM 1.67 35.006 0.339 7.85 4.6 13.74
1/10/2023 11:45:00 PM 1.67 35.006 0.338 7.84 4.48 13.74
1/11/2023 12:00:00 AM 1.65 34.97 0.338 7.84 4.34 13.75
1/11/2023 12:15:00 AM 1.64 34.952 0.338 7.84 4.26 13.75
1/11/2023 12:30:00 AM 1.63 34.934 0.338 7.84 4.11 13.76
1/11/2023 12:45:00 AM 1.61 34.898 0.338 7.84 3.91 13.77
1/11/2023 1:00:00 AM 1.6 34.88 0.339 7.84 4.01 13.77
1/11/2023 1:15:00 AM 1.58 34.844 0.339 7.84 4.04 13.77
1/11/2023 1:30:00 AM 1.57 34.826 0.339 7.84 4.27 13.78
1/11/2023 1:45:00 AM 1.56 34.808 0.339 7.84 4.2 13.78
1/11/2023 2:00:00 AM 1.55 34.79 0.339 7.84 4.46 13.79
1/11/2023 2:15:00 AM 1.54 34.772 0.339 7.84 3.98 13.79
1/11/2023 2:30:00 AM 1.52 34.736 0.339 7.84 4.14 13.8
1/11/2023 2:45:00 AM 1.51 34.718 0.339 7.84 3.83 13.81
1/11/2023 3:00:00 AM 1.49 34.682 0.339 7.84 4.1 13.82
1/11/2023 3:15:00 AM 1.47 34.646 0.34 7.83 3.75 13.82
1/11/2023 3:30:00 AM 1.46 34.628 0.34 7.83 4.06 13.83
1/11/2023 3:45:00 AM 1.44 34.592 0.341 7.84 3.39 13.83
1/11/2023 4:00:00 AM 1.43 34.574 0.341 7.84 4.17 13.84
1/11/2023 4:15:00 AM 1.41 34.538 0.341 7.83 3.79 13.84
1/11/2023 4:30:00 AM 1.4 34.52 0.342 7.83 4.04 13.85
1/11/2023 4:45:00 AM 1.39 34.502 0.342 7.84 3.93 13.85
1/11/2023 5:00:00 AM 1.38 34.484 0.342 7.84 4.13 13.85
1/11/2023 5:15:00 AM 1.37 34.466 0.342 7.83 4.25 13.86
1/11/2023 5:30:00 AM 1.36 34.448 0.342 7.84 3.97 13.86
1/11/2023 5:45:00 AM 1.35 34.43 0.342 7.83 3.93 13.87
1/11/2023 6:00:00 AM 1.34 34.412 0.342 7.84 4.05 13.87
1/11/2023 6:15:00 AM 1.33 34.394 0.342 7.84 4.37 13.88
1/11/2023 6:30:00 AM 1.32 34.376 0.342 7.83 4.37 13.88
1/11/2023 6:45:00 AM 1.31 34.358 0.342 7.84 4.17 13.88
1/11/2023 7:00:00 AM 1.3 34.34 0.342 7.84 3.73 13.9
1/11/2023 7:15:00 AM 1.29 34.322 0.342 7.83 3.56 13.9
1/11/2023 7:30:00 AM 1.28 34.304 0.341 7.84 3.57 13.9
1/11/2023 7:45:00 AM 1.27 34.286 0.341 7.84 3.57 13.91
1/11/2023 8:00:00 AM 1.27 34.286 0.341 7.84 4.06 13.93
1/11/2023 8:15:00 AM 1.27 34.286 0.341 7.85 4.02 13.98
1/11/2023 8:30:00 AM 1.28 34.304 0.341 7.86 3.81 14.06
1/11/2023 8:45:00 AM 1.3 34.34 0.341 7.88 3.66 14.17
1/11/2023 9:00:00 AM 1.32 34.376 0.341 7.89 3.63 14.28
1/11/2023 9:15:00 AM 1.34 34.412 0.341 7.93 3.72 14.39
1/11/2023 9:30:00 AM 1.37 34.466 0.341 7.96 3.49 14.47
1/11/2023 9:45:00 AM 1.42 34.556 0.341 7.97 3.92 14.55
1/11/2023 10:00:00 AM 1.47 34.646 0.341 8 4.01 14.6
1/11/2023 10:15:00 AM 1.54 34.772 0.341 8.03 3.6 14.66
1/11/2023 10:30:00 AM 1.61 34.898 0.341 8.05 3.85 14.7
1/11/2023 10:45:00 AM 1.69 35.042 0.341 8.08 3.73 14.75
1/11/2023 11:00:00 AM 1.8 35.24 0.341 8.1 3.19 14.78
1/11/2023 11:15:00 AM 1.88 35.384 0.341 8.12 3.73 14.79
1/11/2023 11:30:00 AM 1.97 35.546 0.34 8.14 3.79 14.79
1/11/2023 11:45:00 AM 2.08 35.744 0.34 8.16 3.68 14.79
1/11/2023 12:00:00 PM 2.16 35.888 0.339 8.17 3.25 14.79
1/11/2023 12:15:00 PM 2.24 36.032 0.339 8.19 3.8 14.78
1/11/2023 12:30:00 PM 2.29 36.122 0.339 8.2 3.61 14.77
1/11/2023 12:45:00 PM 2.37 36.266 0.338 8.22 3.93 14.76
1/11/2023 1:00:00 PM 2.46 36.428 0.338 8.24 3.67 14.75
1/11/2023 1:15:00 PM 2.52 36.536 0.338 8.24 3.31 14.74
1/11/2023 1:30:00 PM 2.59 36.662 0.338 8.26 3.89 14.72
1/11/2023 1:45:00 PM 2.66 36.788 0.337 8.28 3.18 14.7
1/11/2023 2:00:00 PM 2.72 36.896 0.337 8.29 3.63 14.68
1/11/2023 2:15:00 PM 2.74 36.932 0.337 8.3 3.35 14.65
1/11/2023 2:30:00 PM 2.77 36.986 0.337 8.31 3.09 14.62
1/11/2023 2:45:00 PM 2.82 37.076 0.337 8.33 3.52 14.6
1/11/2023 3:00:00 PM 2.84 37.112 0.337 8.33 3.64 14.57
1/11/2023 3:15:00 PM 2.86 37.148 0.337 8.34 3.54 14.53
1/11/2023 3:30:00 PM 2.87 37.166 0.337 8.34 4.07 14.48
1/11/2023 3:45:00 PM 2.87 37.166 0.337 8.33 3.42 14.41
1/11/2023 4:00:00 PM 2.87 37.166 0.338 8.31 3.88 14.32
1/11/2023 4:15:00 PM 2.88 37.184 0.338 8.29 3.72 14.21
1/11/2023 4:30:00 PM 2.88 37.184 0.339 8.27 4.15 14.12
1/11/2023 4:45:00 PM 2.88 37.184 0.339 8.24 4.24 14.02
1/11/2023 5:00:00 PM 2.88 37.184 0.339 8.2 3.73 13.91
1/11/2023 5:15:00 PM 2.88 37.184 0.339 8.16 5.47 13.79
1/11/2023 5:30:00 PM 2.88 37.184 0.339 8.13 4.33 13.69
1/11/2023 5:45:00 PM 2.87 37.166 0.339 8.09 5.7 13.6
1/11/2023 6:00:00 PM 2.84 37.112 0.339 8.07 9.47 13.53
1/11/2023 6:15:00 PM 2.81 37.058 0.339 8.03 9.87 13.48
1/11/2023 6:30:00 PM 2.8 37.04 0.339 8.02 11.83 13.44
1/11/2023 6:45:00 PM 2.8 37.04 0.339 8 10.62 13.42
1/11/2023 7:00:00 PM 2.79 37.022 0.339 7.99 9.97 13.4
1/11/2023 7:15:00 PM 2.75 36.95 0.339 7.96 8.64 13.38
1/11/2023 7:30:00 PM 2.71 36.878 0.339 7.96 8.09 13.38
1/11/2023 7:45:00 PM 2.67 36.806 0.339 7.95 6.28 13.37
1/11/2023 8:00:00 PM 2.64 36.752 0.339 7.94 6.53 13.36
1/11/2023 8:15:00 PM 2.61 36.698 0.339 7.93 5.92 13.37
1/11/2023 8:30:00 PM 2.57 36.626 0.339 7.92 5.62 13.37
1/11/2023 8:45:00 PM 2.53 36.554 0.339 7.92 5.82 13.38
1/11/2023 9:00:00 PM 2.49 36.482 0.34 7.9 5.03 13.38
1/11/2023 9:15:00 PM 2.44 36.392 0.34 7.9 5.13 13.39
1/11/2023 9:30:00 PM 2.41 36.338 0.34 7.89 4.67 13.4
1/11/2023 9:45:00 PM 2.37 36.266 0.341 7.89 5.23 13.41
1/11/2023 10:00:00 PM 2.32 36.176 0.341 7.88 6.36 13.41
1/11/2023 10:15:00 PM 2.27 36.086 0.342 7.88 4.78 13.43
1/11/2023 10:30:00 PM 2.22 35.996 0.342 7.87 5.65 13.45
1/11/2023 10:45:00 PM 2.18 35.924 0.342 7.87 5.81 13.46
1/11/2023 11:00:00 PM 2.14 35.852 0.342 7.87 5.29 13.47
1/11/2023 11:15:00 PM 2.09 35.762 0.342 7.85 5.63 13.49
1/11/2023 11:30:00 PM 2.03 35.654 0.342 7.85 4.88 13.51
1/11/2023 11:45:00 PM 1.99 35.582 0.342 7.85 6.27 13.52
1/12/2023 12:00:00 AM 1.94 35.492 0.341 7.85 4.64 13.54
1/12/2023 12:15:00 AM 1.92 35.456 0.341 7.85 4.25 13.55
1/12/2023 12:30:00 AM 1.9 35.42 0.341 7.85 4.16 13.56
1/12/2023 12:45:00 AM 1.89 35.402 0.341 7.83 4.71 13.58
1/12/2023 1:00:00 AM 1.89 35.402 0.341 7.85 4.12 13.58
1/12/2023 1:15:00 AM 1.88 35.384 0.341 7.84 3.67 13.59
1/12/2023 1:30:00 AM 1.87 35.366 0.341 7.84 4.42 13.6
1/12/2023 1:45:00 AM 1.86 35.348 0.341 7.83 3.93 13.6
1/12/2023 2:00:00 AM 1.85 35.33 0.341 7.84 4.27 13.61
1/12/2023 2:15:00 AM 1.85 35.33 0.341 7.84 4.03 13.61
1/12/2023 2:30:00 AM 1.84 35.312 0.341 7.84 3.62 13.62
1/12/2023 2:45:00 AM 1.82 35.276 0.341 7.84 3.98 13.63
1/12/2023 3:00:00 AM 1.82 35.276 0.341 7.83 3.75 13.63
1/12/2023 3:15:00 AM 1.81 35.258 0.341 7.84 3.65 13.64
1/12/2023 3:30:00 AM 1.81 35.258 0.341 7.83 3.42 13.64
1/12/2023 3:45:00 AM 1.8 35.24 0.342 7.84 4.21 13.64
1/12/2023 4:00:00 AM 1.8 35.24 0.342 7.83 4.02 13.65
1/12/2023 4:15:00 AM 1.8 35.24 0.343 7.84 4.07 13.64
1/12/2023 4:30:00 AM 1.79 35.222 0.343 7.83 3.83 13.64
1/12/2023 4:45:00 AM 1.79 35.222 0.344 7.84 3.99 13.64
1/12/2023 5:00:00 AM 1.79 35.222 0.344 7.84 3.64 13.64
1/12/2023 5:15:00 AM 1.79 35.222 0.344 7.83 3.99 13.64
1/12/2023 5:30:00 AM 1.8 35.24 0.344 7.84 3.31 13.64
1/12/2023 5:45:00 AM 1.8 35.24 0.344 7.84 3.54 13.63
1/12/2023 6:00:00 AM 1.81 35.258 0.344 7.84 3.65 13.63
1/12/2023 6:15:00 AM 1.81 35.258 0.344 7.84 3.74 13.63
1/12/2023 6:30:00 AM 1.82 35.276 0.343 7.84 3.69 13.62
1/12/2023 6:45:00 AM 1.82 35.276 0.343 7.84 3.94 13.62
1/12/2023 7:00:00 AM 1.83 35.294 0.343 7.84 3.53 13.62
1/12/2023 7:15:00 AM 1.84 35.312 0.342 7.84 3.56 13.61
1/12/2023 7:30:00 AM 1.84 35.312 0.342 7.83 3.91 13.6
1/12/2023 7:45:00 AM 1.85 35.33 0.342 7.84 3.92 13.6
1/12/2023 8:00:00 AM 1.86 35.348 0.342 7.85 3.88 13.61
1/12/2023 8:15:00 AM 1.88 35.384 0.343 7.83 3.37 13.62
1/12/2023 8:30:00 AM 1.89 35.402 0.343 7.85 3.27 13.64
1/12/2023 8:45:00 AM 1.92 35.456 0.343 7.86 3.46 13.7
1/12/2023 9:00:00 AM 1.93 35.474 0.343 7.87 3.35 13.73
1/12/2023 9:15:00 AM 1.96 35.528 0.343 7.89 3.83 13.79
1/12/2023 9:30:00 AM 2 35.6 0.343 7.89 3.24 13.88
1/12/2023 9:45:00 AM 2.04 35.672 0.343 7.93 3.4 13.97
1/12/2023 10:00:00 AM 2.07 35.726 0.343 7.94 3.72 14.03
1/12/2023 10:15:00 AM 2.09 35.762 0.344 7.96 3.25 14.04
1/12/2023 10:30:00 AM 2.11 35.798 0.344 7.97 3.89 14.06
1/12/2023 10:45:00 AM 2.14 35.852 0.344 7.98 3.25 14.08
1/12/2023 11:00:00 AM 2.17 35.906 0.344 8 3.18 14.13
1/12/2023 11:15:00 AM 2.22 35.996 0.344 8.02 3.05 14.19
1/12/2023 11:30:00 AM 2.25 36.05 0.344 8.04 2.98 14.22
1/12/2023 11:45:00 AM 2.29 36.122 0.344 8.05 3.56 14.24
1/12/2023 12:00:00 PM 2.31 36.158 0.344 8.07 3 14.25
1/12/2023 12:15:00 PM 2.38 36.284 0.32 8.19 6.04 13.8
1/12/2023 12:30:00 PM 2.38 36.284 0.317 8.18 3.38 13.87
1/12/2023 12:45:00 PM 2.4 36.32 0.315 8.18 2.9 13.86
1/12/2023 1:00:00 PM 2.41 36.338 0.315 8.19 3.35 13.86
1/12/2023 1:15:00 PM 2.43 36.374 0.313 8.2 3.3 13.85
1/12/2023 1:30:00 PM 2.46 36.428 0.313 8.2 3.11 13.84
1/12/2023 1:45:00 PM 2.5 36.5 0.311 8.22 3.35 13.85
1/12/2023 2:00:00 PM 2.53 36.554 0.311 8.23 3.11 13.87
1/12/2023 2:15:00 PM 2.56 36.608 0.313 8.24 2.76 13.85
1/12/2023 2:30:00 PM 2.58 36.644 0.314 8.24 3.12 13.82
1/12/2023 2:45:00 PM 2.59 36.662 0.313 8.24 2.8 13.79
1/12/2023 3:00:00 PM 2.61 36.698 0.313 8.24 2.99 13.74
1/12/2023 3:15:00 PM 2.63 36.734 0.313 8.22 3.26 13.67
1/12/2023 3:30:00 PM 2.64 36.752 0.312 8.21 3.46 13.59
1/12/2023 3:45:00 PM 2.66 36.788 0.313 8.19 4.07 13.52
1/12/2023 4:00:00 PM 2.67 36.806 0.315 8.17 4.48 13.45
1/12/2023 4:15:00 PM 2.69 36.842 0.314 8.16 4.7 13.38
1/12/2023 4:30:00 PM 2.7 36.86 0.311 8.14 5.59 13.32
1/12/2023 4:45:00 PM 2.71 36.878 0.31 8.12 7.06 13.24
1/12/2023 5:00:00 PM 2.72 36.896 0.31 8.1 7.27 13.19
1/12/2023 5:15:00 PM 2.73 36.914 0.309 8.09 6.28 13.14
1/12/2023 5:30:00 PM 2.74 36.932 0.311 8.07 6.47 13.09
1/12/2023 5:45:00 PM 2.75 36.95 0.311 8.06 6.18 13.04
1/12/2023 6:00:00 PM 2.77 36.986 0.311 8.05 6.04 13.01
1/12/2023 6:15:00 PM 2.79 37.022 0.31 8.04 5.66 12.99
1/12/2023 6:30:00 PM 2.81 37.058 0.309 8.04 7.04 12.96
1/12/2023 6:45:00 PM 2.82 37.076 0.31 8.03 6.69 12.94
1/12/2023 7:00:00 PM 2.85 37.13 0.308 8.03 6.83 12.92
1/12/2023 7:15:00 PM 2.87 37.166 0.309 8.02 6.27 12.9
1/12/2023 7:30:00 PM 2.88 37.184 0.309 8.02 6.26 12.89
1/12/2023 7:45:00 PM 2.91 37.238 0.308 8.01 7.23 12.87
1/12/2023 8:00:00 PM 2.93 37.274 0.308 8.01 6.94 12.86
1/12/2023 8:15:00 PM 2.95 37.31 0.308 8 8.75 12.85
1/12/2023 8:30:00 PM 2.96 37.328 0.309 8 7.96 12.83
1/12/2023 8:45:00 PM 2.97 37.346 0.312 7.99 9.41 12.82
1/12/2023 9:00:00 PM 2.97 37.346 0.316 7.99 9.64 12.81
1/12/2023 9:15:00 PM 2.97 37.346 0.319 7.98 11.18 12.79
1/12/2023 9:30:00 PM 2.98 37.364 0.321 7.98 10.88 12.78
1/12/2023 9:45:00 PM 2.99 37.382 0.321 7.98 11.3 12.78
1/12/2023 10:00:00 PM 3 37.4 0.32 7.98 10.72 12.77
1/12/2023 10:15:00 PM 3.01 37.418 0.319 7.97 12.26 12.76
1/12/2023 10:30:00 PM 3.02 37.436 0.317 7.97 10.45 12.75
1/12/2023 10:45:00 PM 3.03 37.454 0.316 7.97 9.9 12.75
1/12/2023 11:00:00 PM 3.04 37.472 0.313 7.97 11.14 12.74
1/12/2023 11:15:00 PM 3.04 37.472 0.312 7.97 9.39 12.74
1/12/2023 11:30:00 PM 3.04 37.472 0.31 7.96 10.93 12.74
1/12/2023 11:45:00 PM 3.05 37.49 0.309 7.96 10.23 12.73
1/13/2023 12:00:00 AM 3.06 37.508 0.307 7.96 10.43 12.72
1/13/2023 12:15:00 AM 3.07 37.526 0.306 7.96 10.1 12.72
1/13/2023 12:30:00 AM 3.08 37.544 0.305 7.96 9.24 12.72
1/13/2023 12:45:00 AM 3.09 37.562 0.304 7.95 9.19 12.71
1/13/2023 1:00:00 AM 3.11 37.598 0.303 7.95 11.02 12.7
1/13/2023 1:15:00 AM 3.12 37.616 0.301 7.95 11.64 12.7
1/13/2023 1:30:00 AM 3.13 37.634 0.3 7.95 11.84 12.7
1/13/2023 1:45:00 AM 3.14 37.652 0.296 7.94 16.73 12.7
1/13/2023 2:00:00 AM 3.14 37.652 0.294 7.94 13.08 12.7
1/13/2023 2:15:00 AM 3.16 37.688 0.293 7.94 15.11 12.7
1/13/2023 2:30:00 AM 3.16 37.688 0.292 7.94 16.54 12.7
1/13/2023 2:45:00 AM 3.16 37.688 0.291 7.94 17.04 12.7
1/13/2023 3:00:00 AM 3.16 37.688 0.289 7.94 16.95 12.7
1/13/2023 3:15:00 AM 3.16 37.688 0.288 7.94 18.34 12.71
1/13/2023 3:30:00 AM 3.16 37.688 0.289 7.94 21.32 12.71
1/13/2023 3:45:00 AM 3.16 37.688 0.289 7.93 24.98 12.71
1/13/2023 4:00:00 AM 3.15 37.67 0.289 7.93 26.18 12.71
1/13/2023 4:15:00 AM 3.15 37.67 0.291 7.93 25.91 12.71
1/13/2023 4:30:00 AM 3.14 37.652 0.291 7.93 29.18 12.72
1/13/2023 4:45:00 AM 3.14 37.652 0.292 7.93 36.11 12.72
1/13/2023 5:00:00 AM 3.13 37.634 0.294 7.92 38.64 12.72
1/13/2023 5:15:00 AM 3.11 37.598 0.296 7.92 43.06 12.73
1/13/2023 5:30:00 AM 3.09 37.562 0.295 7.92 51.95 12.75
1/13/2023 5:45:00 AM 3.06 37.508 0.294 7.91 55.99 12.77
1/13/2023 6:00:00 AM 3.03 37.454 0.292 7.91 72.61 12.78
1/13/2023 6:15:00 AM 2.99 37.382 0.289 7.9 84.96 12.8
1/13/2023 6:30:00 AM 2.93 37.274 0.287 7.89 102.56 12.81
1/13/2023 6:45:00 AM 2.86 37.148 0.287 7.88 118.4 12.84
1/13/2023 7:00:00 AM 2.81 37.058 0.286 7.87 137.38 12.86
1/13/2023 7:15:00 AM 2.78 37.004 0.282 7.87 157.14 12.88
1/13/2023 7:30:00 AM 2.74 36.932 0.278 7.92 178.72 12.9
1/13/2023 7:45:00 AM 2.7 36.86 0.275 7.92 184.45 12.92
1/13/2023 8:00:00 AM 2.65 36.77 0.275 7.91 193.34 12.94
1/13/2023 8:15:00 AM 2.61 36.698 0.275 7.91 191.39 12.96
1/13/2023 8:30:00 AM 2.58 36.644 0.275 7.91 192.61 12.99
1/13/2023 8:45:00 AM 2.55 36.59 0.274 7.92 192.83 13
1/13/2023 9:00:00 AM 2.49 36.482 0.274 7.92 193.25 13.02
1/13/2023 9:15:00 AM 2.48 36.464 0.273 7.92 185.23 13.04
1/13/2023 9:30:00 AM 2.46 36.428 0.272 7.91 180.47 13.06
1/13/2023 9:45:00 AM 2.44 36.392 0.272 7.91 177.41 13.08
1/13/2023 10:00:00 AM 2.43 36.374 0.271 7.91 163.03 13.1
1/13/2023 10:15:00 AM 2.43 36.374 0.268 7.91 153.06 13.11
1/13/2023 10:30:00 AM 2.44 36.392 0.267 7.91 145.71 13.13
1/13/2023 10:45:00 AM 2.46 36.428 0.266 7.91 135.58 13.14
1/13/2023 11:00:00 AM 2.48 36.464 0.264 7.92 121.3 13.15
1/13/2023 11:15:00 AM 2.48 36.464 0.263 7.91 118.06 13.15
1/13/2023 11:30:00 AM 2.49 36.482 0.262 7.91 108.57 13.16
1/13/2023 11:45:00 AM 2.49 36.482 0.262 7.91 102.54 13.16
1/13/2023 12:00:00 PM 2.48 36.464 0.261 7.91 96.28 13.17
1/13/2023 12:15:00 PM 2.47 36.446 0.261 7.92 92.15 13.17
1/13/2023 12:30:00 PM 2.46 36.428 0.26 7.91 90.84 13.18
1/13/2023 12:45:00 PM 2.43 36.374 0.26 7.92 86.28 13.19
1/13/2023 1:00:00 PM 2.41 36.338 0.26 7.91 82.09 13.2
1/13/2023 1:15:00 PM 2.39 36.302 0.26 7.92 78.32 13.22
1/13/2023 1:30:00 PM 2.37 36.266 0.26 7.92 71.64 13.23
1/13/2023 1:45:00 PM 2.35 36.23 0.26 7.93 67.27 13.24
1/13/2023 2:00:00 PM 2.33 36.194 0.26 7.92 62.52 13.25
1/13/2023 2:15:00 PM 2.3 36.14 0.26 7.93 59.73 13.26
1/13/2023 2:30:00 PM 2.28 36.104 0.259 7.93 57.47 13.28
1/13/2023 2:45:00 PM 2.25 36.05 0.259 7.94 56.72 13.28
1/13/2023 3:00:00 PM 2.23 36.014 0.259 7.94 57.59 13.29
1/13/2023 3:15:00 PM 2.21 35.978 0.259 7.94 58.9 13.29
1/13/2023 3:30:00 PM 2.19 35.942 0.259 7.94 50.26 13.3
1/13/2023 3:45:00 PM 2.16 35.888 0.259 7.94 51.24 13.3
1/13/2023 4:00:00 PM 2.13 35.834 0.259 7.93 46.54 13.31
1/13/2023 4:15:00 PM 2.1 35.78 0.259 7.93 42.49 13.31
1/13/2023 4:30:00 PM 2.07 35.726 0.259 7.93 47.48 13.32
1/13/2023 4:45:00 PM 2.04 35.672 0.259 7.93 49.38 13.32
1/13/2023 5:00:00 PM 2 35.6 0.259 7.93 34.4 13.32
1/13/2023 5:15:00 PM 1.96 35.528 0.259 7.92 42.71 13.33
1/13/2023 5:30:00 PM 1.93 35.474 0.259 7.92 38.14 13.34
1/13/2023 5:45:00 PM 1.89 35.402 0.26 7.92 37.04 13.35
1/13/2023 6:00:00 PM 1.86 35.348 0.26 7.92 37.03 13.36
1/13/2023 6:15:00 PM 1.82 35.276 0.26 7.91 33.91 13.36
1/13/2023 6:30:00 PM 1.79 35.222 0.26 7.91 32.22 13.37
1/13/2023 6:45:00 PM 1.74 35.132 0.261 7.91 33.65 13.38
1/13/2023 7:00:00 PM 1.7 35.06 0.262 7.91 36.53 13.39
1/13/2023 7:15:00 PM 1.67 35.006 0.262 7.91 29.88 13.4
1/13/2023 7:30:00 PM 1.64 34.952 0.262 7.91 29.44 13.42
1/13/2023 7:45:00 PM 1.6 34.88 0.263 7.9 29.95 13.43
1/13/2023 8:00:00 PM 1.56 34.808 0.263 7.9 28.73 13.44
1/13/2023 8:15:00 PM 1.53 34.754 0.263 7.9 17.21 13.45
1/13/2023 8:30:00 PM 1.5 34.7 0.263 7.9 26.6 13.47
1/13/2023 8:45:00 PM 1.47 34.646 0.264 7.9 24.57 13.48
1/13/2023 9:00:00 PM 1.42 34.556 0.264 7.9 25.3 13.49
1/13/2023 9:15:00 PM 1.39 34.502 0.264 7.9 22.77 13.51
1/13/2023 9:30:00 PM 1.35 34.43 0.264 7.9 23.41 13.52
1/13/2023 9:45:00 PM 1.32 34.376 0.265 7.9 22.33 13.54
1/13/2023 10:00:00 PM 1.28 34.304 0.265 7.9 23.69 13.55
1/13/2023 10:15:00 PM 1.25 34.25 0.265 7.9 22.07 13.57
1/13/2023 10:30:00 PM 1.22 34.196 0.265 7.9 22.53 13.58
1/13/2023 10:45:00 PM 1.2 34.16 0.266 7.9 21.25 13.59
1/13/2023 11:00:00 PM 1.17 34.106 0.266 7.9 20.82 13.6
1/13/2023 11:15:00 PM 1.14 34.052 0.266 7.9 20.23 13.61
1/13/2023 11:30:00 PM 1.11 33.998 0.266 7.9 18.94 13.62
1/13/2023 11:45:00 PM 1.08 33.944 0.266 7.9 20.53 13.63
1/14/2023 12:00:00 AM 1.04 33.872 0.266 7.9 18.41 13.65
1/14/2023 12:15:00 AM 1 33.8 0.266 7.9 18.77 13.66
1/14/2023 12:30:00 AM 0.98 33.764 0.266 7.9 18.66 13.67
1/14/2023 12:45:00 AM 0.94 33.692 0.267 7.9 18.75 13.68
1/14/2023 1:00:00 AM 0.9 33.62 0.267 7.9 19.36 13.7
1/14/2023 1:15:00 AM 0.85 33.53 0.268 7.9 17.65 13.71
1/14/2023 1:30:00 AM 0.82 33.476 0.268 7.9 17.97 13.72
1/14/2023 1:45:00 AM 0.78 33.404 0.269 7.9 17.85 13.74
1/14/2023 2:00:00 AM 0.73 33.314 0.269 7.9 15.86 13.76
1/14/2023 2:15:00 AM 0.69 33.242 0.27 7.9 16.26 13.77
1/14/2023 2:30:00 AM 0.66 33.188 0.27 7.9 17.37 13.78
1/14/2023 2:45:00 AM 0.64 33.152 0.27 7.9 16.01 13.8
1/14/2023 3:00:00 AM 0.6 33.08 0.27 7.9 16 13.81
1/14/2023 3:15:00 AM 0.58 33.044 0.271 7.9 16.26 13.82
1/14/2023 3:30:00 AM 0.54 32.972 0.271 7.9 15.91 13.83
1/14/2023 3:45:00 AM 0.53 32.954 0.271 7.9 15.52 13.84
1/14/2023 4:00:00 AM 0.5 32.9 0.272 7.9 15.04 13.85
1/14/2023 4:15:00 AM 0.47 32.846 0.272 7.9 16.1 13.86
1/14/2023 4:30:00 AM 0.45 32.81 0.272 7.9 15.65 13.87
1/14/2023 4:45:00 AM 0.42 32.756 0.273 7.9 13.64 13.88
1/14/2023 5:00:00 AM 0.39 32.702 0.273 7.9 14.49 13.9
1/14/2023 5:15:00 AM 0.36 32.648 0.273 7.9 15.26 13.91
1/14/2023 5:30:00 AM 0.33 32.594 0.273 7.9 13.44 13.92
1/14/2023 5:45:00 AM 0.29 32.522 0.273 7.9 14.4 13.93
1/14/2023 6:00:00 AM 0.27 32.486 0.273 7.9 12.85 13.94
1/14/2023 6:15:00 AM 0.25 32.45 0.273 7.9 14.28 13.95
1/14/2023 6:30:00 AM 0.22 32.396 0.274 7.9 13.83 13.96
1/14/2023 6:45:00 AM 0.19 32.342 0.274 7.9 13.49 13.98
1/14/2023 7:00:00 AM 0.15 32.27 0.274 7.9 12.27 13.99
1/14/2023 7:15:00 AM 0.12 32.216 0.274 7.9 11.78 14.01
1/14/2023 7:30:00 AM 0.09 32.162 0.275 7.9 12.4 14.02
1/14/2023 7:45:00 AM 0.06 32.108 0.276 7.9 12.7 14.03
1/14/2023 8:00:00 AM 0.03 32.054 0.276 7.9 12.94 14.05
1/14/2023 8:15:00 AM 0 32 0.276 7.91 11.92 14.08
1/14/2023 8:30:00 AM -0.02 31.964 0.276 7.91 12.1 14.11
1/14/2023 8:45:00 AM -0.04 31.928 0.276 7.92 11.84 14.15
1/14/2023 9:00:00 AM -0.05 31.91 0.276 7.92 12.39 14.19
1/14/2023 9:15:00 AM -0.05 31.91 0.276 7.93 11.31 14.23
1/14/2023 9:30:00 AM -0.05 31.91 0.276 7.94 12.06 14.26
1/14/2023 9:45:00 AM -0.04 31.928 0.276 7.95 11.54 14.3
1/14/2023 10:00:00 AM -0.04 31.928 0.277 7.96 11.45 14.34
1/14/2023 10:15:00 AM -0.04 31.928 0.277 7.97 11.31 14.37
1/14/2023 10:30:00 AM -0.02 31.964 0.277 7.98 10.94 14.4
1/14/2023 10:45:00 AM -0.01 31.982 0.277 7.99 11.02 14.44
1/14/2023 11:00:00 AM 0.03 32.054 0.277 8 12.13 14.47
1/14/2023 11:15:00 AM 0.06 32.108 0.277 8.01 11.16 14.48
1/14/2023 11:30:00 AM 0.09 32.162 0.277 8.02 11.4 14.5
1/14/2023 11:45:00 AM 0.13 32.234 0.278 8.03 10.19 14.52
1/14/2023 12:00:00 PM 0.16 32.288 0.278 8.04 10.92 14.53
1/14/2023 12:15:00 PM 0.18 32.324 0.278 8.05 10.49 14.54
1/14/2023 12:30:00 PM 0.19 32.342 0.279 8.06 10.31 14.54
1/14/2023 12:45:00 PM 0.21 32.378 0.279 8.06 9.62 14.55
1/14/2023 1:00:00 PM 0.24 32.432 0.279 8.07 9 14.55
1/14/2023 1:15:00 PM 0.26 32.468 0.279 8.08 9.59 14.55
1/14/2023 1:30:00 PM 0.28 32.504 0.28 8.09 9.74 14.55
1/14/2023 1:45:00 PM 0.3 32.54 0.28 8.09 9.22 14.55
1/14/2023 2:00:00 PM 0.32 32.576 0.281 8.1 10.1 14.54
1/14/2023 2:15:00 PM 0.35 32.63 0.282 8.1 9.9 14.54
1/14/2023 2:30:00 PM 0.36 32.648 0.283 8.1 9.84 14.52
1/14/2023 2:45:00 PM 0.36 32.648 0.283 8.1 9.55 14.51
1/14/2023 3:00:00 PM 0.36 32.648 0.284 8.1 9.46 14.49
1/14/2023 3:15:00 PM 0.35 32.63 0.284 8.1 9.05 14.48
1/14/2023 3:30:00 PM 0.35 32.63 0.284 8.1 8.94 14.45
1/14/2023 3:45:00 PM 0.36 32.648 0.284 8.09 9.09 14.44
1/14/2023 4:00:00 PM 0.36 32.648 0.284 8.09 9.28 14.43
1/14/2023 4:15:00 PM 0.35 32.63 0.284 8.09 9.21 14.42
1/14/2023 4:30:00 PM 0.34 32.612 0.284 8.08 9.06 14.4
1/14/2023 4:45:00 PM 0.32 32.576 0.284 8.06 9.06 14.36
1/14/2023 5:00:00 PM 0.29 32.522 0.284 8.05 8.36 14.31
1/14/2023 5:15:00 PM 0.25 32.45 0.284 8.03 8.96 14.27
1/14/2023 5:30:00 PM 0.24 32.432 0.284 8.01 8.45 14.24
1/14/2023 5:45:00 PM 0.22 32.396 0.285 8 9.35 14.21
1/14/2023 6:00:00 PM 0.19 32.342 0.284 7.99 8.75 14.19
1/14/2023 6:15:00 PM 0.15 32.27 0.284 7.98 9.31 14.19
1/14/2023 6:30:00 PM 0.12 32.216 0.284 7.97 8.79 14.18
1/14/2023 6:45:00 PM 0.1 32.18 0.284 7.96 8.98 14.17
1/14/2023 7:00:00 PM 0.09 32.162 0.284 7.96 8.5 14.17
1/14/2023 7:15:00 PM 0.07 32.126 0.284 7.95 7.89 14.16
1/14/2023 7:30:00 PM 0.06 32.108 0.284 7.95 7.95 14.16
1/14/2023 7:45:00 PM 0.03 32.054 0.285 7.94 8.66 14.16
1/14/2023 8:00:00 PM 0.01 32.018 0.285 7.94 8.29 14.16
1/14/2023 8:15:00 PM -0.01 31.982 0.286 7.93 7.82 14.16
1/14/2023 8:30:00 PM -0.03 31.946 0.286 7.93 7.7 14.16
1/14/2023 8:45:00 PM -0.05 31.91 0.286 7.92 7.7 14.16
1/14/2023 9:00:00 PM -0.06 31.892 0.287 7.92 8.28 14.17
1/14/2023 9:15:00 PM -0.07 31.874 0.288 7.91 8.3 14.17
1/14/2023 9:30:00 PM -0.07 31.874 0.287 7.91 7.57 14.18
1/14/2023 9:45:00 PM -0.06 31.892 0.288 7.91 7.83 14.18
1/14/2023 10:00:00 PM -0.06 31.892 0.288 7.9 7.12 14.18
1/14/2023 10:15:00 PM -0.05 31.91 0.288 7.9 6.96 14.18
1/14/2023 10:30:00 PM -0.06 31.892 0.288 7.9 7.06 14.18
1/14/2023 10:45:00 PM -0.06 31.892 0.288 7.9 6.7 14.18
1/14/2023 11:00:00 PM -0.06 31.892 0.288 7.9 7.42 14.18
1/14/2023 11:15:00 PM -0.06 31.892 0.288 7.9 7.29 14.18
1/14/2023 11:30:00 PM -0.05 31.91 0.288 7.89 7.51 14.18
1/14/2023 11:45:00 PM -0.05 31.91 0.288 7.89 7.02 14.18
1/15/2023 12:00:00 AM -0.05 31.91 0.288 7.89 7.09 14.17
1/15/2023 12:15:00 AM -0.05 31.91 0.288 7.89 7.48 14.17
1/15/2023 12:30:00 AM -0.05 31.91 0.288 7.89 7 14.17
1/15/2023 12:45:00 AM -0.05 31.91 0.288 7.89 7.53 14.18
1/15/2023 1:00:00 AM -0.05 31.91 0.288 7.89 7.05 14.18
1/15/2023 1:15:00 AM -0.05 31.91 0.288 7.89 6.89 14.18
1/15/2023 1:30:00 AM -0.05 31.91 0.288 7.89 6.95 14.18
1/15/2023 1:45:00 AM -0.05 31.91 0.289 7.88 6.14 14.17
1/15/2023 2:00:00 AM -0.05 31.91 0.289 7.88 6.5 14.18
1/15/2023 2:15:00 AM -0.05 31.91 0.289 7.88 7.18 14.18
1/15/2023 2:30:00 AM -0.05 31.91 0.289 7.88 11.66 14.19
1/15/2023 2:45:00 AM -0.05 31.91 0.289 7.88 7.2 14.18
1/15/2023 3:00:00 AM -0.05 31.91 0.29 7.88 6.98 14.18
1/15/2023 3:15:00 AM -0.05 31.91 0.29 7.88 5.67 14.18
1/15/2023 3:30:00 AM -0.05 31.91 0.291 7.88 6.58 14.18
1/15/2023 3:45:00 AM -0.05 31.91 0.291 7.88 7.2 14.19
1/15/2023 4:00:00 AM -0.04 31.928 0.292 7.87 6.48 14.18
1/15/2023 4:15:00 AM -0.05 31.91 0.292 7.88 7.24 14.19
1/15/2023 4:30:00 AM -0.05 31.91 0.292 7.88 6.97 14.18
1/15/2023 4:45:00 AM -0.04 31.928 0.293 7.87 5.65 14.18
1/15/2023 5:00:00 AM -0.05 31.91 0.293 7.87 6.57 14.18
1/15/2023 5:15:00 AM -0.05 31.91 0.294 7.88 6.18 14.18
1/15/2023 5:30:00 AM -0.05 31.91 0.294 7.88 6.75 14.19
1/15/2023 5:45:00 AM -0.05 31.91 0.295 7.87 6.5 14.18
1/15/2023 6:00:00 AM -0.05 31.91 0.295 7.88 5.99 14.18
1/15/2023 6:15:00 AM -0.05 31.91 0.296 7.88 6.87 14.18
1/15/2023 6:30:00 AM -0.05 31.91 0.296 7.88 5.75 14.19
1/15/2023 6:45:00 AM -0.05 31.91 0.296 7.88 6.22 14.19
1/15/2023 7:00:00 AM -0.05 31.91 0.297 7.88 6.91 14.18
1/15/2023 7:15:00 AM -0.05 31.91 0.297 7.88 6.45 14.19
1/15/2023 7:30:00 AM -0.04 31.928 0.297 7.88 6.49 14.19
1/15/2023 7:45:00 AM -0.05 31.91 0.298 7.88 6.04 14.2
1/15/2023 8:00:00 AM -0.05 31.91 0.298 7.88 6.47 14.21
1/15/2023 8:15:00 AM -0.04 31.928 0.298 7.89 5.61 14.24
1/15/2023 8:30:00 AM -0.04 31.928 0.298 7.89 5.76 14.29
1/15/2023 8:45:00 AM -0.04 31.928 0.298 7.9 5.97 14.34
1/15/2023 9:00:00 AM -0.04 31.928 0.298 7.92 5.81 14.39
1/15/2023 9:15:00 AM -0.03 31.946 0.298 7.93 5.34 14.45
1/15/2023 9:30:00 AM -0.03 31.946 0.299 7.94 5.97 14.51
1/15/2023 9:45:00 AM -0.03 31.946 0.299 7.95 5.66 14.55
1/15/2023 10:00:00 AM -0.03 31.946 0.299 7.96 6.33 14.59
1/15/2023 10:15:00 AM -0.03 31.946 0.299 7.98 6.63 14.63
1/15/2023 10:30:00 AM -0.03 31.946 0.299 7.99 6.22 14.66
1/15/2023 10:45:00 AM -0.01 31.982 0.299 8.01 6.14 14.69
1/15/2023 11:00:00 AM -0.01 31.982 0.299 8.02 6.41 14.71
1/15/2023 11:15:00 AM 0.02 32.036 0.299 8.03 6.39 14.72
1/15/2023 11:30:00 AM 0.06 32.108 0.299 8.04 6.5 14.72
1/15/2023 11:45:00 AM 0.09 32.162 0.299 8.05 7.53 14.72
1/15/2023 12:00:00 PM 0.26 32.468 0.299 8.07 7.14 14.71
1/15/2023 12:15:00 PM 0.25 32.45 0.299 8.07 6.64 14.71
1/15/2023 12:30:00 PM 0.34 32.612 0.299 8.08 6.36 14.71
1/15/2023 12:45:00 PM 0.43 32.774 0.299 8.08 6.78 14.7
1/15/2023 1:00:00 PM 0.51 32.918 0.298 8.08 5.88 14.7
1/15/2023 1:15:00 PM 0.62 33.116 0.298 8.09 6.36 14.68
1/15/2023 1:30:00 PM 0.66 33.188 0.297 8.11 6.13 14.68
1/15/2023 1:45:00 PM 0.69 33.242 0.298 8.12 5.82 14.66
1/15/2023 2:00:00 PM 0.71 33.278 0.299 8.12 6.12 14.64
1/15/2023 2:15:00 PM 0.75 33.35 0.301 8.14 6 14.62
1/15/2023 2:30:00 PM 0.74 33.332 0.302 8.14 6.28 14.6
1/15/2023 2:45:00 PM 0.76 33.368 0.304 8.14 6.41 14.58
1/15/2023 3:00:00 PM 0.76 33.368 0.305 8.15 6.68 14.56
1/15/2023 3:15:00 PM 0.76 33.368 0.306 8.15 6.07 14.55
1/15/2023 3:30:00 PM 0.73 33.314 0.307 8.15 6.22 14.53
1/15/2023 3:45:00 PM 0.69 33.242 0.308 8.14 6.01 14.51
1/15/2023 4:00:00 PM 0.64 33.152 0.308 8.14 5.55 14.48
1/15/2023 4:15:00 PM 0.58 33.044 0.309 8.13 6.38 14.44
1/15/2023 4:30:00 PM 0.51 32.918 0.308 8.12 6.13 14.42
1/15/2023 4:45:00 PM 0.45 32.81 0.308 8.11 6.6 14.39
1/15/2023 5:00:00 PM 0.39 32.702 0.307 8.09 6.4 14.34
1/15/2023 5:15:00 PM 0.35 32.63 0.306 8.07 6.4 14.29
1/15/2023 5:30:00 PM 0.32 32.576 0.305 8.05 6.42 14.26
1/15/2023 5:45:00 PM 0.28 32.504 0.305 8.04 6.16 14.23
1/15/2023 6:00:00 PM 0.23 32.414 0.304 8.02 6.19 14.21
1/15/2023 6:15:00 PM 0.19 32.342 0.304 8.01 6.94 14.2
1/15/2023 6:30:00 PM 0.14 32.252 0.303 8 6.25 14.2
1/15/2023 6:45:00 PM 0.1 32.18 0.303 7.99 6.54 14.19
1/15/2023 7:00:00 PM 0.05 32.09 0.303 7.99 6.51 14.2
1/15/2023 7:15:00 PM 0.01 32.018 0.303 7.98 6.1 14.2
1/15/2023 7:30:00 PM -0.04 31.928 0.303 7.97 6.25 14.21
1/15/2023 7:45:00 PM -0.08 31.856 0.303 7.96 7.13 14.22
1/15/2023 8:00:00 PM -0.07 31.874 0.302 7.95 6.47 14.23
1/15/2023 8:15:00 PM -0.06 31.892 0.303 7.95 6.41 14.25
1/15/2023 8:30:00 PM -0.06 31.892 0.303 7.94 7.11 14.25
1/15/2023 8:45:00 PM -0.06 31.892 0.303 7.94 7.2 14.26
1/15/2023 9:00:00 PM -0.06 31.892 0.304 7.93 7.78 14.27
1/15/2023 9:15:00 PM -0.06 31.892 0.304 7.92 7.06 14.26
1/15/2023 9:30:00 PM -0.06 31.892 0.305 7.92 7.02 14.26
1/15/2023 9:45:00 PM -0.05 31.91 0.305 7.92 7.14 14.26
1/15/2023 10:00:00 PM -0.04 31.928 0.306 7.91 5.95 14.24
1/15/2023 10:15:00 PM -0.03 31.946 0.307 7.9 6.24 14.23
1/15/2023 10:30:00 PM -0.05 31.91 0.306 7.9 6.51 14.24
1/15/2023 10:45:00 PM -0.05 31.91 0.306 7.9 5.81 14.23
1/15/2023 11:00:00 PM -0.04 31.928 0.307 7.89 5.58 14.22
1/15/2023 11:15:00 PM -0.04 31.928 0.307 7.88 6.08 14.21
1/15/2023 11:30:00 PM -0.05 31.91 0.306 7.89 6.39 14.22
1/15/2023 11:45:00 PM -0.05 31.91 0.307 7.88 6.99 14.22
1/16/2023 12:00:00 AM -0.05 31.91 0.307 7.88 5.49 14.21
1/16/2023 12:15:00 AM -0.05 31.91 0.307 7.88 6.58 14.22
1/16/2023 12:30:00 AM -0.05 31.91 0.307 7.87 5.41 14.21
1/16/2023 12:45:00 AM -0.04 31.928 0.308 7.87 6.42 14.2
1/16/2023 1:00:00 AM -0.05 31.91 0.308 7.86 5.65 14.21
1/16/2023 1:15:00 AM -0.05 31.91 0.308 7.86 6.53 14.2
1/16/2023 1:30:00 AM -0.05 31.91 0.308 7.86 6.52 14.2
1/16/2023 1:45:00 AM -0.05 31.91 0.308 7.85 5.06 14.2
1/16/2023 2:00:00 AM -0.05 31.91 0.308 7.85 5.44 14.2
1/16/2023 2:15:00 AM -0.04 31.928 0.309 7.85 5.71 14.19
1/16/2023 2:30:00 AM -0.03 31.946 0.309 7.85 5.9 14.18
1/16/2023 2:45:00 AM -0.03 31.946 0.309 7.84 5.46 14.18
1/16/2023 3:00:00 AM -0.04 31.928 0.309 7.84 5.17 14.18
1/16/2023 3:15:00 AM -0.02 31.964 0.31 7.84 4.86 14.17
1/16/2023 3:30:00 AM -0.02 31.964 0.31 7.84 5.04 14.16
1/16/2023 3:45:00 AM -0.02 31.964 0.31 7.84 5.43 14.15
1/16/2023 4:00:00 AM -0.03 31.946 0.311 7.83 6.2 14.15
1/16/2023 4:15:00 AM -0.03 31.946 0.311 7.83 5.91 14.15
1/16/2023 4:30:00 AM -0.03 31.946 0.312 7.82 5.76 14.15
1/16/2023 4:45:00 AM -0.04 31.928 0.312 7.82 5.63 14.15
1/16/2023 5:00:00 AM -0.03 31.946 0.313 7.82 5.7 14.13
1/16/2023 5:15:00 AM -0.03 31.946 0.313 7.82 6.07 14.13
1/16/2023 5:30:00 AM -0.03 31.946 0.314 7.81 5.85 14.13
1/16/2023 5:45:00 AM -0.04 31.928 0.314 7.81 5.89 14.13
1/16/2023 6:00:00 AM -0.03 31.946 0.315 7.8 5.52 14.12
1/16/2023 6:15:00 AM -0.04 31.928 0.316 7.81 5.55 14.12
1/16/2023 6:30:00 AM -0.05 31.91 0.316 7.8 5.27 14.12
1/16/2023 6:45:00 AM -0.02 31.964 0.317 7.8 5.22 14.11
1/16/2023 7:00:00 AM -0.03 31.946 0.318 7.8 5.02 14.11
1/16/2023 7:15:00 AM -0.04 31.928 0.318 7.8 5.61 14.11
1/16/2023 7:30:00 AM -0.03 31.946 0.319 7.8 5.51 14.1
1/16/2023 7:45:00 AM -0.02 31.964 0.319 7.8 5.06 14.1
1/16/2023 8:00:00 AM -0.03 31.946